Time,TemperatureF,DewpointF,PressureIn,WindDirection,WindDirectionDegrees,WindSpeedMPH,WindSpeedGustMPH,Humidity,HourlyPrecipIn,Conditions,Clouds,dailyrainin,SoftwareType,DateUTC
2013-02-23 00:00:00,36.6,35.6,30.18,ENE,58,2.0,3.0,96,0.01,,---,0.47,VWS V14.01,2013-02-23 05:00:00,
2013-02-23 00:01:00,36.6,35.6,30.18,NE,49,4.0,4.0,96,0.01,,---,0.00,VWS V14.01,2013-02-23 05:01:00,
2013-02-23 00:02:00,36.6,35.6,30.17,NE,42,5.0,5.0,96,0.01,,---,0.00,VWS V14.01,2013-02-23 05:02:00,
2013-02-23 00:03:00,36.6,35.6,30.17,NNE,26,4.0,6.0,96,0.01,,---,0.00,VWS V14.01,2013-02-23 05:03:00,
2013-02-23 00:04:00,36.6,35.6,30.17,NE,46,3.0,6.0,96,0.01,,---,0.00,VWS V14.01,2013-02-23 05:04:00,
2013-02-23 00:05:00,36.7,35.7,30.17,NE,47,2.0,2.0,96,0.01,,---,0.00,VWS V14.01,2013-02-23 05:05:00,
2013-02-23 00:06:00,36.6,35.6,30.17,NE,51,3.0,3.0,96,0.01,,---,0.00,VWS V14.01,2013-02-23 05:06:00,
2013-02-23 00:07:00,36.7,35.7,30.17,NE,43,4.0,5.0,96,0.01,,---,0.00,VWS V14.01,2013-02-23 05:07:00,
2013-02-23 00:08:00,36.6,35.6,30.17,NE,47,6.0,7.0,96,0.01,,---,0.00,VWS V14.01,2013-02-23 05:08:00,
2013-02-23 00:09:00,36.6,35.6,30.17,ENE,65,4.0,6.0,96,0.01,,---,0.00,VWS V14.01,2013-02-23 05:09:00,
2013-02-23 00:10:00,36.6,35.6,30.16,ENE,61,3.0,3.0,96,0.01,,---,0.00,VWS V14.01,2013-02-23 05:10:00,
2013-02-23 00:11:00,36.6,35.6,30.16,NE,50,5.0,6.0,96,0.01,,---,0.00,VWS V14.01,2013-02-23 05:11:00,
2013-02-23 00:12:00,36.6,35.6,30.16,ENE,76,7.0,8.0,96,0.01,,---,0.00,VWS V14.01,2013-02-23 05:12:00,
2013-02-23 00:13:00,36.6,35.6,30.16,ENE,78,3.0,7.0,96,0.01,,---,0.00,VWS V14.01,2013-02-23 05:13:00,
2013-02-23 00:14:00,36.6,35.6,30.16,ENE,74,4.0,4.0,96,0.01,,---,0.00,VWS V14.01,2013-02-23 05:14:00,
2013-02-23 00:15:00,36.6,35.6,30.16,NE,47,3.0,4.0,96,0.01,,---,0.00,VWS V14.01,2013-02-23 05:15:00,
2013-02-23 00:16:00,36.6,35.6,30.16,ENE,63,4.0,5.0,96,0.01,,---,0.00,VWS V14.01,2013-02-23 05:16:00,
2013-02-23 00:17:00,36.6,35.6,30.16,ENE,69,4.0,4.0,96,0.01,,---,0.00,VWS V14.01,2013-02-23 05:17:00,
2013-02-23 00:18:00,36.6,35.6,30.16,ENE,74,5.0,7.0,96,0.01,,---,0.00,VWS V14.01,2013-02-23 05:18:00,
2013-02-23 00:19:00,36.6,35.6,30.16,NE,55,5.0,8.0,96,0.01,,---,0.00,VWS V14.01,2013-02-23 05:19:00,
2013-02-23 00:20:00,36.6,35.6,30.15,ENE,73,7.0,7.0,96,0.00,,---,0.00,VWS V14.01,2013-02-23 05:20:00,
2013-02-23 00:21:00,36.6,35.6,30.15,ENE,76,8.0,9.0,96,0.00,,---,0.00,VWS V14.01,2013-02-23 05:21:00,
2013-02-23 00:22:00,36.6,35.6,30.15,East,80,6.0,8.0,96,0.00,,---,0.00,VWS V14.01,2013-02-23 05:22:00,
2013-02-23 00:23:00,36.6,35.6,30.15,ENE,71,5.0,7.0,96,0.00,,---,0.00,VWS V14.01,2013-02-23 05:23:00,
2013-02-23 00:24:00,36.6,35.6,30.15,ENE,67,5.0,7.0,96,0.00,,---,0.00,VWS V14.01,2013-02-23 05:24:00,
2013-02-23 00:25:00,36.6,35.6,30.15,NE,47,5.0,5.0,96,0.00,,---,0.00,VWS V14.01,2013-02-23 05:25:00,
2013-02-23 00:26:00,36.6,35.6,30.15,ENE,67,7.0,7.0,96,0.00,,---,0.00,VWS V14.01,2013-02-23 05:26:00,
2013-02-23 00:27:00,36.6,35.6,30.15,NE,55,4.0,7.0,96,0.00,,---,0.00,VWS V14.01,2013-02-23 05:27:00,
2013-02-23 00:28:00,36.6,35.6,30.15,NE,36,3.0,4.0,96,0.00,,---,0.00,VWS V14.01,2013-02-23 05:28:00,
2013-02-23 00:29:00,36.6,35.6,30.15,NE,49,3.0,6.0,96,0.00,,---,0.00,VWS V14.01,2013-02-23 05:29:00,
2013-02-23 00:30:00,36.6,35.6,30.15,NE,53,3.0,5.0,96,0.00,,---,0.00,VWS V14.01,2013-02-23 05:30:00,
2013-02-23 00:31:00,36.6,35.6,30.15,NE,42,5.0,6.0,96,0.00,,---,0.00,VWS V14.01,2013-02-23 05:31:00,
2013-02-23 00:32:00,36.6,35.6,30.15,ENE,74,5.0,5.0,96,0.00,,---,0.00,VWS V14.01,2013-02-23 05:32:00,
2013-02-23 00:33:00,36.6,35.6,30.15,ENE,58,7.0,8.0,96,0.00,,---,0.00,VWS V14.01,2013-02-23 05:33:00,
2013-02-23 00:34:00,36.6,35.6,30.15,NE,34,6.0,7.0,96,0.00,,---,0.00,VWS V14.01,2013-02-23 05:34:00,
2013-02-23 00:35:00,36.6,35.6,30.15,NE,42,3.0,7.0,96,0.00,,---,0.00,VWS V14.01,2013-02-23 05:35:00,
2013-02-23 00:36:00,36.6,35.6,30.15,NE,47,1.0,4.0,96,0.00,,---,0.00,VWS V14.01,2013-02-23 05:36:00,
2013-02-23 00:37:00,36.6,35.6,30.15,NE,39,3.0,5.0,96,0.00,,---,0.00,VWS V14.01,2013-02-23 05:37:00,
2013-02-23 00:38:00,36.7,35.7,30.15,NE,44,3.0,5.0,96,0.00,,---,0.00,VWS V14.01,2013-02-23 05:38:00,
2013-02-23 00:39:00,36.6,35.6,30.15,NE,48,1.0,3.0,96,0.00,,---,0.00,VWS V14.01,2013-02-23 05:39:00,
2013-02-23 00:40:00,36.7,35.7,30.15,NE,39,6.0,7.0,96,0.00,,---,0.00,VWS V14.01,2013-02-23 05:40:00,
2013-02-23 00:41:00,36.7,35.7,30.15,NE,46,4.0,7.0,96,0.00,,---,0.00,VWS V14.01,2013-02-23 05:41:00,
2013-02-23 00:42:00,36.7,35.7,30.15,ENE,76,2.0,4.0,96,0.00,,---,0.00,VWS V14.01,2013-02-23 05:42:00,
2013-02-23 00:43:00,36.7,35.7,30.15,NE,45,3.0,3.0,96,0.00,,---,0.00,VWS V14.01,2013-02-23 05:43:00,
2013-02-23 00:44:00,36.7,35.7,30.15,NE,49,4.0,4.0,96,0.00,,---,0.00,VWS V14.01,2013-02-23 05:44:00,
2013-02-23 00:45:00,36.7,35.7,30.14,NE,55,2.0,4.0,96,0.00,,---,0.00,VWS V14.01,2013-02-23 05:45:00,
2013-02-23 00:46:00,36.7,35.7,30.15,ENE,59,2.0,3.0,96,0.00,,---,0.00,VWS V14.01,2013-02-23 05:46:00,
2013-02-23 00:47:00,36.7,35.7,30.15,NE,49,3.0,3.0,96,0.00,,---,0.00,VWS V14.01,2013-02-23 05:47:00,
2013-02-23 00:48:00,36.7,35.7,30.15,NE,43,3.0,4.0,96,0.00,,---,0.00,VWS V14.01,2013-02-23 05:48:00,
2013-02-23 00:49:00,36.7,35.7,30.15,ENE,65,5.0,6.0,96,0.00,,---,0.00,VWS V14.01,2013-02-23 05:49:00,
2013-02-23 00:50:00,36.7,35.7,30.15,ENE,62,5.0,6.0,96,0.00,,---,0.00,VWS V14.01,2013-02-23 05:50:00,
2013-02-23 00:51:00,36.7,35.7,30.15,ENE,59,2.0,5.0,96,0.00,,---,0.00,VWS V14.01,2013-02-23 05:51:00,
2013-02-23 00:52:00,36.7,35.7,30.15,NE,55,1.0,3.0,96,0.00,,---,0.00,VWS V14.01,2013-02-23 05:52:00,
2013-02-23 00:53:00,36.7,35.7,30.15,NE,50,2.0,3.0,96,0.00,,---,0.00,VWS V14.01,2013-02-23 05:53:00,
2013-02-23 00:55:00,36.7,35.7,30.15,NE,45,3.0,4.0,96,0.00,,---,0.00,VWS V14.01,2013-02-23 05:55:00,
2013-02-23 00:56:00,36.7,35.7,30.15,NE,34,3.0,4.0,96,0.00,,---,0.00,VWS V14.01,2013-02-23 05:56:00,
2013-02-23 00:57:00,36.7,35.7,30.15,NE,49,2.0,4.0,96,0.00,,---,0.00,VWS V14.01,2013-02-23 05:57:00,
2013-02-23 00:58:00,36.7,35.7,30.15,NE,53,4.0,7.0,96,0.00,,---,0.00,VWS V14.01,2013-02-23 05:58:00,
2013-02-23 00:59:00,36.7,35.7,30.15,ENE,63,1.0,4.0,96,0.00,,---,0.00,VWS V14.01,2013-02-23 05:59:00,
2013-02-23 01:00:00,36.7,35.7,30.15,NE,36,3.0,4.0,96,0.00,,---,0.00,VWS V14.01,2013-02-23 06:00:00,
2013-02-23 01:01:00,36.7,35.7,30.15,ENE,69,3.0,5.0,96,0.00,,---,0.00,VWS V14.01,2013-02-23 06:01:00,
2013-02-23 01:02:00,36.7,35.7,30.15,NNE,25,4.0,4.0,96,0.00,,---,0.00,VWS V14.01,2013-02-23 06:02:00,
2013-02-23 01:03:00,36.7,35.7,30.15,NE,55,3.0,5.0,96,0.00,,---,0.00,VWS V14.01,2013-02-23 06:03:00,
2013-02-23 01:04:00,36.7,35.7,30.15,NNE,33,3.0,4.0,96,0.00,,---,0.00,VWS V14.01,2013-02-23 06:04:00,
2013-02-23 01:05:00,36.7,35.7,30.15,NE,53,2.0,3.0,96,0.00,,---,0.00,VWS V14.01,2013-02-23 06:05:00,
2013-02-23 01:06:00,36.7,35.7,30.15,NE,47,4.0,7.0,96,0.00,,---,0.00,VWS V14.01,2013-02-23 06:06:00,
2013-02-23 01:07:00,36.7,35.7,30.15,ENE,58,5.0,5.0,96,0.00,,---,0.00,VWS V14.01,2013-02-23 06:07:00,
2013-02-23 01:08:00,36.7,35.7,30.15,NE,44,3.0,7.0,96,0.00,,---,0.00,VWS V14.01,2013-02-23 06:08:00,
2013-02-23 01:09:00,36.7,35.7,30.15,ENE,62,3.0,4.0,96,0.00,,---,0.00,VWS V14.01,2013-02-23 06:09:00,
2013-02-23 01:10:00,36.7,35.7,30.14,NNE,16,3.0,3.0,96,0.00,,---,0.00,VWS V14.01,2013-02-23 06:10:00,
2013-02-23 01:11:00,36.7,35.7,30.15,NE,42,5.0,6.0,96,0.00,,---,0.00,VWS V14.01,2013-02-23 06:11:00,
2013-02-23 01:12:00,36.7,35.7,30.15,NNE,30,3.0,5.0,96,0.00,,---,0.00,VWS V14.01,2013-02-23 06:12:00,
2013-02-23 01:13:00,36.7,35.7,30.15,NE,50,4.0,5.0,96,0.00,,---,0.00,VWS V14.01,2013-02-23 06:13:00,
2013-02-23 01:14:00,36.7,35.7,30.15,NNE,17,4.0,4.0,96,0.00,,---,0.00,VWS V14.01,2013-02-23 06:14:00,
2013-02-23 01:15:00,36.7,35.7,30.15,ENE,58,2.0,4.0,96,0.00,,---,0.00,VWS V14.01,2013-02-23 06:15:00,
2013-02-23 01:16:00,36.7,35.7,30.15,NNE,24,6.0,6.0,96,0.00,,---,0.00,VWS V14.01,2013-02-23 06:16:00,
2013-02-23 01:17:00,36.7,35.7,30.14,NE,45,5.0,6.0,96,0.00,,---,0.00,VWS V14.01,2013-02-23 06:17:00,
2013-02-23 01:18:00,36.7,35.7,30.15,NNE,28,3.0,5.0,96,0.00,,---,0.00,VWS V14.01,2013-02-23 06:18:00,
2013-02-23 01:19:00,36.7,35.7,30.15,NE,50,4.0,4.0,96,0.00,,---,0.00,VWS V14.01,2013-02-23 06:19:00,
2013-02-23 01:20:00,36.7,35.7,30.15,NE,42,4.0,4.0,96,0.00,,---,0.00,VWS V14.01,2013-02-23 06:20:00,
2013-02-23 01:21:00,36.7,35.7,30.14,NE,49,3.0,6.0,96,0.00,,---,0.00,VWS V14.01,2013-02-23 06:21:00,
2013-02-23 01:22:00,36.7,35.7,30.15,ENE,58,3.0,5.0,96,0.00,,---,0.00,VWS V14.01,2013-02-23 06:22:00,
2013-02-23 01:23:00,36.7,35.7,30.14,NE,47,2.0,3.0,96,0.00,,---,0.00,VWS V14.01,2013-02-23 06:23:00,
2013-02-23 01:24:00,36.7,35.7,30.15,NE,55,3.0,3.0,96,0.00,,---,0.00,VWS V14.01,2013-02-23 06:24:00,
2013-02-23 01:25:00,36.7,35.7,30.15,NNE,30,1.0,3.0,96,0.00,,---,0.00,VWS V14.01,2013-02-23 06:25:00,
2013-02-23 01:26:00,36.7,35.7,30.15,NNW,336,3.0,3.0,96,0.00,,---,0.00,VWS V14.01,2013-02-23 06:26:00,
2013-02-23 01:27:00,36.8,35.8,30.15,NE,34,3.0,3.0,96,0.00,,---,0.00,VWS V14.01,2013-02-23 06:27:00,
2013-02-23 01:28:00,36.8,35.8,30.15,NNE,20,3.0,3.0,96,0.00,,---,0.00,VWS V14.01,2013-02-23 06:28:00,
2013-02-23 01:29:00,36.7,35.7,30.15,NE,36,5.0,5.0,96,0.00,,---,0.00,VWS V14.01,2013-02-23 06:29:00,
2013-02-23 01:30:00,36.7,35.7,30.15,NNE,25,2.0,6.0,96,0.00,,---,0.00,VWS V14.01,2013-02-23 06:30:00,
2013-02-23 01:31:00,36.7,35.7,30.15,NE,48,4.0,5.0,96,0.00,,---,0.00,VWS V14.01,2013-02-23 06:31:00,
2013-02-23 01:32:00,36.8,35.8,30.15,NNE,27,4.0,4.0,96,0.00,,---,0.00,VWS V14.01,2013-02-23 06:32:00,
2013-02-23 01:33:00,36.8,35.8,30.15,NE,44,5.0,5.0,96,0.00,,---,0.00,VWS V14.01,2013-02-23 06:33:00,
2013-02-23 01:34:00,36.8,35.8,30.15,NE,46,2.0,5.0,96,0.00,,---,0.00,VWS V14.01,2013-02-23 06:34:00,
2013-02-23 01:35:00,36.8,35.8,30.15,NNE,32,3.0,3.0,96,0.00,,---,0.00,VWS V14.01,2013-02-23 06:35:00,
2013-02-23 01:36:00,36.7,35.7,30.15,NE,39,2.0,3.0,96,0.00,,---,0.00,VWS V14.01,2013-02-23 06:36:00,
2013-02-23 01:37:00,36.8,35.8,30.15,NNE,28,2.0,3.0,96,0.00,,---,0.00,VWS V14.01,2013-02-23 06:37:00,
2013-02-23 01:38:00,36.8,35.8,30.15,NE,39,3.0,4.0,96,0.00,,---,0.00,VWS V14.01,2013-02-23 06:38:00,
2013-02-23 01:39:00,36.8,35.8,30.15,NNE,23,2.0,3.0,96,0.00,,---,0.00,VWS V14.01,2013-02-23 06:39:00,
2013-02-23 01:40:00,36.8,35.8,30.15,North,5,3.0,3.0,96,0.00,,---,0.00,VWS V14.01,2013-02-23 06:40:00,
2013-02-23 01:41:00,36.8,35.8,30.15,NNE,29,3.0,3.0,96,0.00,,---,0.00,VWS V14.01,2013-02-23 06:41:00,
2013-02-23 01:42:00,36.7,35.7,30.14,NNE,27,5.0,5.0,96,0.00,,---,0.00,VWS V14.01,2013-02-23 06:42:00,
2013-02-23 01:43:00,36.7,35.7,30.14,NE,51,5.0,6.0,96,0.00,,---,0.00,VWS V14.01,2013-02-23 06:43:00,
2013-02-23 01:44:00,36.8,35.8,30.14,ENE,61,3.0,6.0,96,0.00,,---,0.00,VWS V14.01,2013-02-23 06:44:00,
2013-02-23 01:45:00,36.8,35.8,30.14,NE,47,6.0,6.0,96,0.00,,---,0.00,VWS V14.01,2013-02-23 06:45:00,
2013-02-23 01:46:00,36.8,35.8,30.13,NE,47,5.0,7.0,96,0.00,,---,0.00,VWS V14.01,2013-02-23 06:46:00,
2013-02-23 01:47:00,36.8,35.8,30.13,NNE,17,2.0,6.0,96,0.00,,---,0.00,VWS V14.01,2013-02-23 06:47:00,
2013-02-23 01:48:00,36.8,35.8,30.14,ENE,61,1.0,2.0,96,0.00,,---,0.00,VWS V14.01,2013-02-23 06:48:00,
2013-02-23 01:49:00,36.8,35.8,30.14,ENE,63,2.0,3.0,96,0.00,,---,0.00,VWS V14.01,2013-02-23 06:49:00,
2013-02-23 01:50:00,36.8,35.8,30.14,NNE,20,1.0,2.0,96,0.00,,---,0.00,VWS V14.01,2013-02-23 06:50:00,
2013-02-23 01:51:00,36.8,35.8,30.14,ENE,58,3.0,3.0,96,0.00,,---,0.00,VWS V14.01,2013-02-23 06:51:00,
2013-02-23 01:52:00,36.8,35.8,30.14,NE,38,3.0,3.0,96,0.00,,---,0.00,VWS V14.01,2013-02-23 06:52:00,
2013-02-23 01:53:00,36.8,35.8,30.14,NNE,33,3.0,3.0,96,0.00,,---,0.00,VWS V14.01,2013-02-23 06:53:00,
2013-02-23 01:54:00,36.8,35.8,30.14,NNE,32,2.0,5.0,96,0.00,,---,0.00,VWS V14.01,2013-02-23 06:54:00,
2013-02-23 01:55:00,36.8,35.8,30.14,NNE,30,3.0,3.0,96,0.00,,---,0.00,VWS V14.01,2013-02-23 06:55:00,
2013-02-23 01:56:00,36.8,35.8,30.14,NE,42,1.0,4.0,96,0.00,,---,0.00,VWS V14.01,2013-02-23 06:56:00,
2013-02-23 01:57:00,36.8,35.8,30.14,ENE,63,1.0,2.0,96,0.00,,---,0.00,VWS V14.01,2013-02-23 06:57:00,
2013-02-23 01:58:00,36.8,35.8,30.14,NE,47,3.0,3.0,96,0.00,,---,0.00,VWS V14.01,2013-02-23 06:58:00,
2013-02-23 01:59:00,36.8,35.8,30.14,NE,47,4.0,4.0,96,0.00,,---,0.00,VWS V14.01,2013-02-23 06:59:00,
2013-02-23 02:00:00,36.8,35.8,30.14,NE,53,2.0,5.0,96,0.00,,---,0.00,VWS V14.01,2013-02-23 07:00:00,
2013-02-23 02:01:00,36.8,35.8,30.14,NNE,27,4.0,4.0,96,0.00,,---,0.00,VWS V14.01,2013-02-23 07:01:00,
2013-02-23 02:02:00,36.8,35.8,30.14,NE,42,2.0,4.0,96,0.00,,---,0.00,VWS V14.01,2013-02-23 07:02:00,
2013-02-23 02:03:00,36.8,35.8,30.14,NE,48,4.0,4.0,96,0.00,,---,0.00,VWS V14.01,2013-02-23 07:03:00,
2013-02-23 02:04:00,36.8,35.8,30.14,NNE,31,4.0,5.0,96,0.00,,---,0.00,VWS V14.01,2013-02-23 07:04:00,
2013-02-23 02:05:00,36.8,35.8,30.13,ENE,66,3.0,5.0,96,0.00,,---,0.00,VWS V14.01,2013-02-23 07:05:00,
2013-02-23 02:06:00,36.8,35.8,30.14,NE,55,2.0,3.0,96,0.00,,---,0.00,VWS V14.01,2013-02-23 07:06:00,
2013-02-23 02:07:00,36.8,35.8,30.13,NNE,27,2.0,2.0,96,0.00,,---,0.00,VWS V14.01,2013-02-23 07:07:00,
2013-02-23 02:08:00,36.8,35.8,30.13,NNE,30,4.0,5.0,96,0.00,,---,0.00,VWS V14.01,2013-02-23 07:08:00,
2013-02-23 02:09:00,36.8,35.8,30.13,NE,36,3.0,5.0,96,0.00,,---,0.00,VWS V14.01,2013-02-23 07:09:00,
2013-02-23 02:10:00,36.8,35.8,30.13,NNE,33,4.0,4.0,96,0.00,,---,0.00,VWS V14.01,2013-02-23 07:10:00,
2013-02-23 02:11:00,36.8,35.8,30.13,NE,38,5.0,5.0,96,0.00,,---,0.00,VWS V14.01,2013-02-23 07:11:00,
2013-02-23 02:12:00,36.8,35.8,30.13,NE,49,5.0,6.0,96,0.01,,---,0.01,VWS V14.01,2013-02-23 07:12:00,
2013-02-23 02:13:00,36.8,35.8,30.13,NNE,33,4.0,5.0,96,0.01,,---,0.01,VWS V14.01,2013-02-23 07:13:00,
2013-02-23 02:14:00,36.8,35.8,30.13,NE,38,3.0,4.0,96,0.01,,---,0.01,VWS V14.01,2013-02-23 07:14:00,
2013-02-23 02:15:00,36.8,35.8,30.13,North,11,3.0,4.0,96,0.01,,---,0.01,VWS V14.01,2013-02-23 07:15:00,
2013-02-23 02:16:00,36.8,35.8,30.13,ENE,58,4.0,5.0,96,0.01,,---,0.01,VWS V14.01,2013-02-23 07:16:00,
2013-02-23 02:17:00,36.8,35.8,30.13,NE,46,4.0,5.0,96,0.01,,---,0.01,VWS V14.01,2013-02-23 07:17:00,
2013-02-23 02:18:00,36.8,35.8,30.13,NE,42,4.0,4.0,96,0.01,,---,0.01,VWS V14.01,2013-02-23 07:18:00,
2013-02-23 02:19:00,36.8,35.8,30.13,NNE,27,4.0,4.0,96,0.01,,---,0.01,VWS V14.01,2013-02-23 07:19:00,
2013-02-23 02:20:00,36.8,35.8,30.13,NNW,347,2.0,4.0,96,0.01,,---,0.01,VWS V14.01,2013-02-23 07:20:00,
2013-02-23 02:21:00,36.8,35.8,30.13,NNE,15,4.0,5.0,96,0.01,,---,0.01,VWS V14.01,2013-02-23 07:21:00,
2013-02-23 02:22:00,36.8,35.8,30.13,NE,42,4.0,5.0,96,0.01,,---,0.01,VWS V14.01,2013-02-23 07:22:00,
2013-02-23 02:23:00,36.8,35.8,30.12,NE,51,3.0,4.0,96,0.02,,---,0.02,VWS V14.01,2013-02-23 07:23:00,
2013-02-23 02:24:00,36.8,35.8,30.12,NNE,13,2.0,3.0,96,0.04,,---,0.04,VWS V14.01,2013-02-23 07:24:00,
2013-02-23 02:25:00,36.8,35.8,30.12,NNE,30,3.0,3.0,96,0.04,,---,0.04,VWS V14.01,2013-02-23 07:25:00,
2013-02-23 02:26:00,36.8,35.8,30.12,NNE,28,4.0,4.0,96,0.04,,---,0.04,VWS V14.01,2013-02-23 07:26:00,
2013-02-23 02:27:00,36.8,35.8,30.12,NNE,28,4.0,5.0,96,0.04,,---,0.04,VWS V14.01,2013-02-23 07:27:00,
2013-02-23 02:28:00,36.8,35.8,30.12,NE,38,2.0,4.0,96,0.04,,---,0.04,VWS V14.01,2013-02-23 07:28:00,
2013-02-23 02:29:00,36.8,35.8,30.12,NNE,27,5.0,5.0,96,0.04,,---,0.04,VWS V14.01,2013-02-23 07:29:00,
2013-02-23 02:30:00,36.8,35.8,30.12,NNE,16,4.0,6.0,96,0.04,,---,0.04,VWS V14.01,2013-02-23 07:30:00,
2013-02-23 02:31:00,36.8,35.8,30.12,NNE,29,5.0,6.0,96,0.04,,---,0.04,VWS V14.01,2013-02-23 07:31:00,
2013-02-23 02:32:00,36.8,35.8,30.12,NNE,17,3.0,6.0,96,0.04,,---,0.04,VWS V14.01,2013-02-23 07:32:00,
2013-02-23 02:33:00,36.8,35.8,30.11,NNE,26,4.0,5.0,96,0.04,,---,0.04,VWS V14.01,2013-02-23 07:33:00,
2013-02-23 02:34:00,36.8,35.8,30.11,NE,35,3.0,4.0,96,0.04,,---,0.04,VWS V14.01,2013-02-23 07:34:00,
2013-02-23 02:35:00,36.8,35.8,30.11,North,5,3.0,4.0,96,0.04,,---,0.04,VWS V14.01,2013-02-23 07:35:00,
2013-02-23 02:36:00,36.8,35.8,30.11,North,5,5.0,5.0,96,0.04,,---,0.04,VWS V14.01,2013-02-23 07:36:00,
2013-02-23 02:37:00,36.8,35.8,30.11,NNE,31,5.0,6.0,96,0.04,,---,0.04,VWS V14.01,2013-02-23 07:37:00,
2013-02-23 02:38:00,36.8,35.8,30.11,NNE,30,6.0,6.0,96,0.04,,---,0.04,VWS V14.01,2013-02-23 07:38:00,
2013-02-23 02:39:00,36.8,35.8,30.11,NNE,25,4.0,7.0,96,0.04,,---,0.04,VWS V14.01,2013-02-23 07:39:00,
2013-02-23 02:40:00,36.8,35.8,30.11,North,355,6.0,9.0,96,0.04,,---,0.04,VWS V14.01,2013-02-23 07:40:00,
2013-02-23 02:41:00,36.7,35.7,30.11,NNE,24,5.0,7.0,96,0.04,,---,0.04,VWS V14.01,2013-02-23 07:41:00,
2013-02-23 02:42:00,36.8,35.8,30.12,NNE,20,5.0,6.0,96,0.04,,---,0.04,VWS V14.01,2013-02-23 07:42:00,
2013-02-23 02:43:00,36.8,35.8,30.12,NNE,28,2.0,5.0,96,0.04,,---,0.04,VWS V14.01,2013-02-23 07:43:00,
2013-02-23 02:44:00,36.7,35.7,30.12,NNW,335,3.0,7.0,96,0.04,,---,0.04,VWS V14.01,2013-02-23 07:44:00,
2013-02-23 02:45:00,36.8,35.8,30.12,NNW,335,7.0,7.0,96,0.04,,---,0.04,VWS V14.01,2013-02-23 07:45:00,
2013-02-23 02:46:00,36.7,35.7,30.12,NNE,16,5.0,8.0,96,0.04,,---,0.04,VWS V14.01,2013-02-23 07:46:00,
2013-02-23 02:47:00,36.7,35.7,30.12,North,11,5.0,9.0,96,0.04,,---,0.04,VWS V14.01,2013-02-23 07:47:00,
2013-02-23 02:48:00,36.7,35.7,30.12,NE,36,9.0,9.0,96,0.04,,---,0.04,VWS V14.01,2013-02-23 07:48:00,
2013-02-23 02:49:00,36.7,35.7,30.12,NNE,12,5.0,9.0,96,0.04,,---,0.04,VWS V14.01,2013-02-23 07:49:00,
2013-02-23 02:50:00,36.7,35.7,30.12,NNE,32,5.0,6.0,96,0.04,,---,0.04,VWS V14.01,2013-02-23 07:50:00,
2013-02-23 02:51:00,36.7,35.7,30.12,NE,42,5.0,6.0,96,0.04,,---,0.04,VWS V14.01,2013-02-23 07:51:00,
2013-02-23 02:52:00,36.7,35.7,30.11,NNE,32,3.0,7.0,96,0.04,,---,0.04,VWS V14.01,2013-02-23 07:52:00,
2013-02-23 02:53:00,36.7,35.7,30.11,NNE,29,4.0,4.0,96,0.04,,---,0.04,VWS V14.01,2013-02-23 07:53:00,
2013-02-23 02:54:00,36.7,35.7,30.11,NE,42,2.0,5.0,96,0.04,,---,0.04,VWS V14.01,2013-02-23 07:54:00,
2013-02-23 02:55:00,36.7,35.7,30.11,NNE,13,6.0,6.0,96,0.04,,---,0.04,VWS V14.01,2013-02-23 07:55:00,
2013-02-23 02:56:00,36.7,35.7,30.11,ENE,58,4.0,10.0,96,0.04,,---,0.04,VWS V14.01,2013-02-23 07:56:00,
2013-02-23 02:57:00,36.7,35.7,30.11,NE,36,8.0,8.0,96,0.04,,---,0.04,VWS V14.01,2013-02-23 07:57:00,
2013-02-23 02:58:00,36.7,35.7,30.11,NE,42,7.0,8.0,96,0.04,,---,0.04,VWS V14.01,2013-02-23 07:58:00,
2013-02-23 02:59:00,36.7,35.7,30.11,NNE,14,2.0,7.0,96,0.04,,---,0.04,VWS V14.01,2013-02-23 07:59:00,
2013-02-23 03:00:00,36.7,35.7,30.11,NE,36,7.0,7.0,96,0.04,,---,0.04,VWS V14.01,2013-02-23 08:00:00,
2013-02-23 03:01:00,36.7,35.7,30.10,NNE,31,6.0,7.0,96,0.04,,---,0.04,VWS V14.01,2013-02-23 08:01:00,
2013-02-23 03:02:00,36.6,35.6,30.10,NNE,23,4.0,6.0,96,0.04,,---,0.04,VWS V14.01,2013-02-23 08:02:00,
2013-02-23 03:03:00,36.7,35.7,30.10,NNE,14,4.0,5.0,96,0.04,,---,0.04,VWS V14.01,2013-02-23 08:03:00,
2013-02-23 03:04:00,36.7,35.7,30.10,NE,42,1.0,4.0,96,0.04,,---,0.04,VWS V14.01,2013-02-23 08:04:00,
2013-02-23 03:05:00,36.7,35.7,30.10,NE,53,2.0,4.0,96,0.04,,---,0.04,VWS V14.01,2013-02-23 08:05:00,
2013-02-23 03:06:00,36.7,35.7,30.10,NE,42,2.0,4.0,96,0.04,,---,0.04,VWS V14.01,2013-02-23 08:06:00,
2013-02-23 03:07:00,36.7,35.7,30.10,NE,55,3.0,4.0,96,0.04,,---,0.04,VWS V14.01,2013-02-23 08:07:00,
2013-02-23 03:08:00,36.7,35.7,30.10,NE,36,3.0,5.0,96,0.04,,---,0.04,VWS V14.01,2013-02-23 08:08:00,
2013-02-23 03:09:00,36.7,35.7,30.11,NNE,12,6.0,6.0,96,0.04,,---,0.04,VWS V14.01,2013-02-23 08:09:00,
2013-02-23 03:10:00,36.7,35.7,30.11,NNE,12,5.0,6.0,96,0.04,,---,0.04,VWS V14.01,2013-02-23 08:10:00,
2013-02-23 03:11:00,36.7,35.7,30.11,NE,43,4.0,6.0,96,0.04,,---,0.04,VWS V14.01,2013-02-23 08:11:00,
2013-02-23 03:12:00,36.7,35.7,30.11,NE,40,6.0,6.0,96,0.04,,---,0.04,VWS V14.01,2013-02-23 08:12:00,
2013-02-23 03:13:00,36.7,35.7,30.11,NE,36,4.0,6.0,96,0.03,,---,0.04,VWS V14.01,2013-02-23 08:13:00,
2013-02-23 03:14:00,36.7,35.7,30.11,NNE,28,6.0,6.0,96,0.03,,---,0.04,VWS V14.01,2013-02-23 08:14:00,
2013-02-23 03:15:00,36.7,35.7,30.11,NNE,26,6.0,7.0,96,0.03,,---,0.04,VWS V14.01,2013-02-23 08:15:00,
2013-02-23 03:16:00,36.7,35.7,30.10,NNE,27,7.0,7.0,96,0.03,,---,0.04,VWS V14.01,2013-02-23 08:16:00,
2013-02-23 03:17:00,36.7,35.7,30.10,NNE,30,4.0,7.0,96,0.03,,---,0.04,VWS V14.01,2013-02-23 08:17:00,
2013-02-23 03:18:00,36.7,35.7,30.10,North,360,4.0,6.0,96,0.03,,---,0.04,VWS V14.01,2013-02-23 08:18:00,
2013-02-23 03:19:00,36.7,35.7,30.09,NNE,18,3.0,4.0,96,0.03,,---,0.04,VWS V14.01,2013-02-23 08:19:00,
2013-02-23 03:20:00,36.7,35.7,30.09,NNE,30,4.0,4.0,96,0.03,,---,0.04,VWS V14.01,2013-02-23 08:20:00,
2013-02-23 03:21:00,36.7,35.7,30.09,NE,39,4.0,4.0,96,0.03,,---,0.04,VWS V14.01,2013-02-23 08:21:00,
2013-02-23 03:22:00,36.7,35.7,30.09,North,360,1.0,4.0,96,0.03,,---,0.04,VWS V14.01,2013-02-23 08:22:00,
2013-02-23 03:23:00,36.7,35.7,30.09,NNE,27,5.0,5.0,96,0.03,,---,0.04,VWS V14.01,2013-02-23 08:23:00,
2013-02-23 03:24:00,36.7,35.7,30.09,NW,315,3.0,8.0,96,0.00,,---,0.04,VWS V14.01,2013-02-23 08:24:00,
2013-02-23 03:25:00,36.7,35.7,30.09,NE,39,5.0,8.0,96,0.00,,---,0.04,VWS V14.01,2013-02-23 08:25:00,
2013-02-23 03:26:00,36.7,35.7,30.09,NNE,27,3.0,5.0,96,0.00,,---,0.04,VWS V14.01,2013-02-23 08:26:00,
2013-02-23 03:27:00,36.7,35.7,30.08,NNE,32,4.0,5.0,96,0.00,,---,0.04,VWS V14.01,2013-02-23 08:27:00,
2013-02-23 03:28:00,36.7,35.7,30.08,NNE,23,5.0,6.0,96,0.00,,---,0.04,VWS V14.01,2013-02-23 08:28:00,
2013-02-23 03:29:00,36.7,35.7,30.08,NNE,30,6.0,7.0,96,0.00,,---,0.04,VWS V14.01,2013-02-23 08:29:00,
2013-02-23 03:30:00,36.7,35.7,30.08,ENE,74,9.0,10.0,96,0.00,,---,0.04,VWS V14.01,2013-02-23 08:30:00,
2013-02-23 03:31:00,36.7,35.7,30.08,NE,47,6.0,9.0,96,0.00,,---,0.04,VWS V14.01,2013-02-23 08:31:00,
2013-02-23 03:32:00,36.7,35.7,30.08,NNE,14,4.0,7.0,96,0.00,,---,0.04,VWS V14.01,2013-02-23 08:32:00,
2013-02-23 03:33:00,36.7,35.7,30.08,ENE,60,2.0,5.0,96,0.00,,---,0.04,VWS V14.01,2013-02-23 08:33:00,
2013-02-23 03:34:00,36.7,35.7,30.08,NE,53,1.0,3.0,96,0.00,,---,0.04,VWS V14.01,2013-02-23 08:34:00,
2013-02-23 03:35:00,36.7,35.7,30.08,NNE,32,1.0,3.0,96,0.00,,---,0.04,VWS V14.01,2013-02-23 08:35:00,
2013-02-23 03:36:00,36.7,35.7,30.08,NNE,22,5.0,6.0,96,0.00,,---,0.04,VWS V14.01,2013-02-23 08:36:00,
2013-02-23 03:37:00,36.7,35.7,30.08,NE,42,5.0,9.0,96,0.00,,---,0.04,VWS V14.01,2013-02-23 08:37:00,
2013-02-23 03:38:00,36.7,35.7,30.08,NE,39,3.0,5.0,96,0.00,,---,0.04,VWS V14.01,2013-02-23 08:38:00,
2013-02-23 03:39:00,36.7,35.7,30.08,NNE,28,3.0,4.0,96,0.00,,---,0.04,VWS V14.01,2013-02-23 08:39:00,
2013-02-23 03:40:00,36.7,35.7,30.08,NNE,22,5.0,5.0,96,0.00,,---,0.04,VWS V14.01,2013-02-23 08:40:00,
2013-02-23 03:41:00,36.7,35.7,30.08,NE,35,4.0,5.0,96,0.00,,---,0.04,VWS V14.01,2013-02-23 08:41:00,
2013-02-23 03:42:00,36.7,35.7,30.08,NNE,30,4.0,5.0,96,0.00,,---,0.04,VWS V14.01,2013-02-23 08:42:00,
2013-02-23 03:43:00,36.7,35.7,30.08,NE,47,5.0,7.0,96,0.00,,---,0.04,VWS V14.01,2013-02-23 08:43:00,
2013-02-23 03:44:00,36.8,35.8,30.08,NE,49,3.0,4.0,96,0.00,,---,0.04,VWS V14.01,2013-02-23 08:44:00,
2013-02-23 03:45:00,36.8,35.8,30.08,NE,36,3.0,4.0,96,0.00,,---,0.04,VWS V14.01,2013-02-23 08:45:00,
2013-02-23 03:46:00,36.7,35.7,30.07,NNE,32,4.0,6.0,96,0.00,,---,0.04,VWS V14.01,2013-02-23 08:46:00,
2013-02-23 03:47:00,36.7,35.7,30.07,NNE,18,4.0,5.0,96,0.00,,---,0.04,VWS V14.01,2013-02-23 08:47:00,
2013-02-23 03:48:00,36.7,35.7,30.07,ENE,63,3.0,5.0,96,0.00,,---,0.04,VWS V14.01,2013-02-23 08:48:00,
2013-02-23 03:49:00,36.7,35.7,30.06,NE,46,4.0,7.0,96,0.00,,---,0.04,VWS V14.01,2013-02-23 08:49:00,
2013-02-23 03:50:00,36.8,35.8,30.06,NE,36,7.0,7.0,96,0.00,,---,0.04,VWS V14.01,2013-02-23 08:50:00,
2013-02-23 03:51:00,36.7,35.7,30.06,North,350,5.0,7.0,96,0.00,,---,0.04,VWS V14.01,2013-02-23 08:51:00,
2013-02-23 03:52:00,36.7,35.7,30.06,NE,43,5.0,6.0,96,0.00,,---,0.04,VWS V14.01,2013-02-23 08:52:00,
2013-02-23 03:53:00,36.7,35.7,30.06,NE,38,7.0,7.0,96,0.00,,---,0.04,VWS V14.01,2013-02-23 08:53:00,
2013-02-23 03:54:00,36.7,35.7,30.06,NE,34,2.0,5.0,96,0.00,,---,0.04,VWS V14.01,2013-02-23 08:54:00,
2013-02-23 03:55:00,36.7,35.7,30.06,NE,44,3.0,5.0,96,0.00,,---,0.04,VWS V14.01,2013-02-23 08:55:00,
2013-02-23 03:56:00,36.7,35.7,30.06,NE,49,3.0,5.0,96,0.00,,---,0.04,VWS V14.01,2013-02-23 08:56:00,
2013-02-23 03:57:00,36.7,35.7,30.06,ENE,62,3.0,4.0,96,0.00,,---,0.04,VWS V14.01,2013-02-23 08:57:00,
2013-02-23 03:58:00,36.8,35.8,30.07,ENE,76,2.0,3.0,96,0.00,,---,0.04,VWS V14.01,2013-02-23 08:58:00,
2013-02-23 03:59:00,36.8,35.8,30.07,ENE,58,2.0,2.0,96,0.00,,---,0.04,VWS V14.01,2013-02-23 08:59:00,
2013-02-23 04:00:00,36.8,35.8,30.07,NE,36,3.0,3.0,96,0.00,,---,0.04,VWS V14.01,2013-02-23 09:00:00,
2013-02-23 04:01:00,36.8,35.8,30.08,NE,50,3.0,5.0,96,0.00,,---,0.04,VWS V14.01,2013-02-23 09:01:00,
2013-02-23 04:02:00,36.7,35.7,30.08,NE,38,4.0,4.0,96,0.00,,---,0.04,VWS V14.01,2013-02-23 09:02:00,
2013-02-23 04:03:00,36.8,35.8,30.08,NE,39,3.0,4.0,96,0.00,,---,0.04,VWS V14.01,2013-02-23 09:03:00,
2013-02-23 04:04:00,36.8,35.8,30.08,NE,42,3.0,5.0,96,0.00,,---,0.04,VWS V14.01,2013-02-23 09:04:00,
2013-02-23 04:05:00,36.7,35.7,30.08,NNE,23,5.0,5.0,96,0.00,,---,0.04,VWS V14.01,2013-02-23 09:05:00,
2013-02-23 04:06:00,36.8,35.8,30.08,NNE,32,5.0,5.0,96,0.00,,---,0.04,VWS V14.01,2013-02-23 09:06:00,
2013-02-23 04:07:00,36.8,35.8,30.07,NE,40,4.0,7.0,96,0.00,,---,0.04,VWS V14.01,2013-02-23 09:07:00,
2013-02-23 04:08:00,36.8,35.8,30.07,ENE,60,3.0,4.0,96,0.00,,---,0.04,VWS V14.01,2013-02-23 09:08:00,
2013-02-23 04:09:00,36.8,35.8,30.07,NE,51,3.0,3.0,96,0.00,,---,0.04,VWS V14.01,2013-02-23 09:09:00,
2013-02-23 04:10:00,36.8,35.8,30.07,NE,51,2.0,3.0,96,0.00,,---,0.04,VWS V14.01,2013-02-23 09:10:00,
2013-02-23 04:11:00,36.8,35.8,30.07,NNE,18,3.0,3.0,96,0.00,,---,0.04,VWS V14.01,2013-02-23 09:11:00,
2013-02-23 04:12:00,36.8,35.8,30.07,NNE,29,2.0,3.0,96,0.00,,---,0.04,VWS V14.01,2013-02-23 09:12:00,
2013-02-23 04:13:00,36.8,35.8,30.07,NNE,22,2.0,3.0,96,0.00,,---,0.04,VWS V14.01,2013-02-23 09:13:00,
2013-02-23 04:14:00,36.8,35.8,30.07,NNE,29,5.0,5.0,96,0.00,,---,0.04,VWS V14.01,2013-02-23 09:14:00,
2013-02-23 04:15:00,36.8,35.8,30.07,NE,42,5.0,5.0,96,0.00,,---,0.04,VWS V14.01,2013-02-23 09:15:00,
2013-02-23 04:16:00,36.8,35.8,30.07,NNE,28,4.0,5.0,96,0.00,,---,0.04,VWS V14.01,2013-02-23 09:16:00,
2013-02-23 04:17:00,36.8,35.8,30.07,NE,40,2.0,4.0,96,0.00,,---,0.04,VWS V14.01,2013-02-23 09:17:00,
2013-02-23 04:18:00,36.8,35.8,30.07,NE,35,0.0,3.0,96,0.00,,---,0.04,VWS V14.01,2013-02-23 09:18:00,
2013-02-23 04:19:00,36.8,35.8,30.07,NE,42,5.0,5.0,96,0.00,,---,0.04,VWS V14.01,2013-02-23 09:19:00,
2013-02-23 04:20:00,36.8,35.8,30.07,NE,50,3.0,5.0,96,0.01,,---,0.05,VWS V14.01,2013-02-23 09:20:00,
2013-02-23 04:21:00,36.8,35.8,30.07,NE,47,2.0,4.0,96,0.01,,---,0.05,VWS V14.01,2013-02-23 09:21:00,
2013-02-23 04:22:00,36.8,35.8,30.07,NE,51,2.0,4.0,96,0.02,,---,0.06,VWS V14.01,2013-02-23 09:22:00,
2013-02-23 04:23:00,36.8,35.8,30.06,ENE,57,3.0,5.0,96,0.02,,---,0.06,VWS V14.01,2013-02-23 09:23:00,
2013-02-23 04:24:00,36.8,35.8,30.06,ENE,63,3.0,4.0,96,0.04,,---,0.08,VWS V14.01,2013-02-23 09:24:00,
2013-02-23 04:25:00,36.8,35.8,30.06,NE,47,2.0,4.0,96,0.04,,---,0.08,VWS V14.01,2013-02-23 09:25:00,
2013-02-23 04:26:00,36.8,35.8,30.06,NNE,28,4.0,5.0,96,0.05,,---,0.09,VWS V14.01,2013-02-23 09:26:00,
2013-02-23 04:27:00,36.8,35.8,30.06,ENE,62,5.0,5.0,96,0.05,,---,0.09,VWS V14.01,2013-02-23 09:27:00,
2013-02-23 04:28:00,36.8,35.8,30.06,ENE,58,3.0,5.0,96,0.05,,---,0.09,VWS V14.01,2013-02-23 09:28:00,
2013-02-23 04:29:00,36.8,35.8,30.06,NNE,26,3.0,4.0,96,0.06,,---,0.10,VWS V14.01,2013-02-23 09:29:00,
2013-02-23 04:30:00,36.8,35.8,30.06,NE,48,4.0,4.0,96,0.06,,---,0.10,VWS V14.01,2013-02-23 09:30:00,
2013-02-23 04:31:00,36.8,35.8,30.06,NNE,29,3.0,7.0,96,0.07,,---,0.11,VWS V14.01,2013-02-23 09:31:00,
2013-02-23 04:32:00,36.8,35.8,30.06,NE,51,4.0,4.0,96,0.07,,---,0.11,VWS V14.01,2013-02-23 09:32:00,
2013-02-23 04:33:00,36.8,35.8,30.06,NE,47,4.0,5.0,96,0.07,,---,0.11,VWS V14.01,2013-02-23 09:33:00,
2013-02-23 04:34:00,36.9,35.9,30.06,NNE,32,5.0,5.0,96,0.07,,---,0.11,VWS V14.01,2013-02-23 09:34:00,
2013-02-23 04:35:00,36.8,35.8,30.06,NNE,31,4.0,6.0,96,0.08,,---,0.12,VWS V14.01,2013-02-23 09:35:00,
2013-02-23 04:36:00,36.8,35.8,30.06,NE,42,4.0,7.0,96,0.08,,---,0.12,VWS V14.01,2013-02-23 09:36:00,
2013-02-23 04:37:00,36.8,35.8,30.06,NE,47,5.0,7.0,96,0.09,,---,0.13,VWS V14.01,2013-02-23 09:37:00,
2013-02-23 04:38:00,36.8,35.8,30.06,NE,44,4.0,5.0,96,0.10,,---,0.14,VWS V14.01,2013-02-23 09:38:00,
2013-02-23 04:39:00,36.8,35.8,30.06,NE,47,6.0,7.0,96,0.12,,---,0.16,VWS V14.01,2013-02-23 09:39:00,
2013-02-23 04:40:00,36.8,35.8,30.06,NE,47,7.0,7.0,96,0.13,,---,0.17,VWS V14.01,2013-02-23 09:40:00,
2013-02-23 04:41:00,36.9,35.9,30.06,NE,55,5.0,7.0,96,0.14,,---,0.18,VWS V14.01,2013-02-23 09:41:00,
2013-02-23 04:42:00,36.9,35.9,30.06,NE,47,1.0,5.0,96,0.15,,---,0.19,VWS V14.01,2013-02-23 09:42:00,
2013-02-23 04:43:00,36.8,35.8,30.06,NNW,342,1.0,1.0,96,0.15,,---,0.19,VWS V14.01,2013-02-23 09:43:00,
2013-02-23 04:44:00,36.9,35.9,30.06,NNE,16,3.0,3.0,96,0.15,,---,0.19,VWS V14.01,2013-02-23 09:44:00,
2013-02-23 04:45:00,36.9,35.9,30.06,NNE,18,2.0,3.0,96,0.16,,---,0.20,VWS V14.01,2013-02-23 09:45:00,
2013-02-23 04:46:00,36.9,35.9,30.07,NNE,33,1.0,2.0,96,0.16,,---,0.20,VWS V14.01,2013-02-23 09:46:00,
2013-02-23 04:47:00,36.9,35.9,30.07,NE,34,1.0,2.0,96,0.16,,---,0.20,VWS V14.01,2013-02-23 09:47:00,
2013-02-23 04:48:00,36.9,35.9,30.07,NE,49,5.0,5.0,96,0.16,,---,0.20,VWS V14.01,2013-02-23 09:48:00,
2013-02-23 04:49:00,36.9,35.9,30.06,NNE,32,5.0,5.0,96,0.17,,---,0.21,VWS V14.01,2013-02-23 09:49:00,
2013-02-23 04:50:00,36.9,35.9,30.06,ENE,60,4.0,5.0,96,0.17,,---,0.21,VWS V14.01,2013-02-23 09:50:00,
2013-02-23 04:51:00,36.9,35.9,30.06,NE,49,6.0,6.0,96,0.17,,---,0.21,VWS V14.01,2013-02-23 09:51:00,
2013-02-23 04:52:00,36.9,35.9,30.06,NE,35,6.0,6.0,96,0.18,,---,0.22,VWS V14.01,2013-02-23 09:52:00,
2013-02-23 04:53:00,36.9,35.9,30.06,NNE,29,5.0,6.0,96,0.18,,---,0.22,VWS V14.01,2013-02-23 09:53:00,
2013-02-23 04:54:00,36.9,35.9,30.05,NNE,32,4.0,5.0,96,0.18,,---,0.22,VWS V14.01,2013-02-23 09:54:00,
2013-02-23 04:55:00,36.9,35.9,30.05,NNE,30,3.0,5.0,96,0.18,,---,0.22,VWS V14.01,2013-02-23 09:55:00,
2013-02-23 04:56:00,36.9,35.9,30.05,NNW,346,4.0,5.0,96,0.18,,---,0.22,VWS V14.01,2013-02-23 09:56:00,
2013-02-23 04:57:00,36.9,35.9,30.05,NE,46,5.0,5.0,96,0.18,,---,0.22,VWS V14.01,2013-02-23 09:57:00,
2013-02-23 04:58:00,36.9,35.9,30.05,NNE,33,3.0,5.0,96,0.18,,---,0.22,VWS V14.01,2013-02-23 09:58:00,
2013-02-23 04:59:00,36.9,35.9,30.06,NNE,31,2.0,2.0,96,0.18,,---,0.22,VWS V14.01,2013-02-23 09:59:00,
2013-02-23 05:00:00,36.9,35.9,30.06,North,5,3.0,3.0,96,0.18,,---,0.22,VWS V14.01,2013-02-23 10:00:00,
2013-02-23 05:01:00,36.9,35.9,30.06,NE,53,3.0,5.0,96,0.18,,---,0.22,VWS V14.01,2013-02-23 10:01:00,
2013-02-23 05:02:00,36.9,35.9,30.06,NNW,327,2.0,4.0,96,0.18,,---,0.22,VWS V14.01,2013-02-23 10:02:00,
2013-02-23 05:03:00,36.9,35.9,30.07,NNW,337,1.0,2.0,96,0.19,,---,0.23,VWS V14.01,2013-02-23 10:03:00,
2013-02-23 05:04:00,36.9,35.9,30.07,NNE,20,1.0,1.0,96,0.19,,---,0.23,VWS V14.01,2013-02-23 10:04:00,
2013-02-23 05:05:00,36.9,35.9,30.07,NE,46,3.0,3.0,96,0.19,,---,0.23,VWS V14.01,2013-02-23 10:05:00,
2013-02-23 05:06:00,36.9,35.9,30.06,NE,53,3.0,4.0,96,0.19,,---,0.23,VWS V14.01,2013-02-23 10:06:00,
2013-02-23 05:07:00,36.9,35.9,30.06,NE,38,3.0,3.0,96,0.19,,---,0.23,VWS V14.01,2013-02-23 10:07:00,
2013-02-23 05:08:00,36.9,35.9,30.06,NNE,26,6.0,6.0,96,0.19,,---,0.23,VWS V14.01,2013-02-23 10:08:00,
2013-02-23 05:09:00,36.9,35.9,30.06,NNE,23,4.0,4.0,96,0.19,,---,0.23,VWS V14.01,2013-02-23 10:09:00,
2013-02-23 05:10:00,37.0,36.0,30.06,NNE,27,4.0,5.0,96,0.19,,---,0.23,VWS V14.01,2013-02-23 10:10:00,
2013-02-23 05:11:00,37.0,36.0,30.06,NNW,348,3.0,5.0,96,0.19,,---,0.23,VWS V14.01,2013-02-23 10:11:00,
2013-02-23 05:12:00,37.0,36.0,30.07,NNE,22,4.0,6.0,96,0.19,,---,0.23,VWS V14.01,2013-02-23 10:12:00,
2013-02-23 05:13:00,37.0,36.0,30.07,NNE,12,3.0,5.0,96,0.20,,---,0.24,VWS V14.01,2013-02-23 10:13:00,
2013-02-23 05:14:00,37.0,36.0,30.08,NNE,18,2.0,3.0,96,0.20,,---,0.24,VWS V14.01,2013-02-23 10:14:00,
2013-02-23 05:15:00,37.0,36.0,30.08,NW,326,2.0,3.0,96,0.20,,---,0.24,VWS V14.01,2013-02-23 10:15:00,
2013-02-23 05:16:00,37.0,36.0,30.08,NNE,24,2.0,2.0,96,0.20,,---,0.24,VWS V14.01,2013-02-23 10:16:00,
2013-02-23 05:17:00,37.0,36.0,30.08,NNE,28,2.0,4.0,96,0.20,,---,0.24,VWS V14.01,2013-02-23 10:17:00,
2013-02-23 05:18:00,37.0,36.0,30.08,NNW,331,3.0,3.0,96,0.20,,---,0.24,VWS V14.01,2013-02-23 10:18:00,
2013-02-23 05:19:00,37.1,36.1,30.08,NE,47,4.0,4.0,96,0.20,,---,0.24,VWS V14.01,2013-02-23 10:19:00,
2013-02-23 05:20:00,37.1,36.1,30.08,NNW,344,3.0,4.0,96,0.20,,---,0.24,VWS V14.01,2013-02-23 10:20:00,
2013-02-23 05:21:00,37.1,36.1,30.08,NNE,28,3.0,4.0,96,0.19,,---,0.24,VWS V14.01,2013-02-23 10:21:00,
2013-02-23 05:22:00,37.0,36.0,30.08,NNW,331,2.0,3.0,96,0.19,,---,0.24,VWS V14.01,2013-02-23 10:22:00,
2013-02-23 05:23:00,37.1,36.1,30.09,NW,314,0.0,3.0,96,0.18,,---,0.24,VWS V14.01,2013-02-23 10:23:00,
2013-02-23 05:24:00,37.1,36.1,30.09,WNW,290,1.0,2.0,96,0.17,,---,0.24,VWS V14.01,2013-02-23 10:24:00,
2013-02-23 05:25:00,37.1,36.1,30.09,WNW,289,0.0,2.0,96,0.17,,---,0.24,VWS V14.01,2013-02-23 10:25:00,
2013-02-23 05:26:00,37.1,36.1,30.09,WNW,291,1.0,1.0,96,0.16,,---,0.24,VWS V14.01,2013-02-23 10:26:00,
2013-02-23 05:27:00,37.1,36.1,30.09,NE,38,2.0,2.0,96,0.15,,---,0.24,VWS V14.01,2013-02-23 10:27:00,
2013-02-23 05:28:00,37.1,36.1,30.09,NNE,23,3.0,3.0,96,0.15,,---,0.24,VWS V14.01,2013-02-23 10:28:00,
2013-02-23 05:29:00,37.1,36.1,30.09,NNE,30,2.0,2.0,96,0.14,,---,0.24,VWS V14.01,2013-02-23 10:29:00,
2013-02-23 05:30:00,37.1,36.1,30.09,NNE,18,2.0,2.0,96,0.14,,---,0.24,VWS V14.01,2013-02-23 10:30:00,
2013-02-23 05:31:00,37.1,36.1,30.09,NNE,26,2.0,3.0,96,0.14,,---,0.24,VWS V14.01,2013-02-23 10:31:00,
2013-02-23 05:32:00,37.1,36.1,30.09,NNW,348,4.0,4.0,96,0.13,,---,0.24,VWS V14.01,2013-02-23 10:32:00,
2013-02-23 05:33:00,37.1,36.1,30.09,NNW,342,2.0,4.0,96,0.13,,---,0.24,VWS V14.01,2013-02-23 10:33:00,
2013-02-23 05:34:00,37.1,36.1,30.08,NNE,31,4.0,6.0,96,0.13,,---,0.24,VWS V14.01,2013-02-23 10:34:00,
2013-02-23 05:35:00,37.1,36.1,30.08,North,350,4.0,6.0,96,0.13,,---,0.24,VWS V14.01,2013-02-23 10:35:00,
2013-02-23 05:36:00,37.1,36.1,30.09,NNW,346,3.0,5.0,96,0.13,,---,0.25,VWS V14.01,2013-02-23 10:36:00,
2013-02-23 05:37:00,37.1,36.1,30.09,NNW,344,3.0,3.0,96,0.13,,---,0.25,VWS V14.01,2013-02-23 10:37:00,
2013-02-23 05:38:00,37.2,36.2,30.09,NNE,26,4.0,5.0,96,0.12,,---,0.25,VWS V14.01,2013-02-23 10:38:00,
2013-02-23 05:39:00,37.2,36.2,30.09,NNE,23,2.0,4.0,96,0.10,,---,0.25,VWS V14.01,2013-02-23 10:39:00,
2013-02-23 05:40:00,37.2,36.2,30.09,North,11,6.0,6.0,96,0.10,,---,0.25,VWS V14.01,2013-02-23 10:40:00,
2013-02-23 05:41:00,37.2,36.2,30.09,NE,47,4.0,6.0,96,0.08,,---,0.25,VWS V14.01,2013-02-23 10:41:00,
2013-02-23 05:42:00,37.2,36.2,30.08,NE,36,5.0,7.0,96,0.07,,---,0.25,VWS V14.01,2013-02-23 10:42:00,
2013-02-23 05:43:00,37.2,36.2,30.08,NNE,30,3.0,6.0,96,0.06,,---,0.25,VWS V14.01,2013-02-23 10:43:00,
2013-02-23 05:44:00,37.2,36.2,30.09,North,5,5.0,5.0,96,0.06,,---,0.25,VWS V14.01,2013-02-23 10:44:00,
2013-02-23 05:45:00,37.2,36.2,30.09,NNE,17,3.0,5.0,96,0.06,,---,0.25,VWS V14.01,2013-02-23 10:45:00,
2013-02-23 05:46:00,37.2,36.2,30.09,NNE,23,3.0,4.0,96,0.05,,---,0.25,VWS V14.01,2013-02-23 10:46:00,
2013-02-23 05:47:00,37.2,36.2,30.09,NNE,32,5.0,6.0,96,0.05,,---,0.25,VWS V14.01,2013-02-23 10:47:00,
2013-02-23 05:48:00,37.2,36.2,30.09,NNE,29,7.0,8.0,96,0.05,,---,0.25,VWS V14.01,2013-02-23 10:48:00,
2013-02-23 05:49:00,37.2,36.2,30.09,NNE,28,6.0,6.0,96,0.04,,---,0.25,VWS V14.01,2013-02-23 10:49:00,
2013-02-23 05:50:00,37.2,36.2,30.09,North,11,4.0,6.0,96,0.04,,---,0.25,VWS V14.01,2013-02-23 10:50:00,
2013-02-23 05:51:00,37.2,36.2,30.09,NNE,32,2.0,4.0,96,0.04,,---,0.25,VWS V14.01,2013-02-23 10:51:00,
2013-02-23 05:52:00,37.2,36.2,30.09,North,350,3.0,4.0,96,0.04,,---,0.25,VWS V14.01,2013-02-23 10:52:00,
2013-02-23 05:53:00,37.3,36.3,30.09,NNW,346,3.0,6.0,96,0.03,,---,0.25,VWS V14.01,2013-02-23 10:53:00,
2013-02-23 05:54:00,37.3,36.3,30.09,NNW,337,3.0,3.0,96,0.03,,---,0.25,VWS V14.01,2013-02-23 10:54:00,
2013-02-23 05:55:00,37.3,36.3,30.09,North,5,4.0,4.0,96,0.03,,---,0.25,VWS V14.01,2013-02-23 10:55:00,
2013-02-23 05:56:00,37.3,36.3,30.09,NNE,22,2.0,4.0,96,0.03,,---,0.25,VWS V14.01,2013-02-23 10:56:00,
2013-02-23 05:57:00,37.3,36.3,30.09,NNE,26,3.0,3.0,96,0.03,,---,0.25,VWS V14.01,2013-02-23 10:57:00,
2013-02-23 05:58:00,37.3,36.3,30.09,NNE,12,6.0,6.0,96,0.03,,---,0.25,VWS V14.01,2013-02-23 10:58:00,
2013-02-23 05:59:00,37.3,36.3,30.08,NNE,31,5.0,5.0,96,0.03,,---,0.25,VWS V14.01,2013-02-23 10:59:00,
2013-02-23 06:00:00,37.3,36.3,30.08,NNE,31,5.0,5.0,96,0.03,,---,0.25,VWS V14.01,2013-02-23 11:00:00,
2013-02-23 06:01:00,37.3,36.3,30.08,NNE,18,4.0,6.0,96,0.03,,---,0.25,VWS V14.01,2013-02-23 11:01:00,
2013-02-23 06:02:00,37.3,36.3,30.08,NNE,27,3.0,4.0,96,0.03,,---,0.25,VWS V14.01,2013-02-23 11:02:00,
2013-02-23 06:03:00,37.3,36.3,30.08,NE,39,1.0,3.0,96,0.03,,---,0.25,VWS V14.01,2013-02-23 11:03:00,
2013-02-23 06:04:00,37.3,36.3,30.08,NNE,30,2.0,3.0,96,0.02,,---,0.25,VWS V14.01,2013-02-23 11:04:00,
2013-02-23 06:06:00,37.3,36.3,30.09,NNW,331,2.0,3.0,96,0.02,,---,0.25,VWS V14.01,2013-02-23 11:06:00,
2013-02-23 06:07:00,37.3,36.3,30.09,NNE,27,3.0,4.0,96,0.02,,---,0.25,VWS V14.01,2013-02-23 11:07:00,
2013-02-23 06:08:00,37.3,36.3,30.09,NNE,32,2.0,3.0,96,0.02,,---,0.25,VWS V14.01,2013-02-23 11:08:00,
2013-02-23 06:09:00,37.3,36.3,30.09,NNE,28,1.0,1.0,96,0.02,,---,0.25,VWS V14.01,2013-02-23 11:09:00,
2013-02-23 06:10:00,37.4,36.4,30.09,NNE,28,1.0,1.0,96,0.02,,---,0.25,VWS V14.01,2013-02-23 11:10:00,
2013-02-23 06:11:00,37.4,36.4,30.09,North,355,3.0,3.0,96,0.02,,---,0.25,VWS V14.01,2013-02-23 11:11:00,
2013-02-23 06:12:00,37.4,36.4,30.09,NNE,14,4.0,4.0,96,0.02,,---,0.25,VWS V14.01,2013-02-23 11:12:00,
2013-02-23 06:13:00,37.4,36.4,30.09,NNE,20,3.0,4.0,96,0.02,,---,0.25,VWS V14.01,2013-02-23 11:13:00,
2013-02-23 06:14:00,37.4,36.4,30.09,NNE,20,3.0,3.0,96,0.02,,---,0.26,VWS V14.01,2013-02-23 11:14:00,
2013-02-23 06:15:00,37.4,36.4,30.09,NNE,22,2.0,3.0,96,0.02,,---,0.26,VWS V14.01,2013-02-23 11:15:00,
2013-02-23 06:16:00,37.4,36.4,30.09,NNE,22,0.0,2.0,96,0.02,,---,0.26,VWS V14.01,2013-02-23 11:16:00,
2013-02-23 06:17:00,37.4,36.4,30.10,West,277,1.0,1.0,96,0.02,,---,0.26,VWS V14.01,2013-02-23 11:17:00,
2013-02-23 06:18:00,37.5,36.5,30.10,West,277,0.0,1.0,96,0.02,,---,0.26,VWS V14.01,2013-02-23 11:18:00,
2013-02-23 06:19:00,37.5,36.5,30.10,West,277,0.0,0.0,96,0.02,,---,0.26,VWS V14.01,2013-02-23 11:19:00,
2013-02-23 06:20:00,37.5,36.5,30.10,West,277,0.0,0.0,96,0.02,,---,0.26,VWS V14.01,2013-02-23 11:20:00,
2013-02-23 06:21:00,37.5,36.5,30.10,NNW,340,0.0,1.0,96,0.02,,---,0.26,VWS V14.01,2013-02-23 11:21:00,
2013-02-23 06:22:00,37.5,36.5,30.10,NNE,32,3.0,3.0,96,0.02,,---,0.26,VWS V14.01,2013-02-23 11:22:00,
2013-02-23 06:23:00,37.5,36.5,30.09,NNE,27,2.0,4.0,96,0.02,,---,0.26,VWS V14.01,2013-02-23 11:23:00,
2013-02-23 06:24:00,37.5,36.5,30.09,North,11,4.0,4.0,96,0.02,,---,0.26,VWS V14.01,2013-02-23 11:24:00,
2013-02-23 06:25:00,37.5,36.5,30.09,NNE,28,3.0,5.0,96,0.02,,---,0.26,VWS V14.01,2013-02-23 11:25:00,
2013-02-23 06:26:00,37.5,36.5,30.09,NE,35,3.0,4.0,96,0.02,,---,0.26,VWS V14.01,2013-02-23 11:26:00,
2013-02-23 06:27:00,37.5,36.5,30.09,NNE,28,4.0,4.0,96,0.02,,---,0.26,VWS V14.01,2013-02-23 11:27:00,
2013-02-23 06:28:00,37.5,36.5,30.08,NNE,24,3.0,4.0,96,0.02,,---,0.26,VWS V14.01,2013-02-23 11:28:00,
2013-02-23 06:29:00,37.5,36.5,30.08,NNE,29,4.0,4.0,96,0.03,,---,0.27,VWS V14.01,2013-02-23 11:29:00,
2013-02-23 06:30:00,37.5,36.5,30.08,NE,34,4.0,5.0,96,0.03,,---,0.27,VWS V14.01,2013-02-23 11:30:00,
2013-02-23 06:31:00,37.5,36.5,30.08,NE,39,2.0,5.0,96,0.03,,---,0.27,VWS V14.01,2013-02-23 11:31:00,
2013-02-23 06:32:00,37.5,36.5,30.08,NNE,28,3.0,4.0,96,0.03,,---,0.27,VWS V14.01,2013-02-23 11:32:00,
2013-02-23 06:33:00,37.5,36.5,30.08,NE,49,3.0,5.0,96,0.03,,---,0.27,VWS V14.01,2013-02-23 11:33:00,
2013-02-23 06:34:00,37.5,36.5,30.08,NE,47,4.0,4.0,96,0.03,,---,0.27,VWS V14.01,2013-02-23 11:34:00,
2013-02-23 06:35:00,37.5,36.5,30.08,NE,49,3.0,4.0,96,0.03,,---,0.27,VWS V14.01,2013-02-23 11:35:00,
2013-02-23 06:36:00,37.5,36.5,30.08,NNE,26,4.0,4.0,96,0.03,,---,0.27,VWS V14.01,2013-02-23 11:36:00,
2013-02-23 06:37:00,37.5,36.5,30.08,NE,44,3.0,4.0,96,0.02,,---,0.27,VWS V14.01,2013-02-23 11:37:00,
2013-02-23 06:38:00,37.5,36.5,30.08,NNE,23,4.0,4.0,96,0.02,,---,0.27,VWS V14.01,2013-02-23 11:38:00,
2013-02-23 06:39:00,37.5,36.5,30.08,NNE,31,2.0,2.0,96,0.02,,---,0.27,VWS V14.01,2013-02-23 11:39:00,
2013-02-23 06:40:00,37.6,36.6,30.08,NE,47,3.0,3.0,96,0.02,,---,0.27,VWS V14.01,2013-02-23 11:40:00,
2013-02-23 06:41:00,37.6,36.6,30.08,ENE,65,3.0,4.0,96,0.02,,---,0.27,VWS V14.01,2013-02-23 11:41:00,
2013-02-23 06:42:00,37.6,36.6,30.07,NE,36,2.0,3.0,96,0.02,,---,0.27,VWS V14.01,2013-02-23 11:42:00,
2013-02-23 06:43:00,37.5,36.5,30.08,NE,43,5.0,5.0,96,0.02,,---,0.27,VWS V14.01,2013-02-23 11:43:00,
2013-02-23 06:44:00,37.6,36.6,30.07,NNE,15,4.0,4.0,96,0.02,,---,0.27,VWS V14.01,2013-02-23 11:44:00,
2013-02-23 06:45:00,37.6,36.6,30.07,NE,53,4.0,5.0,96,0.02,,---,0.27,VWS V14.01,2013-02-23 11:45:00,
2013-02-23 06:46:00,37.5,36.5,30.07,NE,55,6.0,6.0,96,0.02,,---,0.27,VWS V14.01,2013-02-23 11:46:00,
2013-02-23 06:47:00,37.6,36.6,30.07,NNE,29,4.0,6.0,96,0.03,,---,0.28,VWS V14.01,2013-02-23 11:47:00,
2013-02-23 06:48:00,37.6,36.6,30.08,NNE,27,4.0,5.0,96,0.03,,---,0.28,VWS V14.01,2013-02-23 11:48:00,
2013-02-23 06:49:00,37.6,36.6,30.08,NE,47,3.0,3.0,96,0.03,,---,0.28,VWS V14.01,2013-02-23 11:49:00,
2013-02-23 06:50:00,37.6,36.6,30.08,NE,42,2.0,3.0,96,0.03,,---,0.28,VWS V14.01,2013-02-23 11:50:00,
2013-02-23 06:51:00,37.6,36.6,30.08,NNE,15,3.0,4.0,96,0.03,,---,0.28,VWS V14.01,2013-02-23 11:51:00,
2013-02-23 06:52:00,37.6,36.6,30.08,NE,38,3.0,4.0,96,0.03,,---,0.28,VWS V14.01,2013-02-23 11:52:00,
2013-02-23 06:53:00,37.6,36.6,30.08,NNE,22,5.0,5.0,96,0.04,,---,0.29,VWS V14.01,2013-02-23 11:53:00,
2013-02-23 06:54:00,37.6,36.6,30.08,NE,38,3.0,3.0,96,0.04,,---,0.29,VWS V14.01,2013-02-23 11:54:00,
2013-02-23 06:55:00,37.6,36.6,30.08,NE,46,2.0,3.0,96,0.04,,---,0.29,VWS V14.01,2013-02-23 11:55:00,
2013-02-23 06:56:00,37.6,36.6,30.07,NE,46,3.0,5.0,96,0.04,,---,0.29,VWS V14.01,2013-02-23 11:56:00,
2013-02-23 06:57:00,37.6,36.6,30.07,NE,44,3.0,4.0,96,0.04,,---,0.29,VWS V14.01,2013-02-23 11:57:00,
2013-02-23 06:58:00,37.6,36.6,30.07,NE,49,2.0,4.0,96,0.05,,---,0.30,VWS V14.01,2013-02-23 11:58:00,
2013-02-23 06:59:00,37.6,36.6,30.07,NE,51,4.0,5.0,96,0.05,,---,0.30,VWS V14.01,2013-02-23 11:59:00,
2013-02-23 07:00:00,37.6,36.6,30.07,NE,42,3.0,5.0,96,0.05,,---,0.30,VWS V14.01,2013-02-23 12:00:00,
2013-02-23 07:01:00,37.6,36.6,30.07,NE,49,3.0,5.0,96,0.05,,---,0.30,VWS V14.01,2013-02-23 12:01:00,
2013-02-23 07:02:00,37.6,36.6,30.07,NE,44,6.0,6.0,96,0.05,,---,0.30,VWS V14.01,2013-02-23 12:02:00,
2013-02-23 07:03:00,37.6,36.6,30.07,ENE,62,4.0,9.0,96,0.05,,---,0.30,VWS V14.01,2013-02-23 12:03:00,
2013-02-23 07:04:00,37.6,36.6,30.08,NNE,28,4.0,4.0,96,0.05,,---,0.30,VWS V14.01,2013-02-23 12:04:00,
2013-02-23 07:05:00,37.6,36.6,30.08,NNE,17,3.0,6.0,96,0.06,,---,0.31,VWS V14.01,2013-02-23 12:05:00,
2013-02-23 07:06:00,37.6,36.6,30.07,NNE,30,3.0,4.0,96,0.06,,---,0.31,VWS V14.01,2013-02-23 12:06:00,
2013-02-23 07:07:00,37.6,36.6,30.08,NNE,29,3.0,4.0,96,0.06,,---,0.31,VWS V14.01,2013-02-23 12:07:00,
2013-02-23 07:08:00,37.6,36.6,30.07,NNE,26,4.0,4.0,96,0.06,,---,0.31,VWS V14.01,2013-02-23 12:08:00,
2013-02-23 07:09:00,37.7,36.7,30.07,NE,53,7.0,8.0,96,0.06,,---,0.31,VWS V14.01,2013-02-23 12:09:00,
2013-02-23 07:10:00,37.7,36.7,30.07,NE,50,6.0,8.0,96,0.06,,---,0.31,VWS V14.01,2013-02-23 12:10:00,
2013-02-23 07:11:00,37.7,36.7,30.06,NE,39,7.0,9.0,96,0.06,,---,0.31,VWS V14.01,2013-02-23 12:11:00,
2013-02-23 07:12:00,37.7,36.7,30.05,ENE,69,7.0,8.0,96,0.06,,---,0.31,VWS V14.01,2013-02-23 12:12:00,
2013-02-23 07:13:00,37.7,36.7,30.05,NE,47,8.0,9.0,96,0.06,,---,0.31,VWS V14.01,2013-02-23 12:13:00,
2013-02-23 07:14:00,37.7,36.7,30.05,NE,39,10.0,10.0,96,0.07,,---,0.32,VWS V14.01,2013-02-23 12:14:00,
2013-02-23 07:15:00,37.7,36.7,30.05,ENE,62,4.0,10.0,96,0.06,,---,0.32,VWS V14.01,2013-02-23 12:15:00,
2013-02-23 07:16:00,37.7,36.7,30.04,NE,38,5.0,8.0,96,0.06,,---,0.32,VWS V14.01,2013-02-23 12:16:00,
2013-02-23 07:17:00,37.7,36.7,30.04,NE,38,7.0,7.0,96,0.06,,---,0.32,VWS V14.01,2013-02-23 12:17:00,
2013-02-23 07:18:00,37.7,36.7,30.04,NE,38,6.0,7.0,96,0.06,,---,0.32,VWS V14.01,2013-02-23 12:18:00,
2013-02-23 07:19:00,37.7,36.7,30.04,NNE,32,4.0,6.0,96,0.06,,---,0.32,VWS V14.01,2013-02-23 12:19:00,
2013-02-23 07:20:00,37.7,36.7,30.05,NE,48,5.0,5.0,96,0.06,,---,0.32,VWS V14.01,2013-02-23 12:20:00,
2013-02-23 07:21:00,37.7,36.7,30.05,NE,42,4.0,7.0,96,0.07,,---,0.33,VWS V14.01,2013-02-23 12:21:00,
2013-02-23 07:22:00,37.7,36.7,30.06,NE,51,5.0,5.0,96,0.07,,---,0.33,VWS V14.01,2013-02-23 12:22:00,
2013-02-23 07:23:00,37.8,36.8,30.06,NE,35,6.0,6.0,96,0.07,,---,0.33,VWS V14.01,2013-02-23 12:23:00,
2013-02-23 07:24:00,37.8,36.8,30.06,NE,38,5.0,6.0,96,0.07,,---,0.33,VWS V14.01,2013-02-23 12:24:00,
2013-02-23 07:25:00,37.8,36.8,30.06,NNE,28,5.0,5.0,96,0.07,,---,0.33,VWS V14.01,2013-02-23 12:25:00,
2013-02-23 07:26:00,37.8,36.8,30.06,NE,43,5.0,7.0,96,0.08,,---,0.34,VWS V14.01,2013-02-23 12:26:00,
2013-02-23 07:27:00,37.8,36.8,30.05,NE,46,4.0,5.0,96,0.08,,---,0.34,VWS V14.01,2013-02-23 12:27:00,
2013-02-23 07:28:00,37.8,36.8,30.05,East,94,6.0,7.0,96,0.08,,---,0.34,VWS V14.01,2013-02-23 12:28:00,
2013-02-23 07:29:00,37.8,36.8,30.04,NE,42,4.0,5.0,96,0.07,,---,0.34,VWS V14.01,2013-02-23 12:29:00,
2013-02-23 07:30:00,37.8,36.8,30.04,ENE,65,3.0,5.0,96,0.07,,---,0.34,VWS V14.01,2013-02-23 12:30:00,
2013-02-23 07:31:00,37.8,36.8,30.04,ENE,77,4.0,5.0,96,0.07,,---,0.34,VWS V14.01,2013-02-23 12:31:00,
2013-02-23 07:32:00,37.8,36.8,30.04,NE,49,3.0,5.0,96,0.07,,---,0.34,VWS V14.01,2013-02-23 12:32:00,
2013-02-23 07:33:00,37.8,36.8,30.04,NE,55,3.0,8.0,96,0.08,,---,0.35,VWS V14.01,2013-02-23 12:33:00,
2013-02-23 07:34:00,37.9,36.9,30.04,NE,50,3.0,8.0,96,0.08,,---,0.35,VWS V14.01,2013-02-23 12:34:00,
2013-02-23 07:35:00,37.9,36.9,30.04,NE,47,1.0,3.0,96,0.08,,---,0.35,VWS V14.01,2013-02-23 12:35:00,
2013-02-23 07:36:00,37.8,36.8,30.05,ENE,57,3.0,4.0,96,0.08,,---,0.35,VWS V14.01,2013-02-23 12:36:00,
2013-02-23 07:37:00,37.9,36.9,30.05,NE,49,4.0,4.0,96,0.08,,---,0.35,VWS V14.01,2013-02-23 12:37:00,
2013-02-23 07:38:00,37.9,36.9,30.05,ENE,68,5.0,5.0,96,0.08,,---,0.35,VWS V14.01,2013-02-23 12:38:00,
2013-02-23 07:39:00,37.9,36.9,30.05,NE,47,4.0,4.0,96,0.08,,---,0.35,VWS V14.01,2013-02-23 12:39:00,
2013-02-23 07:40:00,37.9,36.9,30.05,ENE,71,4.0,5.0,96,0.08,,---,0.35,VWS V14.01,2013-02-23 12:40:00,
2013-02-23 07:41:00,37.9,36.9,30.05,ENE,74,9.0,9.0,96,0.08,,---,0.35,VWS V14.01,2013-02-23 12:41:00,
2013-02-23 07:42:00,37.9,36.9,30.04,ENE,67,8.0,9.0,96,0.09,,---,0.36,VWS V14.01,2013-02-23 12:42:00,
2013-02-23 07:43:00,37.9,36.9,30.04,ENE,61,4.0,8.0,96,0.09,,---,0.36,VWS V14.01,2013-02-23 12:43:00,
2013-02-23 07:44:00,37.9,36.9,30.04,ENE,71,4.0,4.0,96,0.09,,---,0.36,VWS V14.01,2013-02-23 12:44:00,
2013-02-23 07:45:00,37.9,36.9,30.03,ENE,76,4.0,8.0,96,0.09,,---,0.36,VWS V14.01,2013-02-23 12:45:00,
2013-02-23 07:46:00,38.0,37.0,30.03,East,90,3.0,8.0,96,0.09,,---,0.36,VWS V14.01,2013-02-23 12:46:00,
2013-02-23 07:47:00,38.0,37.0,30.03,ESE,102,8.0,8.0,96,0.09,,---,0.36,VWS V14.01,2013-02-23 12:47:00,
2013-02-23 07:48:00,38.0,37.0,30.03,East,82,6.0,8.0,96,0.08,,---,0.36,VWS V14.01,2013-02-23 12:48:00,
2013-02-23 07:49:00,38.0,37.0,30.03,ENE,71,1.0,6.0,96,0.09,,---,0.37,VWS V14.01,2013-02-23 12:49:00,
2013-02-23 07:50:00,38.0,37.0,30.04,ENE,71,1.0,1.0,96,0.09,,---,0.37,VWS V14.01,2013-02-23 12:50:00,
2013-02-23 07:51:00,38.0,37.0,30.05,NNE,22,2.0,3.0,96,0.09,,---,0.37,VWS V14.01,2013-02-23 12:51:00,
2013-02-23 07:52:00,38.0,37.0,30.05,NNE,32,3.0,4.0,96,0.09,,---,0.37,VWS V14.01,2013-02-23 12:52:00,
2013-02-23 07:53:00,38.1,37.1,30.06,NE,42,2.0,3.0,96,0.09,,---,0.37,VWS V14.01,2013-02-23 12:53:00,
2013-02-23 07:54:00,38.1,37.1,30.06,ENE,58,2.0,4.0,96,0.08,,---,0.37,VWS V14.01,2013-02-23 12:54:00,
2013-02-23 07:55:00,38.1,37.1,30.05,ENE,71,3.0,5.0,96,0.08,,---,0.37,VWS V14.01,2013-02-23 12:55:00,
2013-02-23 07:56:00,38.1,37.1,30.04,East,94,7.0,7.0,96,0.09,,---,0.38,VWS V14.01,2013-02-23 12:56:00,
2013-02-23 07:57:00,38.1,37.1,30.03,East,81,6.0,7.0,96,0.09,,---,0.38,VWS V14.01,2013-02-23 12:57:00,
2013-02-23 07:58:00,38.1,37.1,30.03,East,93,8.0,8.0,96,0.10,,---,0.39,VWS V14.01,2013-02-23 12:58:00,
2013-02-23 07:59:00,38.1,37.1,30.02,East,83,8.0,8.0,96,0.09,,---,0.39,VWS V14.01,2013-02-23 12:59:00,
2013-02-23 08:00:00,38.1,37.1,30.03,NE,55,6.0,8.0,96,0.09,,---,0.39,VWS V14.01,2013-02-23 13:00:00,
2013-02-23 08:01:00,38.1,37.1,30.03,East,85,5.0,7.0,96,0.10,,---,0.40,VWS V14.01,2013-02-23 13:01:00,
2013-02-23 08:02:00,38.1,37.1,30.04,ENE,61,1.0,5.0,96,0.10,,---,0.40,VWS V14.01,2013-02-23 13:02:00,
2013-02-23 08:03:00,38.2,37.2,30.04,NE,49,3.0,3.0,96,0.10,,---,0.40,VWS V14.01,2013-02-23 13:03:00,
2013-02-23 08:04:00,38.2,37.2,30.04,NE,55,2.0,3.0,96,0.10,,---,0.40,VWS V14.01,2013-02-23 13:04:00,
2013-02-23 08:05:00,38.2,37.2,30.05,ENE,57,0.0,3.0,96,0.11,,---,0.41,VWS V14.01,2013-02-23 13:05:00,
2013-02-23 08:06:00,38.2,37.2,30.04,ENE,75,4.0,4.0,96,0.10,,---,0.41,VWS V14.01,2013-02-23 13:06:00,
2013-02-23 08:07:00,38.2,37.2,30.04,East,81,3.0,6.0,96,0.11,,---,0.42,VWS V14.01,2013-02-23 13:07:00,
2013-02-23 08:08:00,38.2,37.2,30.04,ENE,70,4.0,5.0,96,0.11,,---,0.42,VWS V14.01,2013-02-23 13:08:00,
2013-02-23 08:09:00,38.2,37.2,30.04,East,81,5.0,5.0,96,0.11,,---,0.42,VWS V14.01,2013-02-23 13:09:00,
2013-02-23 08:10:00,38.3,37.3,30.03,ENE,75,7.0,9.0,96,0.12,,---,0.43,VWS V14.01,2013-02-23 13:10:00,
2013-02-23 08:11:00,38.2,37.2,30.03,East,88,6.0,7.0,96,0.12,,---,0.43,VWS V14.01,2013-02-23 13:11:00,
2013-02-23 08:12:00,38.3,37.3,30.03,East,84,5.0,6.0,96,0.12,,---,0.43,VWS V14.01,2013-02-23 13:12:00,
2013-02-23 08:13:00,38.3,37.3,30.03,NE,55,2.0,7.0,96,0.13,,---,0.44,VWS V14.01,2013-02-23 13:13:00,
2013-02-23 08:14:00,38.3,37.3,30.03,ENE,78,4.0,4.0,96,0.13,,---,0.44,VWS V14.01,2013-02-23 13:14:00,
2013-02-23 08:15:00,38.3,37.3,30.03,East,84,5.0,7.0,96,0.12,,---,0.44,VWS V14.01,2013-02-23 13:15:00,
2013-02-23 08:16:00,38.3,37.3,30.03,East,81,3.0,5.0,96,0.12,,---,0.44,VWS V14.01,2013-02-23 13:16:00,
2013-02-23 08:17:00,38.3,37.3,30.03,ENE,76,1.0,3.0,96,0.12,,---,0.44,VWS V14.01,2013-02-23 13:17:00,
2013-02-23 08:18:00,38.3,37.3,30.03,ENE,77,2.0,3.0,96,0.13,,---,0.45,VWS V14.01,2013-02-23 13:18:00,
2013-02-23 08:19:00,38.4,37.4,30.03,ENE,64,0.0,1.0,96,0.13,,---,0.45,VWS V14.01,2013-02-23 13:19:00,
2013-02-23 08:20:00,38.4,37.4,30.03,ENE,74,3.0,3.0,96,0.13,,---,0.45,VWS V14.01,2013-02-23 13:20:00,
2013-02-23 08:21:00,38.4,37.4,30.03,ENE,62,3.0,3.0,96,0.13,,---,0.45,VWS V14.01,2013-02-23 13:21:00,
2013-02-23 08:22:00,38.4,37.4,30.03,East,86,5.0,6.0,96,0.12,,---,0.45,VWS V14.01,2013-02-23 13:22:00,
2013-02-23 08:23:00,38.4,37.4,30.02,East,88,5.0,5.0,96,0.12,,---,0.45,VWS V14.01,2013-02-23 13:23:00,
2013-02-23 08:24:00,38.4,37.4,30.02,East,88,3.0,6.0,96,0.12,,---,0.45,VWS V14.01,2013-02-23 13:24:00,
2013-02-23 08:25:00,38.4,37.4,30.02,East,83,5.0,6.0,96,0.13,,---,0.46,VWS V14.01,2013-02-23 13:25:00,
2013-02-23 08:26:00,38.4,37.4,30.02,East,99,5.0,5.0,96,0.13,,---,0.46,VWS V14.01,2013-02-23 13:26:00,
2013-02-23 08:27:00,38.5,37.5,30.02,East,88,5.0,5.0,96,0.12,,---,0.46,VWS V14.01,2013-02-23 13:27:00,
2013-02-23 08:28:00,38.5,37.5,30.02,ENE,69,5.0,6.0,96,0.12,,---,0.46,VWS V14.01,2013-02-23 13:28:00,
2013-02-23 08:29:00,38.5,37.5,30.02,ENE,71,4.0,8.0,96,0.12,,---,0.46,VWS V14.01,2013-02-23 13:29:00,
2013-02-23 08:30:00,38.5,37.5,30.01,ENE,71,5.0,7.0,96,0.12,,---,0.46,VWS V14.01,2013-02-23 13:30:00,
2013-02-23 08:31:00,38.5,37.5,30.01,ENE,64,7.0,8.0,96,0.12,,---,0.46,VWS V14.01,2013-02-23 13:31:00,
2013-02-23 08:32:00,38.5,37.5,30.02,ENE,73,7.0,8.0,96,0.12,,---,0.46,VWS V14.01,2013-02-23 13:32:00,
2013-02-23 08:33:00,38.5,37.5,30.02,ENE,68,5.0,7.0,96,0.13,,---,0.47,VWS V14.01,2013-02-23 13:33:00,
2013-02-23 08:34:00,38.5,37.5,30.02,East,88,6.0,6.0,96,0.12,,---,0.47,VWS V14.01,2013-02-23 13:34:00,
2013-02-23 08:35:00,38.5,37.5,30.03,East,81,3.0,6.0,96,0.12,,---,0.47,VWS V14.01,2013-02-23 13:35:00,
2013-02-23 08:36:00,38.5,37.5,30.03,East,84,6.0,6.0,96,0.12,,---,0.47,VWS V14.01,2013-02-23 13:36:00,
2013-02-23 08:37:00,38.6,37.6,30.03,ENE,58,3.0,6.0,96,0.12,,---,0.47,VWS V14.01,2013-02-23 13:37:00,
2013-02-23 08:38:00,38.6,37.6,30.03,NE,47,2.0,3.0,96,0.12,,---,0.47,VWS V14.01,2013-02-23 13:38:00,
2013-02-23 08:39:00,38.6,37.6,30.04,NE,47,1.0,2.0,96,0.13,,---,0.48,VWS V14.01,2013-02-23 13:39:00,
2013-02-23 08:40:00,38.6,37.6,30.04,NE,42,0.0,1.0,96,0.13,,---,0.48,VWS V14.01,2013-02-23 13:40:00,
2013-02-23 08:41:00,38.7,37.7,30.04,NNE,19,0.0,2.0,96,0.13,,---,0.48,VWS V14.01,2013-02-23 13:41:00,
2013-02-23 08:42:00,38.7,37.7,30.04,ESE,119,1.0,1.0,96,0.13,,---,0.48,VWS V14.01,2013-02-23 13:42:00,
2013-02-23 08:43:00,38.7,37.7,30.04,ESE,117,1.0,1.0,96,0.12,,---,0.48,VWS V14.01,2013-02-23 13:43:00,
2013-02-23 08:44:00,38.7,37.7,30.04,NE,48,1.0,2.0,96,0.13,,---,0.49,VWS V14.01,2013-02-23 13:44:00,
2013-02-23 08:45:00,38.7,37.7,30.04,NE,49,0.0,1.0,96,0.13,,---,0.49,VWS V14.01,2013-02-23 13:45:00,
2013-02-23 08:46:00,38.7,37.7,30.04,NE,49,1.0,1.0,96,0.13,,---,0.49,VWS V14.01,2013-02-23 13:46:00,
2013-02-23 08:47:00,38.7,37.7,30.05,NE,49,0.0,1.0,96,0.13,,---,0.49,VWS V14.01,2013-02-23 13:47:00,
2013-02-23 08:48:00,38.7,37.7,30.05,NE,49,0.0,0.0,96,0.14,,---,0.50,VWS V14.01,2013-02-23 13:48:00,
2013-02-23 08:49:00,38.7,37.7,30.05,NE,48,0.0,0.0,96,0.14,,---,0.50,VWS V14.01,2013-02-23 13:49:00,
2013-02-23 08:50:00,38.8,37.8,30.05,NE,48,0.0,0.0,96,0.13,,---,0.50,VWS V14.01,2013-02-23 13:50:00,
2013-02-23 08:51:00,38.8,37.8,30.05,NE,49,0.0,0.0,96,0.13,,---,0.50,VWS V14.01,2013-02-23 13:51:00,
2013-02-23 08:52:00,38.8,37.8,30.05,NE,48,0.0,0.0,96,0.13,,---,0.50,VWS V14.01,2013-02-23 13:52:00,
2013-02-23 08:53:00,38.8,37.8,30.05,NE,48,0.0,0.0,96,0.14,,---,0.51,VWS V14.01,2013-02-23 13:53:00,
2013-02-23 08:54:00,38.8,37.8,30.05,NE,50,0.0,0.0,96,0.14,,---,0.51,VWS V14.01,2013-02-23 13:54:00,
2013-02-23 08:55:00,38.8,37.8,30.05,NE,48,0.0,0.0,96,0.14,,---,0.51,VWS V14.01,2013-02-23 13:55:00,
2013-02-23 08:56:00,38.8,37.8,30.04,NE,49,0.0,0.0,96,0.15,,---,0.52,VWS V14.01,2013-02-23 13:56:00,
2013-02-23 08:57:00,38.8,37.8,30.04,NE,49,0.0,0.0,96,0.14,,---,0.52,VWS V14.01,2013-02-23 13:57:00,
2013-02-23 08:58:00,38.8,37.8,30.05,NE,49,0.0,0.0,96,0.14,,---,0.52,VWS V14.01,2013-02-23 13:58:00,
2013-02-23 08:59:00,38.8,37.8,30.05,NE,48,0.0,0.0,96,0.13,,---,0.52,VWS V14.01,2013-02-23 13:59:00,
2013-02-23 09:00:00,38.9,37.9,30.05,NE,48,0.0,0.0,96,0.13,,---,0.52,VWS V14.01,2013-02-23 14:00:00,
2013-02-23 09:01:00,38.9,37.9,30.05,NE,49,0.0,0.0,96,0.14,,---,0.53,VWS V14.01,2013-02-23 14:01:00,
2013-02-23 09:02:00,38.9,37.9,30.04,ENE,67,0.0,0.0,96,0.13,,---,0.53,VWS V14.01,2013-02-23 14:02:00,
2013-02-23 09:03:00,38.9,37.9,30.05,ENE,67,0.0,0.0,96,0.13,,---,0.53,VWS V14.01,2013-02-23 14:03:00,
2013-02-23 09:04:00,38.9,37.9,30.04,ENE,74,3.0,3.0,96,0.13,,---,0.53,VWS V14.01,2013-02-23 14:04:00,
2013-02-23 09:05:00,38.9,37.9,30.04,East,96,3.0,3.0,96,0.13,,---,0.53,VWS V14.01,2013-02-23 14:05:00,
2013-02-23 09:06:00,38.9,37.9,30.04,East,88,1.0,3.0,96,0.13,,---,0.54,VWS V14.01,2013-02-23 14:06:00,
2013-02-23 09:07:00,38.9,37.9,30.04,East,88,1.0,2.0,96,0.13,,---,0.54,VWS V14.01,2013-02-23 14:07:00,
2013-02-23 09:08:00,38.9,37.9,30.04,East,88,0.0,1.0,96,0.12,,---,0.54,VWS V14.01,2013-02-23 14:08:00,
2013-02-23 09:09:00,38.9,37.9,30.05,East,88,0.0,0.0,96,0.12,,---,0.54,VWS V14.01,2013-02-23 14:09:00,
2013-02-23 09:10:00,39.0,38.0,30.05,East,88,0.0,0.0,96,0.13,,---,0.55,VWS V14.01,2013-02-23 14:10:00,
2013-02-23 09:11:00,39.0,38.0,30.05,East,88,0.0,0.0,96,0.12,,---,0.55,VWS V14.01,2013-02-23 14:11:00,
2013-02-23 09:12:00,39.0,38.0,30.05,East,89,1.0,1.0,96,0.12,,---,0.55,VWS V14.01,2013-02-23 14:12:00,
2013-02-23 09:13:00,39.0,38.0,30.05,ESE,118,1.0,2.0,96,0.12,,---,0.55,VWS V14.01,2013-02-23 14:13:00,
2013-02-23 09:14:00,39.0,38.0,30.04,ESE,116,1.0,2.0,96,0.12,,---,0.56,VWS V14.01,2013-02-23 14:14:00,
2013-02-23 09:15:00,39.1,38.1,30.05,ESE,117,0.0,1.0,96,0.12,,---,0.56,VWS V14.01,2013-02-23 14:15:00,
2013-02-23 09:16:00,39.1,38.1,30.05,ESE,117,0.0,0.0,96,0.13,,---,0.57,VWS V14.01,2013-02-23 14:16:00,
2013-02-23 09:17:00,39.1,38.1,30.05,WSW,246,1.0,1.0,96,0.13,,---,0.57,VWS V14.01,2013-02-23 14:17:00,
2013-02-23 09:18:00,39.1,38.1,30.06,WSW,246,0.0,1.0,96,0.14,,---,0.58,VWS V14.01,2013-02-23 14:18:00,
2013-02-23 09:19:00,39.1,38.1,30.06,WSW,246,0.0,1.0,96,0.13,,---,0.58,VWS V14.01,2013-02-23 14:19:00,
2013-02-23 09:20:00,39.1,38.1,30.06,WSW,246,0.0,1.0,96,0.13,,---,0.58,VWS V14.01,2013-02-23 14:20:00,
2013-02-23 09:21:00,39.1,38.1,30.06,WSW,246,0.0,0.0,96,0.14,,---,0.59,VWS V14.01,2013-02-23 14:21:00,
2013-02-23 09:22:00,39.2,38.2,30.06,WSW,246,0.0,0.0,96,0.14,,---,0.59,VWS V14.01,2013-02-23 14:22:00,
2013-02-23 09:23:00,39.1,38.1,30.06,WSW,246,0.0,0.0,96,0.15,,---,0.60,VWS V14.01,2013-02-23 14:23:00,
2013-02-23 09:24:00,39.2,38.2,30.05,WSW,246,0.0,0.0,96,0.15,,---,0.60,VWS V14.01,2013-02-23 14:24:00,
2013-02-23 09:25:00,39.2,38.2,30.05,WSW,246,0.0,0.0,96,0.15,,---,0.60,VWS V14.01,2013-02-23 14:25:00,
2013-02-23 09:26:00,39.2,38.2,30.05,WSW,246,0.0,0.0,96,0.15,,---,0.61,VWS V14.01,2013-02-23 14:26:00,
2013-02-23 09:27:00,39.2,38.2,30.05,WSW,246,0.0,0.0,96,0.15,,---,0.61,VWS V14.01,2013-02-23 14:27:00,
2013-02-23 09:28:00,39.2,38.2,30.05,WSW,246,0.0,0.0,96,0.15,,---,0.61,VWS V14.01,2013-02-23 14:28:00,
2013-02-23 09:29:00,39.2,38.2,30.05,WNW,291,0.0,0.0,96,0.16,,---,0.62,VWS V14.01,2013-02-23 14:29:00,
2013-02-23 09:30:00,39.1,38.1,30.05,NNE,20,1.0,2.0,96,0.16,,---,0.62,VWS V14.01,2013-02-23 14:30:00,
2013-02-23 09:31:00,39.1,38.1,30.05,North,360,1.0,2.0,96,0.17,,---,0.63,VWS V14.01,2013-02-23 14:31:00,
2013-02-23 09:32:00,39.1,38.1,30.05,North,360,1.0,1.0,96,0.17,,---,0.63,VWS V14.01,2013-02-23 14:32:00,
2013-02-23 09:33:00,39.1,38.1,30.05,North,360,1.0,1.0,96,0.18,,---,0.64,VWS V14.01,2013-02-23 14:33:00,
2013-02-23 09:34:00,39.2,38.2,30.05,North,360,1.0,1.0,96,0.17,,---,0.64,VWS V14.01,2013-02-23 14:34:00,
2013-02-23 09:35:00,39.2,38.2,30.04,ENE,71,2.0,2.0,96,0.18,,---,0.65,VWS V14.01,2013-02-23 14:35:00,
2013-02-23 09:36:00,39.2,38.2,30.04,ENE,58,1.0,3.0,96,0.18,,---,0.65,VWS V14.01,2013-02-23 14:36:00,
2013-02-23 09:37:00,39.2,38.2,30.03,NE,51,2.0,2.0,96,0.18,,---,0.65,VWS V14.01,2013-02-23 14:37:00,
2013-02-23 09:38:00,39.2,38.2,30.04,NNW,334,2.0,2.0,96,0.19,,---,0.66,VWS V14.01,2013-02-23 14:38:00,
2013-02-23 09:39:00,39.2,38.2,30.04,NNW,335,1.0,2.0,96,0.19,,---,0.66,VWS V14.01,2013-02-23 14:39:00,
2013-02-23 09:40:00,39.2,38.2,30.04,NNE,30,1.0,3.0,96,0.19,,---,0.67,VWS V14.01,2013-02-23 14:40:00,
2013-02-23 09:41:00,39.2,38.2,30.03,ENE,69,3.0,3.0,96,0.19,,---,0.67,VWS V14.01,2013-02-23 14:41:00,
2013-02-23 09:42:00,39.2,38.2,30.03,ENE,62,2.0,4.0,96,0.20,,---,0.68,VWS V14.01,2013-02-23 14:42:00,
2013-02-23 09:43:00,39.2,38.2,30.02,East,98,3.0,5.0,96,0.20,,---,0.68,VWS V14.01,2013-02-23 14:43:00,
2013-02-23 09:44:00,39.2,38.2,30.02,East,92,5.0,5.0,96,0.20,,---,0.68,VWS V14.01,2013-02-23 14:44:00,
2013-02-23 09:45:00,39.2,38.2,30.01,East,98,6.0,6.0,96,0.20,,---,0.69,VWS V14.01,2013-02-23 14:45:00,
2013-02-23 09:46:00,39.2,38.2,30.01,East,84,6.0,7.0,96,0.20,,---,0.69,VWS V14.01,2013-02-23 14:46:00,
2013-02-23 09:47:00,39.2,38.2,30.00,ENE,78,7.0,7.0,96,0.20,,---,0.69,VWS V14.01,2013-02-23 14:47:00,
2013-02-23 09:48:00,39.3,38.3,30.00,East,79,5.0,7.0,96,0.20,,---,0.70,VWS V14.01,2013-02-23 14:48:00,
2013-02-23 09:49:00,39.3,38.3,30.00,ENE,73,5.0,7.0,96,0.20,,---,0.70,VWS V14.01,2013-02-23 14:49:00,
2013-02-23 09:50:00,39.3,38.3,30.00,East,97,3.0,6.0,96,0.20,,---,0.70,VWS V14.01,2013-02-23 14:50:00,
2013-02-23 09:51:00,39.3,38.3,30.00,East,84,5.0,5.0,96,0.21,,---,0.71,VWS V14.01,2013-02-23 14:51:00,
2013-02-23 09:52:00,39.3,38.3,30.00,NE,48,3.0,5.0,96,0.21,,---,0.71,VWS V14.01,2013-02-23 14:52:00,
2013-02-23 09:53:00,39.3,38.3,30.00,ENE,67,2.0,3.0,96,0.20,,---,0.71,VWS V14.01,2013-02-23 14:53:00,
2013-02-23 09:54:00,39.4,38.4,30.00,ENE,64,1.0,3.0,96,0.20,,---,0.71,VWS V14.01,2013-02-23 14:54:00,
2013-02-23 09:55:00,39.4,38.4,30.00,NE,55,1.0,2.0,96,0.21,,---,0.72,VWS V14.01,2013-02-23 14:55:00,
2013-02-23 09:56:00,39.5,38.5,30.01,NE,42,2.0,3.0,96,0.21,,---,0.72,VWS V14.01,2013-02-23 14:56:00,
2013-02-23 09:57:00,39.5,38.5,30.01,ENE,65,2.0,4.0,96,0.20,,---,0.72,VWS V14.01,2013-02-23 14:57:00,
2013-02-23 09:58:00,39.4,38.4,30.01,NE,38,1.0,2.0,96,0.20,,---,0.72,VWS V14.01,2013-02-23 14:58:00,
2013-02-23 09:59:00,39.5,38.5,30.01,NE,38,1.0,2.0,96,0.20,,---,0.72,VWS V14.01,2013-02-23 14:59:00,
2013-02-23 10:00:00,39.5,38.5,30.02,NNW,338,2.0,2.0,96,0.20,,---,0.72,VWS V14.01,2013-02-23 15:00:00,
2013-02-23 10:01:00,39.5,38.5,30.02,NNW,348,3.0,4.0,96,0.20,,---,0.72,VWS V14.01,2013-02-23 15:01:00,
2013-02-23 10:02:00,39.5,38.5,30.03,NW,326,2.0,3.0,96,0.19,,---,0.72,VWS V14.01,2013-02-23 15:02:00,
2013-02-23 10:03:00,39.6,38.6,30.03,NE,47,2.0,3.0,96,0.19,,---,0.72,VWS V14.01,2013-02-23 15:03:00,
2013-02-23 10:04:00,39.6,38.6,30.03,NE,47,1.0,3.0,96,0.19,,---,0.72,VWS V14.01,2013-02-23 15:04:00,
2013-02-23 10:05:00,39.6,38.6,30.02,NE,47,1.0,1.0,96,0.19,,---,0.72,VWS V14.01,2013-02-23 15:05:00,
2013-02-23 10:06:00,39.6,38.6,30.02,NE,54,2.0,3.0,96,0.19,,---,0.72,VWS V14.01,2013-02-23 15:06:00,
2013-02-23 10:07:00,39.7,38.7,30.02,NNE,25,2.0,2.0,96,0.18,,---,0.72,VWS V14.01,2013-02-23 15:07:00,
2013-02-23 10:08:00,39.6,38.6,30.03,NW,320,1.0,1.0,96,0.18,,---,0.72,VWS V14.01,2013-02-23 15:08:00,
2013-02-23 10:09:00,39.6,38.6,30.03,NW,321,1.0,2.0,96,0.18,,---,0.72,VWS V14.01,2013-02-23 15:09:00,
2013-02-23 10:10:00,39.7,38.7,30.03,North,349,3.0,3.0,96,0.18,,---,0.72,VWS V14.01,2013-02-23 15:10:00,
2013-02-23 10:11:00,39.7,38.7,30.03,North,351,3.0,5.0,96,0.17,,---,0.72,VWS V14.01,2013-02-23 15:11:00,
2013-02-23 10:12:00,39.7,38.7,30.03,NNE,13,2.0,4.0,96,0.17,,---,0.72,VWS V14.01,2013-02-23 15:12:00,
2013-02-23 10:13:00,39.6,38.6,30.03,NNE,15,1.0,4.0,96,0.17,,---,0.72,VWS V14.01,2013-02-23 15:13:00,
2013-02-23 10:14:00,39.7,38.7,30.03,NNE,14,1.0,4.0,96,0.17,,---,0.72,VWS V14.01,2013-02-23 15:14:00,
2013-02-23 10:15:00,39.7,38.7,30.03,NE,35,1.0,2.0,96,0.16,,---,0.72,VWS V14.01,2013-02-23 15:15:00,
2013-02-23 10:16:00,39.7,38.7,30.02,NE,35,1.0,2.0,96,0.16,,---,0.72,VWS V14.01,2013-02-23 15:16:00,
2013-02-23 10:17:00,39.7,38.7,30.02,ENE,76,3.0,3.0,96,0.15,,---,0.72,VWS V14.01,2013-02-23 15:17:00,
2013-02-23 10:18:00,39.6,38.6,30.01,ENE,66,2.0,3.0,96,0.14,,---,0.72,VWS V14.01,2013-02-23 15:18:00,
2013-02-23 10:19:00,39.6,38.6,30.01,ENE,65,1.0,3.0,96,0.14,,---,0.72,VWS V14.01,2013-02-23 15:19:00,
2013-02-23 10:20:00,39.7,38.7,30.01,NE,47,2.0,2.0,96,0.14,,---,0.72,VWS V14.01,2013-02-23 15:20:00,
2013-02-23 10:21:00,39.7,38.7,30.01,NNW,342,2.0,2.0,96,0.14,,---,0.72,VWS V14.01,2013-02-23 15:21:00,
2013-02-23 10:22:00,39.7,38.7,30.02,NNW,344,3.0,5.0,96,0.13,,---,0.72,VWS V14.01,2013-02-23 15:22:00,
2013-02-23 10:23:00,39.7,38.7,30.02,North,349,3.0,4.0,96,0.13,,---,0.73,VWS V14.01,2013-02-23 15:23:00,
2013-02-23 10:24:00,39.7,38.7,30.02,NNW,334,3.0,4.0,96,0.13,,---,0.73,VWS V14.01,2013-02-23 15:24:00,
2013-02-23 10:25:00,39.7,38.7,30.02,NNE,30,2.0,3.0,96,0.13,,---,0.73,VWS V14.01,2013-02-23 15:25:00,
2013-02-23 10:26:00,39.7,38.7,30.02,NE,42,2.0,3.0,96,0.13,,---,0.73,VWS V14.01,2013-02-23 15:26:00,
2013-02-23 10:27:00,39.7,38.7,30.02,NNE,29,3.0,3.0,96,0.12,,---,0.73,VWS V14.01,2013-02-23 15:27:00,
2013-02-23 10:28:00,39.8,38.8,30.02,NNE,13,3.0,3.0,96,0.12,,---,0.73,VWS V14.01,2013-02-23 15:28:00,
2013-02-23 10:29:00,39.8,38.8,30.02,NNE,23,2.0,3.0,96,0.12,,---,0.73,VWS V14.01,2013-02-23 15:29:00,
2013-02-23 10:30:00,39.8,38.8,30.02,NE,35,2.0,3.0,96,0.11,,---,0.73,VWS V14.01,2013-02-23 15:30:00,
2013-02-23 10:31:00,39.8,38.8,30.02,NE,47,4.0,4.0,96,0.11,,---,0.73,VWS V14.01,2013-02-23 15:31:00,
2013-02-23 10:32:00,39.8,38.8,30.01,ENE,57,2.0,4.0,96,0.10,,---,0.73,VWS V14.01,2013-02-23 15:32:00,
2013-02-23 10:33:00,39.7,38.7,30.00,NE,38,4.0,5.0,96,0.09,,---,0.73,VWS V14.01,2013-02-23 15:33:00,
2013-02-23 10:34:00,39.7,38.7,30.00,NNE,20,3.0,5.0,96,0.09,,---,0.73,VWS V14.01,2013-02-23 15:34:00,
2013-02-23 10:35:00,39.7,38.7,30.00,NNE,30,3.0,3.0,96,0.09,,---,0.73,VWS V14.01,2013-02-23 15:35:00,
2013-02-23 10:36:00,39.7,38.7,30.00,NNE,26,3.0,3.0,96,0.08,,---,0.73,VWS V14.01,2013-02-23 15:36:00,
2013-02-23 10:37:00,39.7,38.7,30.01,NE,42,1.0,4.0,96,0.08,,---,0.73,VWS V14.01,2013-02-23 15:37:00,
2013-02-23 10:38:00,39.8,38.8,30.01,NNE,24,2.0,2.0,96,0.07,,---,0.73,VWS V14.01,2013-02-23 15:38:00,
2013-02-23 10:39:00,39.8,38.8,30.01,NNE,27,3.0,3.0,96,0.07,,---,0.73,VWS V14.01,2013-02-23 15:39:00,
2013-02-23 10:40:00,39.8,38.8,30.01,NE,36,4.0,4.0,96,0.07,,---,0.73,VWS V14.01,2013-02-23 15:40:00,
2013-02-23 10:41:00,39.8,38.8,30.01,NE,43,2.0,4.0,96,0.06,,---,0.73,VWS V14.01,2013-02-23 15:41:00,
2013-02-23 10:42:00,39.9,38.8,30.01,NE,53,1.0,3.0,96,0.06,,---,0.73,VWS V14.01,2013-02-23 15:42:00,
2013-02-23 10:43:00,39.9,38.8,30.01,NNE,32,1.0,3.0,96,0.05,,---,0.73,VWS V14.01,2013-02-23 15:43:00,
2013-02-23 10:44:00,40.0,39.0,30.01,NNE,18,1.0,3.0,96,0.05,,---,0.73,VWS V14.01,2013-02-23 15:44:00,
2013-02-23 10:45:00,40.0,39.0,30.02,NNW,329,2.0,2.0,96,0.05,,---,0.73,VWS V14.01,2013-02-23 15:45:00,
2013-02-23 10:46:00,40.0,39.0,30.02,NNW,329,1.0,2.0,96,0.04,,---,0.73,VWS V14.01,2013-02-23 15:46:00,
2013-02-23 10:47:00,40.0,39.0,30.02,NNW,335,1.0,1.0,96,0.04,,---,0.73,VWS V14.01,2013-02-23 15:47:00,
2013-02-23 10:48:00,40.0,39.0,30.02,NNW,336,0.0,0.0,96,0.03,,---,0.73,VWS V14.01,2013-02-23 15:48:00,
2013-02-23 10:49:00,40.1,39.0,30.02,NNW,337,0.0,0.0,96,0.03,,---,0.73,VWS V14.01,2013-02-23 15:49:00,
2013-02-23 10:50:00,40.1,39.0,30.02,NE,34,2.0,2.0,96,0.03,,---,0.73,VWS V14.01,2013-02-23 15:50:00,
2013-02-23 10:51:00,40.1,39.0,30.02,NE,47,2.0,2.0,96,0.03,,---,0.73,VWS V14.01,2013-02-23 15:51:00,
2013-02-23 10:52:00,40.1,39.0,30.02,ENE,58,2.0,2.0,96,0.02,,---,0.73,VWS V14.01,2013-02-23 15:52:00,
2013-02-23 10:53:00,40.1,39.0,30.00,ENE,77,3.0,3.0,96,0.02,,---,0.73,VWS V14.01,2013-02-23 15:53:00,
2013-02-23 10:54:00,40.1,39.0,30.00,ENE,71,3.0,3.0,96,0.02,,---,0.73,VWS V14.01,2013-02-23 15:54:00,
2013-02-23 10:55:00,40.0,39.0,30.00,ENE,71,1.0,3.0,96,0.02,,---,0.73,VWS V14.01,2013-02-23 15:55:00,
2013-02-23 10:56:00,40.1,39.0,29.99,East,97,1.0,2.0,96,0.01,,---,0.73,VWS V14.01,2013-02-23 15:56:00,
2013-02-23 10:57:00,40.1,39.0,29.99,ENE,76,2.0,3.0,96,0.01,,---,0.73,VWS V14.01,2013-02-23 15:57:00,
2013-02-23 10:58:00,40.1,39.0,30.00,NE,53,2.0,3.0,96,0.01,,---,0.73,VWS V14.01,2013-02-23 15:58:00,
2013-02-23 10:59:00,40.1,39.0,30.00,NE,53,2.0,3.0,96,0.01,,---,0.73,VWS V14.01,2013-02-23 15:59:00,
2013-02-23 11:00:00,40.1,39.0,30.00,ENE,69,1.0,2.0,96,0.01,,---,0.73,VWS V14.01,2013-02-23 16:00:00,
2013-02-23 11:01:00,40.1,39.0,30.01,NNW,335,2.0,2.0,96,0.01,,---,0.73,VWS V14.01,2013-02-23 16:01:00,
2013-02-23 11:02:00,40.2,39.2,30.01,NW,318,2.0,2.0,96,0.01,,---,0.73,VWS V14.01,2013-02-23 16:02:00,
2013-02-23 11:03:00,40.3,39.2,30.02,NNW,329,2.0,2.0,96,0.01,,---,0.73,VWS V14.01,2013-02-23 16:03:00,
2013-02-23 11:04:00,40.3,39.2,30.02,NNW,329,2.0,2.0,96,0.01,,---,0.73,VWS V14.01,2013-02-23 16:04:00,
2013-02-23 11:05:00,40.3,39.2,30.02,NW,319,2.0,2.0,96,0.01,,---,0.73,VWS V14.01,2013-02-23 16:05:00,
2013-02-23 11:06:00,40.4,39.3,30.02,WNW,300,0.0,2.0,96,0.01,,---,0.73,VWS V14.01,2013-02-23 16:06:00,
2013-02-23 11:07:00,40.4,39.3,30.02,NNW,336,1.0,2.0,96,0.01,,---,0.73,VWS V14.01,2013-02-23 16:07:00,
2013-02-23 11:08:00,40.5,39.5,30.02,NNW,348,0.0,2.0,96,0.01,,---,0.73,VWS V14.01,2013-02-23 16:08:00,
2013-02-23 11:09:00,40.5,39.5,30.02,NNW,347,0.0,2.0,96,0.01,,---,0.73,VWS V14.01,2013-02-23 16:09:00,
2013-02-23 11:10:00,40.5,39.5,30.02,North,349,1.0,1.0,96,0.01,,---,0.73,VWS V14.01,2013-02-23 16:10:00,
2013-02-23 11:11:00,40.5,39.5,30.02,NNE,22,1.0,1.0,96,0.01,,---,0.73,VWS V14.01,2013-02-23 16:11:00,
2013-02-23 11:12:00,40.5,39.5,30.01,NW,325,0.0,1.0,96,0.01,,---,0.73,VWS V14.01,2013-02-23 16:12:00,
2013-02-23 11:13:00,40.5,39.5,30.01,NW,326,0.0,0.0,96,0.01,,---,0.73,VWS V14.01,2013-02-23 16:13:00,
2013-02-23 11:14:00,40.5,39.5,30.01,NW,326,0.0,0.0,96,0.01,,---,0.73,VWS V14.01,2013-02-23 16:14:00,
2013-02-23 11:15:00,40.5,39.5,30.01,WNW,288,2.0,2.0,96,0.01,,---,0.73,VWS V14.01,2013-02-23 16:15:00,
2013-02-23 11:16:00,40.5,39.5,30.02,NW,318,1.0,3.0,96,0.01,,---,0.73,VWS V14.01,2013-02-23 16:16:00,
2013-02-23 11:17:00,40.4,39.3,30.02,NNE,13,2.0,2.0,96,0.01,,---,0.73,VWS V14.01,2013-02-23 16:17:00,
2013-02-23 11:18:00,40.5,39.5,30.01,NE,34,2.0,2.0,96,0.01,,---,0.73,VWS V14.01,2013-02-23 16:18:00,
2013-02-23 11:19:00,40.5,39.5,30.01,North,10,3.0,4.0,96,0.01,,---,0.73,VWS V14.01,2013-02-23 16:19:00,
2013-02-23 11:20:00,40.5,39.5,30.01,North,350,4.0,5.0,96,0.01,,---,0.73,VWS V14.01,2013-02-23 16:20:00,
2013-02-23 11:21:00,40.4,39.3,30.01,NNE,18,3.0,4.0,96,0.01,,---,0.73,VWS V14.01,2013-02-23 16:21:00,
2013-02-23 11:22:00,40.4,39.3,30.01,NNW,346,3.0,4.0,96,0.01,,---,0.73,VWS V14.01,2013-02-23 16:22:00,
2013-02-23 11:23:00,40.4,39.3,30.01,North,350,2.0,3.0,96,0.01,,---,0.73,VWS V14.01,2013-02-23 16:23:00,
2013-02-23 11:24:00,40.4,39.3,30.01,NE,38,2.0,3.0,96,0.01,,---,0.73,VWS V14.01,2013-02-23 16:24:00,
2013-02-23 11:25:00,40.4,39.3,30.01,NNE,31,4.0,4.0,96,0.00,,---,0.73,VWS V14.01,2013-02-23 16:25:00,
2013-02-23 11:26:00,40.4,39.3,30.00,NE,44,3.0,5.0,96,0.00,,---,0.73,VWS V14.01,2013-02-23 16:26:00,
2013-02-23 11:27:00,40.5,39.5,30.00,NNE,33,3.0,3.0,96,0.00,,---,0.73,VWS V14.01,2013-02-23 16:27:00,
2013-02-23 11:28:00,40.4,39.3,30.00,NNW,338,3.0,4.0,96,0.00,,---,0.73,VWS V14.01,2013-02-23 16:28:00,
2013-02-23 11:29:00,40.4,39.3,30.00,NNE,27,3.0,4.0,96,0.00,,---,0.73,VWS V14.01,2013-02-23 16:29:00,
2013-02-23 11:30:00,40.4,39.3,30.00,NNE,13,3.0,4.0,96,0.00,,---,0.73,VWS V14.01,2013-02-23 16:30:00,
2013-02-23 11:31:00,40.4,39.3,30.00,NNE,13,3.0,4.0,96,0.00,,---,0.73,VWS V14.01,2013-02-23 16:31:00,
2013-02-23 11:32:00,40.5,39.5,30.00,NNW,346,1.0,3.0,96,0.00,,---,0.73,VWS V14.01,2013-02-23 16:32:00,
2013-02-23 11:33:00,40.4,39.3,30.00,NNE,17,4.0,4.0,96,0.00,,---,0.73,VWS V14.01,2013-02-23 16:33:00,
2013-02-23 11:34:00,40.5,39.5,30.00,NNE,27,3.0,5.0,96,0.00,,---,0.73,VWS V14.01,2013-02-23 16:34:00,
2013-02-23 11:35:00,40.5,39.5,29.99,NNE,14,4.0,4.0,96,0.00,,---,0.73,VWS V14.01,2013-02-23 16:35:00,
2013-02-23 11:36:00,40.5,39.5,29.99,NE,42,2.0,4.0,96,0.00,,---,0.73,VWS V14.01,2013-02-23 16:36:00,
2013-02-23 11:37:00,40.5,39.5,29.98,NE,34,1.0,2.0,96,0.00,,---,0.73,VWS V14.01,2013-02-23 16:37:00,
2013-02-23 11:38:00,40.5,39.5,29.99,NE,34,3.0,3.0,96,0.00,,---,0.73,VWS V14.01,2013-02-23 16:38:00,
2013-02-23 11:39:00,40.5,39.5,29.99,NNE,28,3.0,3.0,96,0.00,,---,0.73,VWS V14.01,2013-02-23 16:39:00,
2013-02-23 11:40:00,40.6,39.5,29.99,North,11,3.0,4.0,96,0.00,,---,0.73,VWS V14.01,2013-02-23 16:40:00,
2013-02-23 11:41:00,40.6,39.5,29.99,NNW,344,3.0,4.0,96,0.00,,---,0.73,VWS V14.01,2013-02-23 16:41:00,
2013-02-23 11:42:00,40.6,39.5,30.00,NW,319,1.0,3.0,96,0.00,,---,0.73,VWS V14.01,2013-02-23 16:42:00,
2013-02-23 11:43:00,40.7,39.7,30.00,NW,320,2.0,3.0,96,0.00,,---,0.73,VWS V14.01,2013-02-23 16:43:00,
2013-02-23 11:44:00,40.7,39.7,30.00,NW,311,3.0,3.0,96,0.00,,---,0.73,VWS V14.01,2013-02-23 16:44:00,
2013-02-23 11:45:00,40.7,39.7,30.00,WNW,296,1.0,3.0,96,0.00,,---,0.73,VWS V14.01,2013-02-23 16:45:00,
2013-02-23 11:46:00,40.7,39.7,30.00,NNW,327,2.0,2.0,96,0.00,,---,0.73,VWS V14.01,2013-02-23 16:46:00,
2013-02-23 11:47:00,40.7,39.7,30.00,North,351,1.0,2.0,96,0.00,,---,0.73,VWS V14.01,2013-02-23 16:47:00,
2013-02-23 11:48:00,40.7,39.7,30.00,NNW,348,1.0,2.0,96,0.00,,---,0.73,VWS V14.01,2013-02-23 16:48:00,
2013-02-23 11:49:00,40.7,39.7,30.00,NW,321,4.0,4.0,96,0.00,,---,0.73,VWS V14.01,2013-02-23 16:49:00,
2013-02-23 11:50:00,40.7,39.7,30.00,NNW,342,3.0,4.0,96,0.00,,---,0.73,VWS V14.01,2013-02-23 16:50:00,
2013-02-23 11:51:00,40.6,39.5,30.00,NNW,329,2.0,3.0,96,0.00,,---,0.73,VWS V14.01,2013-02-23 16:51:00,
2013-02-23 11:52:00,40.6,39.5,30.01,WNW,294,2.0,2.0,96,0.00,,---,0.73,VWS V14.01,2013-02-23 16:52:00,
2013-02-23 11:53:00,40.6,39.5,30.01,West,267,0.0,3.0,96,0.00,,---,0.73,VWS V14.01,2013-02-23 16:53:00,
2013-02-23 11:54:00,40.6,39.5,30.01,WNW,288,1.0,3.0,96,0.00,,---,0.73,VWS V14.01,2013-02-23 16:54:00,
2013-02-23 11:55:00,40.6,39.5,30.01,WSW,245,0.0,2.0,96,0.00,,---,0.73,VWS V14.01,2013-02-23 16:55:00,
2013-02-23 11:56:00,40.6,39.5,30.00,WSW,246,1.0,1.0,96,0.00,,---,0.73,VWS V14.01,2013-02-23 16:56:00,
2013-02-23 11:57:00,40.6,39.5,30.00,NNE,20,1.0,2.0,96,0.00,,---,0.73,VWS V14.01,2013-02-23 16:57:00,
2013-02-23 11:58:00,40.5,39.5,29.99,NNE,15,2.0,2.0,96,0.00,,---,0.73,VWS V14.01,2013-02-23 16:58:00,
2013-02-23 11:59:00,40.5,39.5,29.99,NNE,14,1.0,2.0,96,0.00,,---,0.73,VWS V14.01,2013-02-23 16:59:00,
2013-02-23 12:00:00,40.5,39.5,29.99,North,355,1.0,1.0,96,0.00,,---,0.73,VWS V14.01,2013-02-23 17:00:00,
2013-02-23 12:01:00,40.5,39.5,29.99,NNE,23,1.0,1.0,96,0.00,,---,0.73,VWS V14.01,2013-02-23 17:01:00,
2013-02-23 12:02:00,40.5,39.5,29.99,NNE,23,0.0,1.0,96,0.00,,---,0.73,VWS V14.01,2013-02-23 17:02:00,
2013-02-23 12:03:00,40.5,39.5,29.99,NNE,27,1.0,1.0,96,0.00,,---,0.73,VWS V14.01,2013-02-23 17:03:00,
2013-02-23 12:04:00,40.5,39.5,29.99,NNE,27,1.0,1.0,96,0.00,,---,0.73,VWS V14.01,2013-02-23 17:04:00,
2013-02-23 12:05:00,40.5,39.5,29.99,NNE,26,2.0,2.0,96,0.00,,---,0.73,VWS V14.01,2013-02-23 17:05:00,
2013-02-23 12:06:00,40.5,39.5,29.99,NNE,17,2.0,2.0,96,0.00,,---,0.73,VWS V14.01,2013-02-23 17:06:00,
2013-02-23 12:07:00,40.5,39.5,29.99,North,5,1.0,2.0,96,0.00,,---,0.73,VWS V14.01,2013-02-23 17:07:00,
2013-02-23 12:08:00,40.5,39.5,29.99,North,349,0.0,0.0,96,0.00,,---,0.73,VWS V14.01,2013-02-23 17:08:00,
2013-02-23 12:09:00,40.6,39.5,29.99,North,11,0.0,0.0,96,0.00,,---,0.73,VWS V14.01,2013-02-23 17:09:00,
2013-02-23 12:10:00,40.6,39.5,29.98,North,10,0.0,0.0,96,0.00,,---,0.73,VWS V14.01,2013-02-23 17:10:00,
2013-02-23 12:11:00,40.6,39.5,29.98,North,11,0.0,0.0,96,0.00,,---,0.73,VWS V14.01,2013-02-23 17:11:00,
2013-02-23 12:12:00,40.6,39.5,29.99,NNW,340,2.0,2.0,96,0.00,,---,0.73,VWS V14.01,2013-02-23 17:12:00,
2013-02-23 12:13:00,40.6,39.5,29.99,NNW,340,0.0,0.0,96,0.00,,---,0.73,VWS V14.01,2013-02-23 17:13:00,
2013-02-23 12:14:00,40.6,39.5,29.99,NNW,340,0.0,0.0,96,0.00,,---,0.73,VWS V14.01,2013-02-23 17:14:00,
2013-02-23 12:15:00,40.7,39.7,29.99,WNW,295,1.0,1.0,96,0.00,,---,0.73,VWS V14.01,2013-02-23 17:15:00,
2013-02-23 12:16:00,40.8,39.8,29.99,WNW,295,1.0,1.0,96,0.00,,---,0.73,VWS V14.01,2013-02-23 17:16:00,
2013-02-23 12:17:00,40.8,39.8,29.99,WNW,295,0.0,1.0,96,0.00,,---,0.73,VWS V14.01,2013-02-23 17:17:00,
2013-02-23 12:18:00,40.7,39.7,29.99,WNW,296,1.0,2.0,96,0.00,,---,0.73,VWS V14.01,2013-02-23 17:18:00,
2013-02-23 12:19:00,40.7,39.7,29.99,NW,311,1.0,2.0,96,0.00,,---,0.73,VWS V14.01,2013-02-23 17:19:00,
2013-02-23 12:20:00,40.7,39.7,29.99,NW,315,0.0,1.0,96,0.00,,---,0.73,VWS V14.01,2013-02-23 17:20:00,
2013-02-23 12:21:00,40.7,39.7,29.99,NW,317,0.0,1.0,96,0.00,,---,0.73,VWS V14.01,2013-02-23 17:21:00,
2013-02-23 12:22:00,40.7,39.7,29.99,NW,315,1.0,1.0,96,0.00,,---,0.73,VWS V14.01,2013-02-23 17:22:00,
2013-02-23 12:23:00,40.7,39.7,29.99,NW,323,1.0,1.0,96,0.01,,---,0.74,VWS V14.01,2013-02-23 17:23:00,
2013-02-23 12:24:00,40.8,39.8,29.99,NNW,329,2.0,2.0,96,0.01,,---,0.74,VWS V14.01,2013-02-23 17:24:00,
2013-02-23 12:25:00,40.8,39.8,29.99,NNE,20,2.0,2.0,96,0.01,,---,0.74,VWS V14.01,2013-02-23 17:25:00,
2013-02-23 12:26:00,40.8,39.8,29.99,North,350,0.0,2.0,96,0.01,,---,0.74,VWS V14.01,2013-02-23 17:26:00,
2013-02-23 12:27:00,40.9,39.8,29.98,North,350,0.0,0.0,96,0.01,,---,0.74,VWS V14.01,2013-02-23 17:27:00,
2013-02-23 12:28:00,40.9,39.8,29.97,NNE,24,1.0,2.0,96,0.01,,---,0.74,VWS V14.01,2013-02-23 17:28:00,
2013-02-23 12:29:00,40.9,39.8,29.97,NNE,24,0.0,2.0,96,0.01,,---,0.74,VWS V14.01,2013-02-23 17:29:00,
2013-02-23 12:30:00,40.9,39.8,29.98,NNW,334,2.0,2.0,96,0.01,,---,0.74,VWS V14.01,2013-02-23 17:30:00,
2013-02-23 12:31:00,40.9,39.8,29.98,NNW,334,1.0,2.0,96,0.01,,---,0.74,VWS V14.01,2013-02-23 17:31:00,
2013-02-23 12:32:00,40.9,39.8,29.98,NNW,334,1.0,1.0,96,0.01,,---,0.74,VWS V14.01,2013-02-23 17:32:00,
2013-02-23 12:33:00,41.0,40.0,29.98,NNW,335,0.0,1.0,96,0.01,,---,0.74,VWS V14.01,2013-02-23 17:33:00,
2013-02-23 12:34:00,41.0,40.0,29.98,NNE,32,2.0,2.0,96,0.01,,---,0.74,VWS V14.01,2013-02-23 17:34:00,
2013-02-23 12:35:00,41.0,40.0,29.97,NW,325,1.0,2.0,96,0.01,,---,0.74,VWS V14.01,2013-02-23 17:35:00,
2013-02-23 12:36:00,41.0,40.0,29.97,WNW,292,2.0,2.0,96,0.01,,---,0.74,VWS V14.01,2013-02-23 17:36:00,
2013-02-23 12:37:00,41.0,40.0,29.98,WNW,303,1.0,2.0,96,0.01,,---,0.74,VWS V14.01,2013-02-23 17:37:00,
2013-02-23 12:38:00,41.0,40.0,29.98,NNW,348,2.0,3.0,96,0.01,,---,0.74,VWS V14.01,2013-02-23 17:38:00,
2013-02-23 12:39:00,41.0,40.0,29.98,NNW,348,1.0,3.0,96,0.01,,---,0.74,VWS V14.01,2013-02-23 17:39:00,
2013-02-23 12:40:00,41.0,40.0,29.98,NE,44,1.0,2.0,96,0.01,,---,0.74,VWS V14.01,2013-02-23 17:40:00,
2013-02-23 12:41:00,41.0,40.0,29.97,NE,43,0.0,1.0,96,0.01,,---,0.74,VWS V14.01,2013-02-23 17:41:00,
2013-02-23 12:42:00,41.0,40.0,29.97,NNW,335,0.0,1.0,96,0.01,,---,0.74,VWS V14.01,2013-02-23 17:42:00,
2013-02-23 12:43:00,41.0,40.0,29.98,WNW,303,1.0,2.0,96,0.01,,---,0.74,VWS V14.01,2013-02-23 17:43:00,
2013-02-23 12:44:00,41.1,40.0,29.98,WNW,295,0.0,2.0,96,0.01,,---,0.74,VWS V14.01,2013-02-23 17:44:00,
2013-02-23 12:45:00,41.1,40.0,29.98,NNE,26,2.0,2.0,96,0.01,,---,0.74,VWS V14.01,2013-02-23 17:45:00,
2013-02-23 12:46:00,41.1,40.0,29.98,NNW,341,1.0,2.0,96,0.01,,---,0.74,VWS V14.01,2013-02-23 17:46:00,
2013-02-23 12:47:00,41.1,40.0,29.98,NNE,25,2.0,2.0,96,0.01,,---,0.74,VWS V14.01,2013-02-23 17:47:00,
2013-02-23 12:48:00,41.1,40.0,29.98,WNW,288,2.0,2.0,96,0.01,,---,0.74,VWS V14.01,2013-02-23 17:48:00,
2013-02-23 12:49:00,41.1,40.0,29.98,WNW,288,2.0,2.0,96,0.01,,---,0.74,VWS V14.01,2013-02-23 17:49:00,
2013-02-23 12:50:00,41.1,40.0,29.98,WNW,288,1.0,2.0,96,0.01,,---,0.74,VWS V14.01,2013-02-23 17:50:00,
2013-02-23 12:51:00,41.1,40.0,29.98,WNW,288,0.0,1.0,96,0.01,,---,0.74,VWS V14.01,2013-02-23 17:51:00,
2013-02-23 12:52:00,41.1,40.0,29.98,West,279,0.0,4.0,96,0.01,,---,0.74,VWS V14.01,2013-02-23 17:52:00,
2013-02-23 12:53:00,41.1,40.0,29.98,NW,319,1.0,2.0,96,0.01,,---,0.74,VWS V14.01,2013-02-23 17:53:00,
2013-02-23 12:54:00,41.1,40.0,29.98,NW,325,1.0,2.0,96,0.01,,---,0.74,VWS V14.01,2013-02-23 17:54:00,
2013-02-23 12:55:00,41.1,40.0,29.98,WNW,284,2.0,2.0,96,0.01,,---,0.74,VWS V14.01,2013-02-23 17:55:00,
2013-02-23 12:56:00,41.1,40.0,29.98,WNW,292,1.0,2.0,96,0.01,,---,0.74,VWS V14.01,2013-02-23 17:56:00,
2013-02-23 12:57:00,41.2,40.2,29.98,WNW,302,2.0,2.0,96,0.01,,---,0.74,VWS V14.01,2013-02-23 17:57:00,
2013-02-23 12:58:00,41.1,40.0,29.98,NNW,344,0.0,1.0,96,0.01,,---,0.74,VWS V14.01,2013-02-23 17:58:00,
2013-02-23 12:59:00,41.1,40.0,29.98,NNW,328,3.0,3.0,96,0.01,,---,0.74,VWS V14.01,2013-02-23 17:59:00,
2013-02-23 13:00:00,41.1,40.0,29.98,WNW,294,4.0,4.0,96,0.01,,---,0.74,VWS V14.01,2013-02-23 18:00:00,
2013-02-23 13:01:00,41.1,40.0,29.98,NNW,340,2.0,4.0,96,0.02,,---,0.75,VWS V14.01,2013-02-23 18:01:00,
2013-02-23 13:02:00,41.1,40.0,29.97,North,349,2.0,3.0,96,0.02,,---,0.75,VWS V14.01,2013-02-23 18:02:00,
2013-02-23 13:03:00,41.1,40.0,29.97,North,350,3.0,3.0,96,0.02,,---,0.75,VWS V14.01,2013-02-23 18:03:00,
2013-02-23 13:04:00,41.1,40.0,29.97,NNW,344,3.0,4.0,96,0.02,,---,0.75,VWS V14.01,2013-02-23 18:04:00,
2013-02-23 13:05:00,41.0,40.0,29.97,NNW,338,2.0,3.0,96,0.02,,---,0.75,VWS V14.01,2013-02-23 18:05:00,
2013-02-23 13:06:00,41.0,40.0,29.97,NNE,23,1.0,2.0,96,0.02,,---,0.75,VWS V14.01,2013-02-23 18:06:00,
2013-02-23 13:07:00,41.1,40.0,29.97,West,277,1.0,2.0,96,0.03,,---,0.76,VWS V14.01,2013-02-23 18:07:00,
2013-02-23 13:08:00,41.2,40.2,29.98,WNW,282,1.0,1.0,96,0.03,,---,0.76,VWS V14.01,2013-02-23 18:08:00,
2013-02-23 13:09:00,41.2,40.2,29.98,NNE,13,1.0,2.0,96,0.03,,---,0.76,VWS V14.01,2013-02-23 18:09:00,
2013-02-23 13:10:00,41.3,40.2,29.97,NNE,16,1.0,1.0,96,0.03,,---,0.76,VWS V14.01,2013-02-23 18:10:00,
2013-02-23 13:11:00,41.3,40.2,29.98,NNE,31,2.0,2.0,96,0.03,,---,0.76,VWS V14.01,2013-02-23 18:11:00,
2013-02-23 13:12:00,41.3,40.2,29.97,NNE,15,2.0,3.0,96,0.03,,---,0.76,VWS V14.01,2013-02-23 18:12:00,
2013-02-23 13:13:00,41.3,40.2,29.97,North,360,4.0,4.0,96,0.03,,---,0.76,VWS V14.01,2013-02-23 18:13:00,
2013-02-23 13:14:00,41.2,40.2,29.97,NNE,15,3.0,4.0,96,0.03,,---,0.76,VWS V14.01,2013-02-23 18:14:00,
2013-02-23 13:15:00,41.2,40.2,29.97,North,360,3.0,3.0,96,0.03,,---,0.76,VWS V14.01,2013-02-23 18:15:00,
2013-02-23 13:16:00,41.2,40.2,29.97,NNE,28,2.0,3.0,96,0.03,,---,0.76,VWS V14.01,2013-02-23 18:16:00,
2013-02-23 13:17:00,41.2,40.2,29.97,NNW,335,3.0,4.0,96,0.03,,---,0.76,VWS V14.01,2013-02-23 18:17:00,
2013-02-23 13:18:00,41.2,40.2,29.97,NNW,338,3.0,3.0,96,0.03,,---,0.76,VWS V14.01,2013-02-23 18:18:00,
2013-02-23 13:19:00,41.2,40.2,29.97,NNW,333,3.0,3.0,96,0.03,,---,0.76,VWS V14.01,2013-02-23 18:19:00,
2013-02-23 13:20:00,41.2,40.2,29.97,NNE,15,2.0,3.0,96,0.04,,---,0.77,VWS V14.01,2013-02-23 18:20:00,
2013-02-23 13:21:00,41.1,40.0,29.96,NNE,14,2.0,3.0,96,0.04,,---,0.77,VWS V14.01,2013-02-23 18:21:00,
2013-02-23 13:22:00,41.1,40.0,29.96,NNW,347,2.0,2.0,96,0.04,,---,0.77,VWS V14.01,2013-02-23 18:22:00,
2013-02-23 13:23:00,41.1,40.0,29.96,NNE,26,2.0,3.0,96,0.03,,---,0.77,VWS V14.01,2013-02-23 18:23:00,
2013-02-23 13:24:00,41.1,40.0,29.96,NNW,338,3.0,3.0,96,0.03,,---,0.77,VWS V14.01,2013-02-23 18:24:00,
2013-02-23 13:25:00,41.1,40.0,29.96,NNE,28,2.0,3.0,96,0.03,,---,0.77,VWS V14.01,2013-02-23 18:25:00,
2013-02-23 13:26:00,41.2,40.2,29.95,North,11,3.0,3.0,96,0.03,,---,0.77,VWS V14.01,2013-02-23 18:26:00,
2013-02-23 13:27:00,41.3,40.2,29.95,North,351,3.0,4.0,96,0.03,,---,0.77,VWS V14.01,2013-02-23 18:27:00,
2013-02-23 13:28:00,41.3,40.2,29.95,NNE,32,2.0,2.0,96,0.03,,---,0.77,VWS V14.01,2013-02-23 18:28:00,
2013-02-23 13:29:00,41.3,40.2,29.95,NNE,32,4.0,4.0,96,0.03,,---,0.77,VWS V14.01,2013-02-23 18:29:00,
2013-02-23 13:30:00,41.3,40.2,29.95,NNW,346,2.0,4.0,96,0.03,,---,0.77,VWS V14.01,2013-02-23 18:30:00,
2013-02-23 13:31:00,41.3,40.2,29.95,NNE,13,2.0,4.0,96,0.03,,---,0.77,VWS V14.01,2013-02-23 18:31:00,
2013-02-23 13:32:00,41.3,40.2,29.96,NNW,341,2.0,3.0,96,0.03,,---,0.77,VWS V14.01,2013-02-23 18:32:00,
2013-02-23 13:33:00,41.5,40.5,29.97,WNW,283,2.0,3.0,96,0.03,,---,0.77,VWS V14.01,2013-02-23 18:33:00,
2013-02-23 13:34:00,41.5,40.5,29.97,WNW,291,3.0,4.0,96,0.03,,---,0.77,VWS V14.01,2013-02-23 18:34:00,
2013-02-23 13:35:00,41.5,40.5,29.97,West,280,1.0,3.0,96,0.03,,---,0.77,VWS V14.01,2013-02-23 18:35:00,
2013-02-23 13:36:00,41.6,40.5,29.97,NNW,338,3.0,3.0,96,0.03,,---,0.77,VWS V14.01,2013-02-23 18:36:00,
2013-02-23 13:37:00,41.5,40.5,29.97,NNE,17,3.0,4.0,96,0.03,,---,0.77,VWS V14.01,2013-02-23 18:37:00,
2013-02-23 13:38:00,41.6,40.5,29.97,NNW,333,2.0,3.0,96,0.03,,---,0.77,VWS V14.01,2013-02-23 18:38:00,
2013-02-23 13:39:00,41.6,40.5,29.97,NNW,338,2.0,3.0,96,0.03,,---,0.77,VWS V14.01,2013-02-23 18:39:00,
2013-02-23 13:41:00,41.7,40.7,29.96,NNW,338,2.0,3.0,96,0.03,,---,0.77,VWS V14.01,2013-02-23 18:41:00,
2013-02-23 13:42:00,41.7,40.7,29.96,NW,304,3.0,3.0,96,0.03,,---,0.77,VWS V14.01,2013-02-23 18:42:00,
2013-02-23 13:43:00,41.7,40.7,29.97,NW,326,1.0,2.0,96,0.03,,---,0.77,VWS V14.01,2013-02-23 18:43:00,
2013-02-23 13:44:00,41.7,40.7,29.97,West,273,4.0,4.0,96,0.03,,---,0.77,VWS V14.01,2013-02-23 18:44:00,
2013-02-23 13:45:00,41.7,40.7,29.97,NNW,329,1.0,4.0,96,0.03,,---,0.77,VWS V14.01,2013-02-23 18:45:00,
2013-02-23 13:46:00,41.7,40.7,29.97,NNW,340,2.0,5.0,96,0.03,,---,0.77,VWS V14.01,2013-02-23 18:46:00,
2013-02-23 13:47:00,41.7,40.7,29.97,NW,319,3.0,4.0,96,0.03,,---,0.77,VWS V14.01,2013-02-23 18:47:00,
2013-02-23 13:48:00,41.7,40.7,29.97,North,349,4.0,4.0,96,0.03,,---,0.77,VWS V14.01,2013-02-23 18:48:00,
2013-02-23 13:49:00,41.7,40.7,29.97,WNW,286,1.0,4.0,96,0.03,,---,0.77,VWS V14.01,2013-02-23 18:49:00,
2013-02-23 13:50:00,41.6,40.5,29.97,NNW,344,1.0,4.0,96,0.03,,---,0.77,VWS V14.01,2013-02-23 18:50:00,
2013-02-23 13:51:00,41.7,40.7,29.97,NNW,329,2.0,3.0,96,0.03,,---,0.77,VWS V14.01,2013-02-23 18:51:00,
2013-02-23 13:52:00,41.6,40.5,29.97,NNW,342,1.0,2.0,96,0.03,,---,0.77,VWS V14.01,2013-02-23 18:52:00,
2013-02-23 13:53:00,41.7,40.7,29.97,NNW,346,2.0,2.0,96,0.03,,---,0.77,VWS V14.01,2013-02-23 18:53:00,
2013-02-23 13:54:00,41.7,40.7,29.97,WNW,294,2.0,2.0,96,0.03,,---,0.77,VWS V14.01,2013-02-23 18:54:00,
2013-02-23 13:55:00,41.7,40.7,29.97,NNW,348,3.0,3.0,96,0.03,,---,0.77,VWS V14.01,2013-02-23 18:55:00,
2013-02-23 13:56:00,41.7,40.7,29.97,NNW,327,4.0,4.0,96,0.03,,---,0.77,VWS V14.01,2013-02-23 18:56:00,
2013-02-23 13:57:00,41.7,40.7,29.97,NNE,12,3.0,5.0,96,0.03,,---,0.77,VWS V14.01,2013-02-23 18:57:00,
2013-02-23 13:58:00,41.6,40.5,29.97,NNW,329,4.0,4.0,96,0.04,,---,0.78,VWS V14.01,2013-02-23 18:58:00,
2013-02-23 13:59:00,41.6,40.5,29.97,WNW,288,1.0,4.0,96,0.04,,---,0.78,VWS V14.01,2013-02-23 18:59:00,
2013-02-23 14:00:00,41.6,40.5,29.97,NNW,329,3.0,4.0,96,0.04,,---,0.78,VWS V14.01,2013-02-23 19:00:00,
2013-02-23 14:01:00,41.6,40.5,29.97,WNW,292,2.0,4.0,96,0.04,,---,0.78,VWS V14.01,2013-02-23 19:01:00,
2013-02-23 14:02:00,41.6,40.5,29.97,WSW,240,1.0,4.0,96,0.03,,---,0.78,VWS V14.01,2013-02-23 19:02:00,
2013-02-23 14:03:00,41.6,40.5,29.97,North,11,1.0,2.0,96,0.03,,---,0.78,VWS V14.01,2013-02-23 19:03:00,
2013-02-23 14:04:00,41.6,40.5,29.97,NNW,344,2.0,3.0,96,0.03,,---,0.78,VWS V14.01,2013-02-23 19:04:00,
2013-02-23 14:05:00,41.6,40.5,29.97,NNW,348,5.0,5.0,96,0.03,,---,0.78,VWS V14.01,2013-02-23 19:05:00,
2013-02-23 14:06:00,41.6,40.5,29.97,NNE,23,2.0,5.0,96,0.03,,---,0.78,VWS V14.01,2013-02-23 19:06:00,
2013-02-23 14:07:00,41.6,40.5,29.97,NW,323,6.0,6.0,96,0.03,,---,0.78,VWS V14.01,2013-02-23 19:07:00,
2013-02-23 14:08:00,41.5,40.5,29.96,WNW,296,1.0,2.0,96,0.02,,---,0.78,VWS V14.01,2013-02-23 19:08:00,
2013-02-23 14:09:00,41.5,40.5,29.96,North,5,6.0,7.0,96,0.02,,---,0.78,VWS V14.01,2013-02-23 19:09:00,
2013-02-23 14:10:00,41.4,40.3,29.97,WNW,300,3.0,6.0,96,0.02,,---,0.78,VWS V14.01,2013-02-23 19:10:00,
2013-02-23 14:11:00,41.4,40.3,29.97,NNW,333,3.0,4.0,96,0.02,,---,0.78,VWS V14.01,2013-02-23 19:11:00,
2013-02-23 14:12:00,41.4,40.3,29.97,NW,313,0.0,3.0,96,0.02,,---,0.78,VWS V14.01,2013-02-23 19:12:00,
2013-02-23 14:13:00,41.5,40.5,29.97,North,349,5.0,5.0,96,0.02,,---,0.78,VWS V14.01,2013-02-23 19:13:00,
2013-02-23 14:14:00,41.5,40.5,29.97,NNW,335,3.0,7.0,96,0.02,,---,0.78,VWS V14.01,2013-02-23 19:14:00,
2013-02-23 14:15:00,41.4,40.3,29.97,NNW,329,4.0,6.0,96,0.02,,---,0.78,VWS V14.01,2013-02-23 19:15:00,
2013-02-23 14:16:00,41.4,40.3,29.97,NNW,340,3.0,4.0,96,0.02,,---,0.78,VWS V14.01,2013-02-23 19:16:00,
2013-02-23 14:17:00,41.4,40.3,29.97,North,355,4.0,4.0,96,0.02,,---,0.78,VWS V14.01,2013-02-23 19:17:00,
2013-02-23 14:18:00,41.4,40.3,29.97,NNW,329,3.0,3.0,96,0.02,,---,0.78,VWS V14.01,2013-02-23 19:18:00,
2013-02-23 14:19:00,41.4,40.3,29.97,NNW,340,4.0,4.0,96,0.02,,---,0.78,VWS V14.01,2013-02-23 19:19:00,
2013-02-23 14:20:00,41.4,40.3,29.96,NW,310,2.0,4.0,96,0.02,,---,0.78,VWS V14.01,2013-02-23 19:20:00,
2013-02-23 14:21:00,41.4,40.3,29.96,North,5,3.0,3.0,96,0.01,,---,0.78,VWS V14.01,2013-02-23 19:21:00,
2013-02-23 14:22:00,41.3,40.2,29.96,WNW,283,2.0,3.0,96,0.01,,---,0.78,VWS V14.01,2013-02-23 19:22:00,
2013-02-23 14:23:00,41.3,40.2,29.97,WNW,300,1.0,2.0,96,0.01,,---,0.78,VWS V14.01,2013-02-23 19:23:00,
2013-02-23 14:24:00,41.3,40.2,29.97,North,355,2.0,2.0,96,0.01,,---,0.78,VWS V14.01,2013-02-23 19:24:00,
2013-02-23 14:25:00,41.3,40.2,29.97,NW,307,1.0,3.0,96,0.01,,---,0.78,VWS V14.01,2013-02-23 19:25:00,
2013-02-23 14:26:00,41.4,40.3,29.97,NNE,23,3.0,4.0,96,0.01,,---,0.78,VWS V14.01,2013-02-23 19:26:00,
2013-02-23 14:27:00,41.4,40.3,29.97,NNW,329,3.0,3.0,96,0.01,,---,0.78,VWS V14.01,2013-02-23 19:27:00,
2013-02-23 14:28:00,41.4,40.3,29.97,NE,35,3.0,4.0,96,0.01,,---,0.78,VWS V14.01,2013-02-23 19:28:00,
2013-02-23 14:29:00,41.4,40.3,29.97,NNE,28,1.0,4.0,96,0.01,,---,0.78,VWS V14.01,2013-02-23 19:29:00,
2013-02-23 14:30:00,41.4,40.3,29.97,NNE,19,0.0,3.0,96,0.01,,---,0.78,VWS V14.01,2013-02-23 19:30:00,
2013-02-23 14:31:00,41.4,40.3,29.97,NNE,18,2.0,2.0,96,0.01,,---,0.78,VWS V14.01,2013-02-23 19:31:00,
2013-02-23 14:32:00,41.4,40.3,29.97,NNE,28,2.0,2.0,96,0.01,,---,0.78,VWS V14.01,2013-02-23 19:32:00,
2013-02-23 14:33:00,41.4,40.3,29.97,NE,43,2.0,2.0,96,0.01,,---,0.78,VWS V14.01,2013-02-23 19:33:00,
2013-02-23 14:34:00,41.4,40.3,29.97,NNE,12,2.0,3.0,96,0.01,,---,0.78,VWS V14.01,2013-02-23 19:34:00,
2013-02-23 14:35:00,41.4,40.3,29.97,North,349,3.0,4.0,96,0.01,,---,0.78,VWS V14.01,2013-02-23 19:35:00,
2013-02-23 14:36:00,41.5,40.5,29.97,North,351,1.0,3.0,96,0.01,,---,0.78,VWS V14.01,2013-02-23 19:36:00,
2013-02-23 14:37:00,41.5,40.5,29.97,NNW,340,2.0,2.0,96,0.01,,---,0.78,VWS V14.01,2013-02-23 19:37:00,
2013-02-23 14:38:00,41.5,40.5,29.97,NW,322,2.0,2.0,96,0.01,,---,0.78,VWS V14.01,2013-02-23 19:38:00,
2013-02-23 14:39:00,41.5,40.5,29.97,NNW,344,2.0,4.0,96,0.01,,---,0.78,VWS V14.01,2013-02-23 19:39:00,
2013-02-23 14:40:00,41.6,40.5,29.97,NNE,23,3.0,4.0,96,0.01,,---,0.78,VWS V14.01,2013-02-23 19:40:00,
2013-02-23 14:41:00,41.6,40.5,29.97,North,11,4.0,6.0,96,0.01,,---,0.78,VWS V14.01,2013-02-23 19:41:00,
2013-02-23 14:42:00,41.6,40.5,29.96,NNE,24,4.0,5.0,96,0.01,,---,0.78,VWS V14.01,2013-02-23 19:42:00,
2013-02-23 14:43:00,41.5,40.5,29.96,NNE,27,3.0,4.0,96,0.01,,---,0.78,VWS V14.01,2013-02-23 19:43:00,
2013-02-23 14:44:00,41.6,40.5,29.96,NNE,22,4.0,6.0,96,0.01,,---,0.78,VWS V14.01,2013-02-23 19:44:00,
2013-02-23 14:45:00,41.5,40.5,29.96,NNE,27,4.0,4.0,96,0.01,,---,0.78,VWS V14.01,2013-02-23 19:45:00,
2013-02-23 14:46:00,41.6,40.5,29.96,NNE,15,3.0,4.0,96,0.01,,---,0.78,VWS V14.01,2013-02-23 19:46:00,
2013-02-23 14:47:00,41.6,40.5,29.96,NNE,25,3.0,4.0,96,0.01,,---,0.78,VWS V14.01,2013-02-23 19:47:00,
2013-02-23 14:48:00,41.7,40.7,29.95,NNE,32,5.0,5.0,96,0.01,,---,0.78,VWS V14.01,2013-02-23 19:48:00,
2013-02-23 14:49:00,41.7,40.7,29.95,NE,34,3.0,5.0,96,0.01,,---,0.78,VWS V14.01,2013-02-23 19:49:00,
2013-02-23 14:50:00,41.7,40.7,29.95,NNE,32,3.0,3.0,96,0.01,,---,0.78,VWS V14.01,2013-02-23 19:50:00,
2013-02-23 14:51:00,41.7,40.7,29.94,NNE,13,2.0,3.0,96,0.01,,---,0.78,VWS V14.01,2013-02-23 19:51:00,
2013-02-23 14:52:00,41.7,40.7,29.94,North,351,3.0,3.0,96,0.01,,---,0.78,VWS V14.01,2013-02-23 19:52:00,
2013-02-23 14:53:00,41.8,40.8,29.94,NNE,16,3.0,3.0,96,0.01,,---,0.78,VWS V14.01,2013-02-23 19:53:00,
2013-02-23 14:54:00,41.8,40.8,29.94,NE,35,1.0,3.0,96,0.01,,---,0.78,VWS V14.01,2013-02-23 19:54:00,
2013-02-23 14:55:00,41.9,40.8,29.94,NNE,18,3.0,3.0,96,0.01,,---,0.78,VWS V14.01,2013-02-23 19:55:00,
2013-02-23 14:56:00,41.8,40.8,29.94,NE,42,2.0,3.0,96,0.01,,---,0.78,VWS V14.01,2013-02-23 19:56:00,
2013-02-23 14:57:00,41.9,40.8,29.94,NE,39,1.0,3.0,96,0.01,,---,0.78,VWS V14.01,2013-02-23 19:57:00,
2013-02-23 14:58:00,42.0,40.9,29.94,NE,47,4.0,4.0,96,0.01,,---,0.78,VWS V14.01,2013-02-23 19:58:00,
2013-02-23 14:59:00,42.0,40.9,29.94,NE,49,1.0,4.0,96,0.01,,---,0.78,VWS V14.01,2013-02-23 19:59:00,
2013-02-23 15:00:00,42.0,40.9,29.94,NE,35,2.0,2.0,96,0.00,,---,0.78,VWS V14.01,2013-02-23 20:00:00,
2013-02-23 15:01:00,42.0,40.9,29.93,North,350,2.0,2.0,96,0.00,,---,0.78,VWS V14.01,2013-02-23 20:01:00,
2013-02-23 15:02:00,42.0,40.9,29.93,NNE,23,3.0,3.0,96,0.00,,---,0.78,VWS V14.01,2013-02-23 20:02:00,
2013-02-23 15:03:00,42.0,40.9,29.93,North,355,2.0,3.0,96,0.00,,---,0.78,VWS V14.01,2013-02-23 20:03:00,
2013-02-23 15:04:00,42.1,41.0,29.93,North,355,0.0,2.0,96,0.00,,---,0.78,VWS V14.01,2013-02-23 20:04:00,
2013-02-23 15:05:00,42.1,41.0,29.93,North,351,0.0,0.0,96,0.00,,---,0.78,VWS V14.01,2013-02-23 20:05:00,
2013-02-23 15:06:00,42.1,41.0,29.93,NE,36,1.0,1.0,96,0.00,,---,0.78,VWS V14.01,2013-02-23 20:06:00,
2013-02-23 15:07:00,42.2,41.1,29.93,NE,47,0.0,1.0,96,0.00,,---,0.78,VWS V14.01,2013-02-23 20:07:00,
2013-02-23 15:08:00,42.2,41.1,29.93,NE,47,0.0,0.0,96,0.00,,---,0.78,VWS V14.01,2013-02-23 20:08:00,
2013-02-23 15:09:00,42.3,41.2,29.93,NE,47,0.0,0.0,96,0.00,,---,0.78,VWS V14.01,2013-02-23 20:09:00,
2013-02-23 15:10:00,42.3,41.2,29.93,NE,42,1.0,1.0,96,0.00,,---,0.78,VWS V14.01,2013-02-23 20:10:00,
2013-02-23 15:11:00,42.3,41.2,29.93,NNE,28,0.0,1.0,96,0.00,,---,0.78,VWS V14.01,2013-02-23 20:11:00,
2013-02-23 15:12:00,42.4,41.3,29.93,NNE,28,0.0,0.0,96,0.00,,---,0.78,VWS V14.01,2013-02-23 20:12:00,
2013-02-23 15:13:00,42.4,41.3,29.93,NNE,28,0.0,0.0,96,0.00,,---,0.78,VWS V14.01,2013-02-23 20:13:00,
2013-02-23 15:14:00,42.5,41.4,29.93,NNE,19,1.0,1.0,96,0.00,,---,0.78,VWS V14.01,2013-02-23 20:14:00,
2013-02-23 15:15:00,42.5,41.4,29.93,NNW,335,0.0,1.0,96,0.00,,---,0.78,VWS V14.01,2013-02-23 20:15:00,
2013-02-23 15:16:00,42.5,41.4,29.93,WNW,290,1.0,1.0,96,0.00,,---,0.78,VWS V14.01,2013-02-23 20:16:00,
2013-02-23 15:17:00,42.6,41.5,29.93,NW,304,2.0,3.0,96,0.00,,---,0.78,VWS V14.01,2013-02-23 20:17:00,
2013-02-23 15:18:00,42.6,41.5,29.93,NW,304,0.0,0.0,96,0.00,,---,0.78,VWS V14.01,2013-02-23 20:18:00,
2013-02-23 15:19:00,42.6,41.5,29.93,NW,304,0.0,0.0,96,0.00,,---,0.78,VWS V14.01,2013-02-23 20:19:00,
2013-02-23 15:20:00,42.7,41.6,29.93,NW,304,0.0,0.0,96,0.00,,---,0.78,VWS V14.01,2013-02-23 20:20:00,
2013-02-23 15:21:00,42.8,41.7,29.92,NW,304,0.0,1.0,96,0.00,,---,0.78,VWS V14.01,2013-02-23 20:21:00,
2013-02-23 15:22:00,42.8,41.7,29.92,NE,44,1.0,2.0,96,0.00,,---,0.78,VWS V14.01,2013-02-23 20:22:00,
2013-02-23 15:23:00,42.9,41.8,29.92,NNE,32,1.0,2.0,96,0.00,,---,0.78,VWS V14.01,2013-02-23 20:23:00,
2013-02-23 15:24:00,42.9,41.8,29.92,NNE,32,0.0,1.0,96,0.00,,---,0.78,VWS V14.01,2013-02-23 20:24:00,
2013-02-23 15:25:00,42.9,41.8,29.92,NNE,32,0.0,0.0,96,0.00,,---,0.78,VWS V14.01,2013-02-23 20:25:00,
2013-02-23 15:26:00,42.9,41.8,29.92,NNE,31,0.0,1.0,96,0.00,,---,0.78,VWS V14.01,2013-02-23 20:26:00,
2013-02-23 15:27:00,42.9,41.8,29.92,NNE,31,1.0,1.0,96,0.00,,---,0.78,VWS V14.01,2013-02-23 20:27:00,
2013-02-23 15:28:00,42.9,41.8,29.92,NNE,18,3.0,3.0,96,0.00,,---,0.78,VWS V14.01,2013-02-23 20:28:00,
2013-02-23 15:29:00,43.0,41.9,29.92,NNE,12,2.0,3.0,96,0.00,,---,0.78,VWS V14.01,2013-02-23 20:29:00,
2013-02-23 15:30:00,43.0,41.9,29.92,NNW,346,1.0,2.0,96,0.00,,---,0.78,VWS V14.01,2013-02-23 20:30:00,
2013-02-23 15:31:00,43.1,42.0,29.93,NNW,327,1.0,1.0,96,0.00,,---,0.78,VWS V14.01,2013-02-23 20:31:00,
2013-02-23 15:32:00,43.1,42.0,29.93,NNW,329,1.0,1.0,96,0.00,,---,0.78,VWS V14.01,2013-02-23 20:32:00,
2013-02-23 15:33:00,43.2,42.1,29.93,NW,314,0.0,1.0,96,0.00,,---,0.78,VWS V14.01,2013-02-23 20:33:00,
2013-02-23 15:34:00,43.2,42.1,29.93,NW,314,0.0,1.0,96,0.00,,---,0.78,VWS V14.01,2013-02-23 20:34:00,
2013-02-23 15:35:00,43.3,42.2,29.92,NNE,30,1.0,1.0,96,0.00,,---,0.78,VWS V14.01,2013-02-23 20:35:00,
2013-02-23 15:36:00,43.3,42.2,29.92,NNE,30,0.0,1.0,96,0.00,,---,0.78,VWS V14.01,2013-02-23 20:36:00,
2013-02-23 15:37:00,43.4,42.3,29.92,NW,319,1.0,2.0,96,0.00,,---,0.78,VWS V14.01,2013-02-23 20:37:00,
2013-02-23 15:38:00,43.4,42.3,29.92,WNW,286,0.0,1.0,96,0.00,,---,0.78,VWS V14.01,2013-02-23 20:38:00,
2013-02-23 15:39:00,43.4,42.3,29.92,WNW,286,0.0,0.0,96,0.00,,---,0.78,VWS V14.01,2013-02-23 20:39:00,
2013-02-23 15:40:00,43.5,42.4,29.91,WNW,286,0.0,0.0,96,0.00,,---,0.78,VWS V14.01,2013-02-23 20:40:00,
2013-02-23 15:41:00,43.5,42.4,29.91,NNE,27,2.0,2.0,96,0.00,,---,0.78,VWS V14.01,2013-02-23 20:41:00,
2013-02-23 15:42:00,43.5,42.4,29.91,NNE,27,0.0,2.0,96,0.00,,---,0.78,VWS V14.01,2013-02-23 20:42:00,
2013-02-23 15:43:00,43.5,42.4,29.91,NNE,27,0.0,0.0,96,0.00,,---,0.78,VWS V14.01,2013-02-23 20:43:00,
2013-02-23 15:44:00,43.5,42.4,29.92,NNW,344,1.0,1.0,96,0.00,,---,0.78,VWS V14.01,2013-02-23 20:44:00,
2013-02-23 15:45:00,43.5,42.4,29.92,NNE,19,2.0,2.0,96,0.00,,---,0.78,VWS V14.01,2013-02-23 20:45:00,
2013-02-23 15:46:00,43.5,42.4,29.92,NNE,28,2.0,3.0,96,0.00,,---,0.78,VWS V14.01,2013-02-23 20:46:00,
2013-02-23 15:47:00,43.5,42.4,29.92,NNW,344,2.0,2.0,96,0.00,,---,0.78,VWS V14.01,2013-02-23 20:47:00,
2013-02-23 15:48:00,43.5,42.4,29.92,NE,36,2.0,2.0,96,0.00,,---,0.78,VWS V14.01,2013-02-23 20:48:00,
2013-02-23 15:49:00,43.5,42.4,29.92,NNE,14,2.0,2.0,96,0.00,,---,0.78,VWS V14.01,2013-02-23 20:49:00,
2013-02-23 15:50:00,43.5,42.4,29.92,NNE,15,1.0,2.0,96,0.00,,---,0.78,VWS V14.01,2013-02-23 20:50:00,
2013-02-23 15:51:00,43.4,42.3,29.92,NNE,17,2.0,2.0,96,0.00,,---,0.78,VWS V14.01,2013-02-23 20:51:00,
2013-02-23 15:52:00,43.4,42.3,29.92,NNE,17,0.0,2.0,96,0.00,,---,0.78,VWS V14.01,2013-02-23 20:52:00,
2013-02-23 15:53:00,43.4,42.3,29.92,North,10,1.0,2.0,96,0.00,,---,0.78,VWS V14.01,2013-02-23 20:53:00,
2013-02-23 15:54:00,43.4,42.3,29.92,North,349,0.0,2.0,96,0.00,,---,0.78,VWS V14.01,2013-02-23 20:54:00,
2013-02-23 15:55:00,43.4,42.3,29.92,NNW,348,1.0,2.0,96,0.00,,---,0.78,VWS V14.01,2013-02-23 20:55:00,
2013-02-23 15:56:00,43.5,42.4,29.92,NE,42,2.0,2.0,96,0.00,,---,0.78,VWS V14.01,2013-02-23 20:56:00,
2013-02-23 15:57:00,43.4,42.3,29.92,NE,38,2.0,3.0,96,0.00,,---,0.78,VWS V14.01,2013-02-23 20:57:00,
2013-02-23 15:58:00,43.4,42.3,29.92,NNE,12,1.0,2.0,96,0.00,,---,0.78,VWS V14.01,2013-02-23 20:58:00,
2013-02-23 15:59:00,43.4,42.3,29.92,NE,39,2.0,2.0,96,0.00,,---,0.78,VWS V14.01,2013-02-23 20:59:00,
2013-02-23 16:00:00,43.4,42.3,29.91,NE,39,2.0,2.0,96,0.00,,---,0.78,VWS V14.01,2013-02-23 21:00:00,
2013-02-23 16:01:00,43.4,42.1,29.91,NNE,27,2.0,2.0,95,0.00,,---,0.78,VWS V14.01,2013-02-23 21:01:00,
2013-02-23 16:02:00,43.4,42.3,29.91,NNE,28,2.0,3.0,96,0.00,,---,0.78,VWS V14.01,2013-02-23 21:02:00,
2013-02-23 16:03:00,43.4,42.1,29.91,North,351,2.0,2.0,95,0.00,,---,0.78,VWS V14.01,2013-02-23 21:03:00,
2013-02-23 16:04:00,43.4,42.3,29.92,NW,319,0.0,1.0,96,0.00,,---,0.78,VWS V14.01,2013-02-23 21:04:00,
2013-02-23 16:05:00,43.5,42.4,29.92,NW,319,1.0,1.0,96,0.00,,---,0.78,VWS V14.01,2013-02-23 21:05:00,
2013-02-23 16:06:00,43.6,42.5,29.92,WNW,303,0.0,1.0,96,0.00,,---,0.78,VWS V14.01,2013-02-23 21:06:00,
2013-02-23 16:07:00,43.6,42.5,29.91,NNW,340,1.0,2.0,96,0.00,,---,0.78,VWS V14.01,2013-02-23 21:07:00,
2013-02-23 16:08:00,43.6,42.5,29.92,NNW,340,1.0,1.0,96,0.00,,---,0.78,VWS V14.01,2013-02-23 21:08:00,
2013-02-23 16:09:00,43.6,42.5,29.92,NNW,340,1.0,1.0,96,0.00,,---,0.78,VWS V14.01,2013-02-23 21:09:00,
2013-02-23 16:10:00,43.6,42.5,29.92,NNE,22,2.0,2.0,96,0.00,,---,0.78,VWS V14.01,2013-02-23 21:10:00,
2013-02-23 16:11:00,43.6,42.5,29.92,NNW,334,0.0,2.0,96,0.00,,---,0.78,VWS V14.01,2013-02-23 21:11:00,
2013-02-23 16:12:00,43.7,42.6,29.92,NNW,329,3.0,3.0,96,0.00,,---,0.78,VWS V14.01,2013-02-23 21:12:00,
2013-02-23 16:13:00,43.6,42.5,29.92,NNW,327,1.0,3.0,96,0.00,,---,0.78,VWS V14.01,2013-02-23 21:13:00,
2013-02-23 16:14:00,43.6,42.5,29.92,NNW,327,1.0,2.0,96,0.00,,---,0.78,VWS V14.01,2013-02-23 21:14:00,
2013-02-23 16:15:00,43.7,42.6,29.92,NNW,333,1.0,2.0,96,0.00,,---,0.78,VWS V14.01,2013-02-23 21:15:00,
2013-02-23 16:16:00,43.7,42.6,29.92,NNW,333,2.0,2.0,96,0.00,,---,0.78,VWS V14.01,2013-02-23 21:16:00,
2013-02-23 16:17:00,43.7,42.4,29.92,NNW,344,2.0,2.0,95,0.00,,---,0.78,VWS V14.01,2013-02-23 21:17:00,
2013-02-23 16:18:00,43.7,42.4,29.92,North,360,1.0,2.0,95,0.00,,---,0.78,VWS V14.01,2013-02-23 21:18:00,
2013-02-23 16:19:00,43.7,42.4,29.92,NNW,341,1.0,1.0,95,0.00,,---,0.78,VWS V14.01,2013-02-23 21:19:00,
2013-02-23 16:20:00,43.7,42.6,29.92,NNW,344,2.0,2.0,96,0.00,,---,0.78,VWS V14.01,2013-02-23 21:20:00,
2013-02-23 16:21:00,43.7,42.4,29.92,NNW,348,1.0,2.0,95,0.00,,---,0.78,VWS V14.01,2013-02-23 21:21:00,
2013-02-23 16:22:00,43.7,42.4,29.92,NNE,14,1.0,2.0,95,0.00,,---,0.78,VWS V14.01,2013-02-23 21:22:00,
2013-02-23 16:23:00,43.7,42.6,29.92,NNE,14,1.0,1.0,96,0.00,,---,0.78,VWS V14.01,2013-02-23 21:23:00,
2013-02-23 16:24:00,43.7,42.6,29.92,NNE,17,2.0,2.0,96,0.00,,---,0.78,VWS V14.01,2013-02-23 21:24:00,
2013-02-23 16:25:00,43.8,42.7,29.92,NNW,346,1.0,3.0,96,0.00,,---,0.78,VWS V14.01,2013-02-23 21:25:00,
2013-02-23 16:26:00,43.8,42.7,29.92,NNW,346,2.0,2.0,96,0.00,,---,0.78,VWS V14.01,2013-02-23 21:26:00,
2013-02-23 16:27:00,43.8,42.7,29.92,NNW,346,2.0,2.0,96,0.00,,---,0.78,VWS V14.01,2013-02-23 21:27:00,
2013-02-23 16:28:00,43.8,42.7,29.93,NNE,22,2.0,2.0,96,0.00,,---,0.78,VWS V14.01,2013-02-23 21:28:00,
2013-02-23 16:29:00,43.8,42.7,29.93,NNE,17,4.0,4.0,96,0.00,,---,0.78,VWS V14.01,2013-02-23 21:29:00,
2013-02-23 16:30:00,43.8,42.7,29.93,NNW,329,1.0,4.0,96,0.00,,---,0.78,VWS V14.01,2013-02-23 21:30:00,
2013-02-23 16:31:00,43.8,42.5,29.93,North,351,4.0,4.0,95,0.00,,---,0.78,VWS V14.01,2013-02-23 21:31:00,
2013-02-23 16:32:00,43.8,42.5,29.93,NNW,336,3.0,5.0,95,0.00,,---,0.78,VWS V14.01,2013-02-23 21:32:00,
2013-02-23 16:33:00,43.8,42.5,29.93,NNW,331,2.0,3.0,95,0.00,,---,0.78,VWS V14.01,2013-02-23 21:33:00,
2013-02-23 16:34:00,43.8,42.5,29.93,NNW,331,1.0,2.0,95,0.00,,---,0.78,VWS V14.01,2013-02-23 21:34:00,
2013-02-23 16:36:00,43.8,42.5,29.93,NNE,19,3.0,3.0,95,0.00,,---,0.78,VWS V14.01,2013-02-23 21:36:00,
2013-02-23 16:37:00,43.8,42.7,29.93,NW,325,2.0,3.0,96,0.00,,---,0.78,VWS V14.01,2013-02-23 21:37:00,
2013-02-23 16:38:00,43.8,42.7,29.93,NW,325,1.0,3.0,96,0.00,,---,0.78,VWS V14.01,2013-02-23 21:38:00,
2013-02-23 16:39:00,43.8,42.7,29.93,WNW,283,1.0,1.0,96,0.00,,---,0.78,VWS V14.01,2013-02-23 21:39:00,
2013-02-23 16:40:00,43.8,42.5,29.93,NW,311,2.0,2.0,95,0.00,,---,0.78,VWS V14.01,2013-02-23 21:40:00,
2013-02-23 16:41:00,43.8,42.5,29.93,NW,311,1.0,2.0,95,0.00,,---,0.78,VWS V14.01,2013-02-23 21:41:00,
2013-02-23 16:42:00,43.8,42.5,29.93,NNW,333,1.0,1.0,95,0.00,,---,0.78,VWS V14.01,2013-02-23 21:42:00,
2013-02-23 16:43:00,43.8,42.5,29.93,NNW,333,1.0,1.0,95,0.00,,---,0.78,VWS V14.01,2013-02-23 21:43:00,
2013-02-23 16:44:00,43.8,42.5,29.93,WNW,284,2.0,3.0,95,0.00,,---,0.78,VWS V14.01,2013-02-23 21:44:00,
2013-02-23 16:45:00,43.8,42.5,29.93,NNW,335,3.0,3.0,95,0.00,,---,0.78,VWS V14.01,2013-02-23 21:45:00,
2013-02-23 16:46:00,43.8,42.5,29.93,NE,53,2.0,3.0,95,0.00,,---,0.78,VWS V14.01,2013-02-23 21:46:00,
2013-02-23 16:47:00,43.7,42.4,29.93,WNW,284,1.0,2.0,95,0.00,,---,0.78,VWS V14.01,2013-02-23 21:47:00,
2013-02-23 16:48:00,43.8,42.5,29.93,WNW,285,0.0,2.0,95,0.00,,---,0.78,VWS V14.01,2013-02-23 21:48:00,
2013-02-23 16:49:00,43.7,42.4,29.93,WNW,292,1.0,2.0,95,0.00,,---,0.78,VWS V14.01,2013-02-23 21:49:00,
2013-02-23 16:50:00,43.7,42.4,29.93,NW,319,1.0,2.0,95,0.00,,---,0.78,VWS V14.01,2013-02-23 21:50:00,
2013-02-23 16:51:00,43.7,42.4,29.93,North,360,3.0,3.0,95,0.00,,---,0.78,VWS V14.01,2013-02-23 21:51:00,
2013-02-23 16:52:00,43.7,42.4,29.93,WSW,255,1.0,1.0,95,0.00,,---,0.78,VWS V14.01,2013-02-23 21:52:00,
2013-02-23 16:53:00,43.7,42.4,29.93,West,272,1.0,1.0,95,0.00,,---,0.78,VWS V14.01,2013-02-23 21:53:00,
2013-02-23 16:54:00,43.7,42.4,29.93,NW,309,1.0,2.0,95,0.00,,---,0.78,VWS V14.01,2013-02-23 21:54:00,
2013-02-23 16:55:00,43.7,42.4,29.92,NE,35,1.0,2.0,95,0.00,,---,0.78,VWS V14.01,2013-02-23 21:55:00,
2013-02-23 16:56:00,43.7,42.4,29.92,NNW,329,1.0,2.0,95,0.00,,---,0.78,VWS V14.01,2013-02-23 21:56:00,
2013-02-23 16:57:00,43.7,42.4,29.92,NNE,12,3.0,3.0,95,0.00,,---,0.78,VWS V14.01,2013-02-23 21:57:00,
2013-02-23 16:58:00,43.6,42.3,29.92,NNW,347,3.0,3.0,95,0.00,,---,0.78,VWS V14.01,2013-02-23 21:58:00,
2013-02-23 16:59:00,43.6,42.3,29.92,NNW,335,3.0,3.0,95,0.00,,---,0.78,VWS V14.01,2013-02-23 21:59:00,
2013-02-23 17:00:00,43.6,42.3,29.92,NW,322,3.0,4.0,95,0.00,,---,0.78,VWS V14.01,2013-02-23 22:00:00,
2013-02-23 17:01:00,43.6,42.3,29.92,NNW,331,0.0,3.0,95,0.00,,---,0.78,VWS V14.01,2013-02-23 22:01:00,
2013-02-23 17:02:00,43.6,42.3,29.92,WNW,292,2.0,2.0,95,0.00,,---,0.78,VWS V14.01,2013-02-23 22:02:00,
2013-02-23 17:03:00,43.6,42.3,29.92,West,275,1.0,2.0,95,0.00,,---,0.78,VWS V14.01,2013-02-23 22:03:00,
2013-02-23 17:04:00,43.6,42.3,29.92,NW,311,0.0,2.0,95,0.00,,---,0.78,VWS V14.01,2013-02-23 22:04:00,
2013-02-23 17:05:00,43.6,42.5,29.92,WNW,296,1.0,1.0,96,0.00,,---,0.78,VWS V14.01,2013-02-23 22:05:00,
2013-02-23 17:06:00,43.6,42.5,29.92,NW,317,0.0,2.0,96,0.00,,---,0.78,VWS V14.01,2013-02-23 22:06:00,
2013-02-23 17:07:00,43.6,42.5,29.92,NNW,340,1.0,2.0,96,0.00,,---,0.78,VWS V14.01,2013-02-23 22:07:00,
2013-02-23 17:08:00,43.6,42.5,29.92,WNW,294,2.0,2.0,96,0.00,,---,0.78,VWS V14.01,2013-02-23 22:08:00,
2013-02-23 17:09:00,43.5,42.4,29.92,NW,310,2.0,4.0,96,0.00,,---,0.78,VWS V14.01,2013-02-23 22:09:00,
2013-02-23 17:10:00,43.5,42.4,29.93,NNW,335,1.0,2.0,96,0.00,,---,0.78,VWS V14.01,2013-02-23 22:10:00,
2013-02-23 17:11:00,43.5,42.4,29.93,NNE,24,2.0,4.0,96,0.00,,---,0.78,VWS V14.01,2013-02-23 22:11:00,
2013-02-23 17:12:00,43.5,42.4,29.93,NNW,344,2.0,3.0,96,0.00,,---,0.78,VWS V14.01,2013-02-23 22:12:00,
2013-02-23 17:13:00,43.5,42.4,29.93,NW,322,3.0,3.0,96,0.00,,---,0.78,VWS V14.01,2013-02-23 22:13:00,
2013-02-23 17:14:00,43.5,42.4,29.93,NNW,335,3.0,4.0,96,0.00,,---,0.78,VWS V14.01,2013-02-23 22:14:00,
2013-02-23 17:15:00,43.5,42.2,29.93,NNW,338,4.0,4.0,95,0.00,,---,0.78,VWS V14.01,2013-02-23 22:15:00,
2013-02-23 17:16:00,43.5,42.4,29.93,NE,40,2.0,4.0,96,0.00,,---,0.78,VWS V14.01,2013-02-23 22:16:00,
2013-02-23 17:17:00,43.4,42.3,29.92,North,5,2.0,4.0,96,0.00,,---,0.78,VWS V14.01,2013-02-23 22:17:00,
2013-02-23 17:18:00,43.4,42.3,29.92,NNE,24,2.0,4.0,96,0.00,,---,0.78,VWS V14.01,2013-02-23 22:18:00,
2013-02-23 17:19:00,43.4,42.3,29.92,NNW,336,5.0,5.0,96,0.00,,---,0.78,VWS V14.01,2013-02-23 22:19:00,
2013-02-23 17:20:00,43.4,42.3,29.92,North,360,6.0,6.0,96,0.00,,---,0.78,VWS V14.01,2013-02-23 22:20:00,
2013-02-23 17:21:00,43.3,42.0,29.92,NNE,32,6.0,7.0,95,0.00,,---,0.78,VWS V14.01,2013-02-23 22:21:00,
2013-02-23 17:22:00,43.3,42.2,29.92,North,349,4.0,5.0,96,0.00,,---,0.78,VWS V14.01,2013-02-23 22:22:00,
2013-02-23 17:23:00,43.3,42.2,29.92,NNW,334,3.0,5.0,96,0.00,,---,0.78,VWS V14.01,2013-02-23 22:23:00,
2013-02-23 17:24:00,43.3,42.2,29.92,NW,326,3.0,5.0,96,0.00,,---,0.78,VWS V14.01,2013-02-23 22:24:00,
2013-02-23 17:25:00,43.3,42.2,29.93,NNW,329,3.0,3.0,96,0.00,,---,0.78,VWS V14.01,2013-02-23 22:25:00,
2013-02-23 17:26:00,43.3,42.2,29.93,NNW,348,2.0,3.0,96,0.00,,---,0.78,VWS V14.01,2013-02-23 22:26:00,
2013-02-23 17:27:00,43.3,42.2,29.92,NNE,30,3.0,4.0,96,0.00,,---,0.78,VWS V14.01,2013-02-23 22:27:00,
2013-02-23 17:28:00,43.3,42.2,29.92,NE,42,3.0,4.0,96,0.00,,---,0.78,VWS V14.01,2013-02-23 22:28:00,
2013-02-23 17:29:00,43.3,42.2,29.92,NW,325,2.0,3.0,96,0.00,,---,0.78,VWS V14.01,2013-02-23 22:29:00,
2013-02-23 17:30:00,43.3,42.2,29.92,NW,325,1.0,5.0,96,0.00,,---,0.78,VWS V14.01,2013-02-23 22:30:00,
2013-02-23 17:31:00,43.3,42.2,29.93,NNW,331,3.0,4.0,96,0.00,,---,0.78,VWS V14.01,2013-02-23 22:31:00,
2013-02-23 17:32:00,43.3,42.2,29.93,NNW,335,3.0,6.0,96,0.00,,---,0.78,VWS V14.01,2013-02-23 22:32:00,
2013-02-23 17:33:00,43.2,42.1,29.93,NNE,14,3.0,6.0,96,0.00,,---,0.78,VWS V14.01,2013-02-23 22:33:00,
2013-02-23 17:34:00,43.2,42.1,29.93,North,355,5.0,5.0,96,0.00,,---,0.78,VWS V14.01,2013-02-23 22:34:00,
2013-02-23 17:35:00,43.2,42.1,29.93,North,349,6.0,6.0,96,0.00,,---,0.78,VWS V14.01,2013-02-23 22:35:00,
2013-02-23 17:36:00,43.2,42.1,29.92,NNW,344,3.0,6.0,96,0.00,,---,0.78,VWS V14.01,2013-02-23 22:36:00,
2013-02-23 17:37:00,43.2,42.1,29.92,NE,34,4.0,4.0,96,0.00,,---,0.78,VWS V14.01,2013-02-23 22:37:00,
2013-02-23 17:38:00,43.2,42.1,29.92,NNE,26,3.0,4.0,96,0.00,,---,0.78,VWS V14.01,2013-02-23 22:38:00,
2013-02-23 17:39:00,43.2,42.1,29.92,NNE,30,4.0,4.0,96,0.00,,---,0.78,VWS V14.01,2013-02-23 22:39:00,
2013-02-23 17:40:00,43.2,42.1,29.91,ENE,58,4.0,5.0,96,0.00,,---,0.78,VWS V14.01,2013-02-23 22:40:00,
2013-02-23 17:41:00,43.2,42.1,29.91,NNE,23,5.0,6.0,96,0.00,,---,0.78,VWS V14.01,2013-02-23 22:41:00,
2013-02-23 17:42:00,43.1,42.0,29.91,NE,42,3.0,5.0,96,0.00,,---,0.78,VWS V14.01,2013-02-23 22:42:00,
2013-02-23 17:43:00,43.1,42.0,29.91,NNE,32,4.0,5.0,96,0.00,,---,0.78,VWS V14.01,2013-02-23 22:43:00,
2013-02-23 17:44:00,43.1,42.0,29.91,NNE,13,4.0,5.0,96,0.00,,---,0.78,VWS V14.01,2013-02-23 22:44:00,
2013-02-23 17:45:00,43.1,42.0,29.90,NNE,28,4.0,4.0,96,0.00,,---,0.78,VWS V14.01,2013-02-23 22:45:00,
2013-02-23 17:46:00,43.0,41.9,29.90,NNW,344,5.0,5.0,96,0.00,,---,0.78,VWS V14.01,2013-02-23 22:46:00,
2013-02-23 17:47:00,43.0,41.9,29.91,North,355,2.0,3.0,96,0.00,,---,0.78,VWS V14.01,2013-02-23 22:47:00,
2013-02-23 17:48:00,43.0,41.9,29.91,NE,38,2.0,3.0,96,0.00,,---,0.78,VWS V14.01,2013-02-23 22:48:00,
2013-02-23 17:49:00,43.0,41.9,29.91,NNE,31,5.0,5.0,96,0.00,,---,0.78,VWS V14.01,2013-02-23 22:49:00,
2013-02-23 17:50:00,43.0,41.9,29.92,NNE,32,4.0,6.0,96,0.00,,---,0.78,VWS V14.01,2013-02-23 22:50:00,
2013-02-23 17:51:00,43.0,41.9,29.91,NNE,17,2.0,5.0,96,0.00,,---,0.78,VWS V14.01,2013-02-23 22:51:00,
2013-02-23 17:52:00,43.0,41.9,29.91,NNE,13,4.0,6.0,96,0.00,,---,0.78,VWS V14.01,2013-02-23 22:52:00,
2013-02-23 17:53:00,43.0,41.9,29.91,NNE,27,3.0,6.0,96,0.00,,---,0.78,VWS V14.01,2013-02-23 22:53:00,
2013-02-23 17:54:00,43.0,41.9,29.91,NE,38,2.0,3.0,96,0.00,,---,0.78,VWS V14.01,2013-02-23 22:54:00,
2013-02-23 17:55:00,43.0,41.9,29.90,NNE,26,3.0,4.0,96,0.00,,---,0.78,VWS V14.01,2013-02-23 22:55:00,
2013-02-23 17:56:00,43.0,41.9,29.90,NNE,32,3.0,4.0,96,0.00,,---,0.78,VWS V14.01,2013-02-23 22:56:00,
2013-02-23 17:57:00,43.0,41.9,29.91,NNE,22,4.0,4.0,96,0.00,,---,0.78,VWS V14.01,2013-02-23 22:57:00,
2013-02-23 17:58:00,43.0,41.9,29.91,NNE,26,3.0,4.0,96,0.00,,---,0.78,VWS V14.01,2013-02-23 22:58:00,
2013-02-23 17:59:00,43.0,41.9,29.91,NNW,340,2.0,3.0,96,0.00,,---,0.78,VWS V14.01,2013-02-23 22:59:00,
2013-02-23 18:00:00,43.0,41.9,29.91,North,351,2.0,4.0,96,0.00,,---,0.78,VWS V14.01,2013-02-23 23:00:00,
2013-02-23 18:01:00,43.0,41.9,29.91,NNE,20,3.0,3.0,96,0.00,,---,0.78,VWS V14.01,2013-02-23 23:01:00,
2013-02-23 18:02:00,43.0,41.9,29.91,NNE,26,2.0,2.0,96,0.00,,---,0.78,VWS V14.01,2013-02-23 23:02:00,
2013-02-23 18:03:00,43.0,41.9,29.91,NNW,345,0.0,2.0,96,0.00,,---,0.78,VWS V14.01,2013-02-23 23:03:00,
2013-02-23 18:04:00,43.0,41.9,29.90,NE,49,1.0,2.0,96,0.00,,---,0.78,VWS V14.01,2013-02-23 23:04:00,
2013-02-23 18:05:00,43.1,42.0,29.90,NE,39,3.0,3.0,96,0.00,,---,0.78,VWS V14.01,2013-02-23 23:05:00,
2013-02-23 18:06:00,43.0,41.9,29.90,NE,46,1.0,3.0,96,0.00,,---,0.78,VWS V14.01,2013-02-23 23:06:00,
2013-02-23 18:07:00,43.0,41.9,29.90,NNE,31,0.0,1.0,96,0.00,,---,0.78,VWS V14.01,2013-02-23 23:07:00,
2013-02-23 18:08:00,43.0,41.9,29.90,NNE,31,0.0,1.0,96,0.00,,---,0.78,VWS V14.01,2013-02-23 23:08:00,
2013-02-23 18:09:00,43.0,41.9,29.89,NNE,33,1.0,1.0,96,0.00,,---,0.78,VWS V14.01,2013-02-23 23:09:00,
2013-02-23 18:10:00,43.0,41.9,29.89,NE,42,0.0,1.0,96,0.00,,---,0.78,VWS V14.01,2013-02-23 23:10:00,
2013-02-23 18:11:00,43.0,41.9,29.89,NE,42,0.0,0.0,96,0.00,,---,0.78,VWS V14.01,2013-02-23 23:11:00,
2013-02-23 18:12:00,43.0,41.9,29.90,NE,38,1.0,1.0,96,0.00,,---,0.78,VWS V14.01,2013-02-23 23:12:00,
2013-02-23 18:13:00,43.0,41.9,29.90,NNW,335,1.0,1.0,96,0.00,,---,0.78,VWS V14.01,2013-02-23 23:13:00,
2013-02-23 18:14:00,43.0,41.9,29.90,NNW,329,2.0,2.0,96,0.00,,---,0.78,VWS V14.01,2013-02-23 23:14:00,
2013-02-23 18:15:00,43.0,41.9,29.90,NW,314,1.0,2.0,96,0.00,,---,0.78,VWS V14.01,2013-02-23 23:15:00,
2013-02-23 18:16:00,43.0,41.9,29.90,North,5,2.0,2.0,96,0.00,,---,0.78,VWS V14.01,2013-02-23 23:16:00,
2013-02-23 18:17:00,43.0,41.9,29.90,NNE,17,2.0,3.0,96,0.00,,---,0.78,VWS V14.01,2013-02-23 23:17:00,
2013-02-23 18:18:00,43.0,41.9,29.90,NNE,14,4.0,4.0,96,0.00,,---,0.78,VWS V14.01,2013-02-23 23:18:00,
2013-02-23 18:19:00,43.0,41.9,29.90,NNE,22,3.0,4.0,96,0.00,,---,0.78,VWS V14.01,2013-02-23 23:19:00,
2013-02-23 18:20:00,43.0,41.9,29.90,NE,35,3.0,4.0,96,0.00,,---,0.78,VWS V14.01,2013-02-23 23:20:00,
2013-02-23 18:21:00,43.0,41.9,29.90,NNE,19,2.0,3.0,96,0.00,,---,0.78,VWS V14.01,2013-02-23 23:21:00,
2013-02-23 18:22:00,43.0,41.9,29.89,North,355,3.0,3.0,96,0.00,,---,0.78,VWS V14.01,2013-02-23 23:22:00,
2013-02-23 18:23:00,43.0,41.9,29.89,North,351,2.0,3.0,96,0.00,,---,0.78,VWS V14.01,2013-02-23 23:23:00,
2013-02-23 18:24:00,43.0,41.9,29.89,North,351,0.0,2.0,96,0.00,,---,0.78,VWS V14.01,2013-02-23 23:24:00,
2013-02-23 18:25:00,43.1,42.0,29.89,North,355,0.0,0.0,96,0.00,,---,0.78,VWS V14.01,2013-02-23 23:25:00,
2013-02-23 18:26:00,43.0,41.9,29.88,NE,36,1.0,1.0,96,0.00,,---,0.78,VWS V14.01,2013-02-23 23:26:00,
2013-02-23 18:27:00,43.0,41.9,29.88,ENE,69,2.0,3.0,96,0.00,,---,0.78,VWS V14.01,2013-02-23 23:27:00,
2013-02-23 18:28:00,43.0,41.9,29.88,ENE,67,1.0,3.0,96,0.00,,---,0.78,VWS V14.01,2013-02-23 23:28:00,
2013-02-23 18:29:00,43.0,41.9,29.88,ENE,67,1.0,2.0,96,0.00,,---,0.78,VWS V14.01,2013-02-23 23:29:00,
2013-02-23 18:30:00,43.0,41.9,29.88,ENE,67,0.0,1.0,96,0.00,,---,0.78,VWS V14.01,2013-02-23 23:30:00,
2013-02-23 18:31:00,43.0,41.9,29.88,ENE,67,0.0,0.0,96,0.00,,---,0.78,VWS V14.01,2013-02-23 23:31:00,
2013-02-23 18:32:00,43.0,41.9,29.88,ENE,68,0.0,0.0,96,0.00,,---,0.78,VWS V14.01,2013-02-23 23:32:00,
2013-02-23 18:33:00,43.0,41.9,29.88,ENE,67,0.0,0.0,96,0.00,,---,0.78,VWS V14.01,2013-02-23 23:33:00,
2013-02-23 18:34:00,43.0,41.9,29.89,ENE,67,0.0,0.0,96,0.00,,---,0.78,VWS V14.01,2013-02-23 23:34:00,
2013-02-23 18:35:00,43.0,41.9,29.89,ENE,67,0.0,0.0,96,0.00,,---,0.78,VWS V14.01,2013-02-23 23:35:00,
2013-02-23 18:36:00,43.0,41.9,29.89,ENE,67,0.0,0.0,96,0.00,,---,0.78,VWS V14.01,2013-02-23 23:36:00,
2013-02-23 18:37:00,43.0,41.9,29.90,NNE,32,0.0,0.0,96,0.00,,---,0.78,VWS V14.01,2013-02-23 23:37:00,
2013-02-23 18:38:00,43.0,41.9,29.90,NNE,32,0.0,0.0,96,0.00,,---,0.78,VWS V14.01,2013-02-23 23:38:00,
2013-02-23 18:39:00,43.0,41.9,29.90,NNE,32,0.0,0.0,96,0.00,,---,0.78,VWS V14.01,2013-02-23 23:39:00,
2013-02-23 18:40:00,43.0,41.9,29.90,NNE,32,0.0,0.0,96,0.00,,---,0.78,VWS V14.01,2013-02-23 23:40:00,
2013-02-23 18:41:00,43.0,41.9,29.90,NNE,32,0.0,0.0,96,0.00,,---,0.78,VWS V14.01,2013-02-23 23:41:00,
2013-02-23 18:42:00,43.0,41.9,29.90,NNE,32,0.0,0.0,96,0.00,,---,0.78,VWS V14.01,2013-02-23 23:42:00,
2013-02-23 18:43:00,43.0,41.9,29.90,NNE,32,0.0,0.0,96,0.00,,---,0.78,VWS V14.01,2013-02-23 23:43:00,
2013-02-23 18:44:00,43.0,41.9,29.90,NNE,32,0.0,1.0,96,0.00,,---,0.78,VWS V14.01,2013-02-23 23:44:00,
2013-02-23 18:45:00,43.0,41.9,29.89,NNE,32,0.0,0.0,96,0.00,,---,0.78,VWS V14.01,2013-02-23 23:45:00,
2013-02-23 18:46:00,43.0,41.9,29.89,NNE,32,0.0,0.0,96,0.00,,---,0.78,VWS V14.01,2013-02-23 23:46:00,
2013-02-23 18:47:00,43.0,41.9,29.90,NNE,32,0.0,0.0,96,0.00,,---,0.78,VWS V14.01,2013-02-23 23:47:00,
2013-02-23 18:48:00,43.0,41.9,29.90,NNE,32,0.0,0.0,96,0.00,,---,0.78,VWS V14.01,2013-02-23 23:48:00,
2013-02-23 18:49:00,43.0,41.9,29.90,NNE,24,0.0,1.0,96,0.00,,---,0.78,VWS V14.01,2013-02-23 23:49:00,
2013-02-23 18:50:00,43.0,41.9,29.90,NNE,24,0.0,0.0,96,0.00,,---,0.78,VWS V14.01,2013-02-23 23:50:00,
2013-02-23 18:51:00,43.0,41.9,29.90,NNE,24,0.0,0.0,96,0.00,,---,0.78,VWS V14.01,2013-02-23 23:51:00,
2013-02-23 18:52:00,43.0,41.9,29.89,NNE,24,0.0,0.0,96,0.00,,---,0.78,VWS V14.01,2013-02-23 23:52:00,
2013-02-23 18:53:00,43.0,41.9,29.89,NNE,24,0.0,0.0,96,0.00,,---,0.78,VWS V14.01,2013-02-23 23:53:00,
2013-02-23 18:54:00,43.0,41.9,29.89,NNE,24,0.0,0.0,96,0.00,,---,0.78,VWS V14.01,2013-02-23 23:54:00,
2013-02-23 18:55:00,43.0,41.9,29.89,NNE,24,0.0,0.0,96,0.00,,---,0.78,VWS V14.01,2013-02-23 23:55:00,
2013-02-23 18:56:00,43.0,41.9,29.89,NNE,24,0.0,0.0,96,0.00,,---,0.78,VWS V14.01,2013-02-23 23:56:00,
2013-02-23 18:57:00,43.0,41.9,29.88,NNE,24,0.0,0.0,96,0.00,,---,0.78,VWS V14.01,2013-02-23 23:57:00,
2013-02-23 18:58:00,43.0,41.9,29.88,NNE,24,0.0,0.0,96,0.00,,---,0.78,VWS V14.01,2013-02-23 23:58:00,
2013-02-23 18:59:00,43.0,41.9,29.88,NNE,24,0.0,0.0,96,0.00,,---,0.78,VWS V14.01,2013-02-23 23:59:00,
2013-02-23 19:00:00,43.0,41.9,29.88,NNE,24,0.0,0.0,96,0.00,,---,0.78,VWS V14.01,2013-02-24 00:00:00,
2013-02-23 19:01:00,43.0,41.9,29.88,NNE,24,0.0,0.0,96,0.00,,---,0.78,VWS V14.01,2013-02-24 00:01:00,
2013-02-23 19:02:00,42.9,41.8,29.89,NNE,14,2.0,3.0,96,0.00,,---,0.78,VWS V14.01,2013-02-24 00:02:00,
2013-02-23 19:03:00,43.0,41.9,29.89,NNE,13,2.0,3.0,96,0.00,,---,0.78,VWS V14.01,2013-02-24 00:03:00,
2013-02-23 19:04:00,43.0,41.9,29.89,North,11,2.0,2.0,96,0.00,,---,0.78,VWS V14.01,2013-02-24 00:04:00,
2013-02-23 19:05:00,43.0,41.9,29.89,North,11,2.0,2.0,96,0.00,,---,0.78,VWS V14.01,2013-02-24 00:05:00,
2013-02-23 19:06:00,43.0,41.9,29.89,North,11,1.0,2.0,96,0.00,,---,0.78,VWS V14.01,2013-02-24 00:06:00,
2013-02-23 19:07:00,43.0,41.9,29.89,North,350,2.0,2.0,96,0.00,,---,0.78,VWS V14.01,2013-02-24 00:07:00,
2013-02-23 19:08:00,43.0,41.9,29.89,NNW,333,1.0,2.0,96,0.00,,---,0.78,VWS V14.01,2013-02-24 00:08:00,
2013-02-23 19:09:00,43.0,41.9,29.89,NNW,333,1.0,1.0,96,0.00,,---,0.78,VWS V14.01,2013-02-24 00:09:00,
2013-02-23 19:10:00,43.0,41.9,29.89,NNW,333,1.0,1.0,96,0.00,,---,0.78,VWS V14.01,2013-02-24 00:10:00,
2013-02-23 19:11:00,43.0,41.9,29.90,NNW,333,1.0,1.0,96,0.00,,---,0.78,VWS V14.01,2013-02-24 00:11:00,
2013-02-23 19:12:00,43.0,41.9,29.89,NNW,333,0.0,0.0,96,0.00,,---,0.78,VWS V14.01,2013-02-24 00:12:00,
2013-02-23 19:13:00,43.0,41.9,29.89,NNW,332,0.0,0.0,96,0.00,,---,0.78,VWS V14.01,2013-02-24 00:13:00,
2013-02-23 19:14:00,43.0,41.9,29.89,NNW,333,0.0,0.0,96,0.00,,---,0.78,VWS V14.01,2013-02-24 00:14:00,
2013-02-23 19:15:00,43.1,42.0,29.89,NNW,333,0.0,0.0,96,0.00,,---,0.78,VWS V14.01,2013-02-24 00:15:00,
2013-02-23 19:16:00,43.1,42.0,29.89,NNW,333,0.0,0.0,96,0.00,,---,0.78,VWS V14.01,2013-02-24 00:16:00,
2013-02-23 19:17:00,43.1,42.0,29.89,NNW,332,0.0,0.0,96,0.00,,---,0.78,VWS V14.01,2013-02-24 00:17:00,
2013-02-23 19:18:00,43.1,42.0,29.89,NNW,333,1.0,1.0,96,0.00,,---,0.78,VWS V14.01,2013-02-24 00:18:00,
2013-02-23 19:19:00,43.1,42.0,29.89,WNW,290,0.0,1.0,96,0.00,,---,0.78,VWS V14.01,2013-02-24 00:19:00,
2013-02-23 19:20:00,43.1,42.0,29.88,WNW,290,0.0,0.0,96,0.00,,---,0.78,VWS V14.01,2013-02-24 00:20:00,
2013-02-23 19:21:00,43.1,42.0,29.89,WNW,290,0.0,0.0,96,0.00,,---,0.78,VWS V14.01,2013-02-24 00:21:00,
2013-02-23 19:22:00,43.1,42.0,29.89,WNW,290,0.0,0.0,96,0.00,,---,0.78,VWS V14.01,2013-02-24 00:22:00,
2013-02-23 19:23:00,43.1,42.0,29.89,WNW,290,0.0,1.0,96,0.00,,---,0.78,VWS V14.01,2013-02-24 00:23:00,
2013-02-23 19:24:00,43.1,42.0,29.90,WNW,289,0.0,0.0,96,0.00,,---,0.78,VWS V14.01,2013-02-24 00:24:00,
2013-02-23 19:25:00,43.1,42.0,29.90,WNW,290,0.0,0.0,96,0.00,,---,0.78,VWS V14.01,2013-02-24 00:25:00,
2013-02-23 19:26:00,43.1,42.0,29.89,WNW,289,0.0,0.0,96,0.00,,---,0.78,VWS V14.01,2013-02-24 00:26:00,
2013-02-23 19:27:00,43.1,42.0,29.89,WNW,290,0.0,0.0,96,0.00,,---,0.78,VWS V14.01,2013-02-24 00:27:00,
2013-02-23 19:28:00,43.1,42.0,29.89,WNW,290,1.0,1.0,96,0.00,,---,0.78,VWS V14.01,2013-02-24 00:28:00,
2013-02-23 19:29:00,43.1,42.0,29.90,WNW,290,0.0,1.0,96,0.00,,---,0.78,VWS V14.01,2013-02-24 00:29:00,
2013-02-23 19:30:00,43.1,42.0,29.90,WNW,290,0.0,0.0,96,0.00,,---,0.78,VWS V14.01,2013-02-24 00:30:00,
2013-02-23 19:31:00,43.2,42.1,29.89,WNW,290,0.0,0.0,96,0.00,,---,0.78,VWS V14.01,2013-02-24 00:31:00,
2013-02-23 19:32:00,43.2,42.1,29.89,WNW,290,0.0,0.0,96,0.00,,---,0.78,VWS V14.01,2013-02-24 00:32:00,
2013-02-23 19:33:00,43.1,42.0,29.89,WNW,289,0.0,0.0,96,0.00,,---,0.78,VWS V14.01,2013-02-24 00:33:00,
2013-02-23 19:34:00,43.2,42.1,29.89,WNW,290,0.0,0.0,96,0.00,,---,0.78,VWS V14.01,2013-02-24 00:34:00,
2013-02-23 19:35:00,43.2,42.1,29.89,WNW,290,0.0,0.0,96,0.00,,---,0.78,VWS V14.01,2013-02-24 00:35:00,
2013-02-23 19:36:00,43.2,42.1,29.89,WNW,290,1.0,1.0,96,0.00,,---,0.78,VWS V14.01,2013-02-24 00:36:00,
2013-02-23 19:37:00,43.2,42.1,29.90,NW,304,0.0,1.0,96,0.00,,---,0.78,VWS V14.01,2013-02-24 00:37:00,
2013-02-23 19:38:00,43.2,42.1,29.90,NW,304,1.0,1.0,96,0.00,,---,0.78,VWS V14.01,2013-02-24 00:38:00,
2013-02-23 19:39:00,43.2,42.1,29.90,WNW,290,1.0,2.0,96,0.00,,---,0.78,VWS V14.01,2013-02-24 00:39:00,
2013-02-23 19:40:00,43.2,42.1,29.90,NNE,29,0.0,2.0,96,0.00,,---,0.78,VWS V14.01,2013-02-24 00:40:00,
2013-02-23 19:41:00,43.2,42.1,29.89,NNE,29,1.0,1.0,96,0.00,,---,0.78,VWS V14.01,2013-02-24 00:41:00,
2013-02-23 19:42:00,43.2,42.1,29.90,NNE,29,0.0,0.0,96,0.00,,---,0.78,VWS V14.01,2013-02-24 00:42:00,
2013-02-23 19:43:00,43.2,42.1,29.90,NW,316,2.0,2.0,96,0.00,,---,0.78,VWS V14.01,2013-02-24 00:43:00,
2013-02-23 19:44:00,43.2,42.1,29.90,WNW,298,1.0,2.0,96,0.00,,---,0.78,VWS V14.01,2013-02-24 00:44:00,
2013-02-23 19:45:00,43.2,42.1,29.91,WNW,298,0.0,2.0,96,0.00,,---,0.78,VWS V14.01,2013-02-24 00:45:00,
2013-02-23 19:46:00,43.2,42.1,29.90,NW,322,0.0,2.0,96,0.00,,---,0.78,VWS V14.01,2013-02-24 00:46:00,
2013-02-23 19:47:00,43.2,42.1,29.90,NW,322,0.0,1.0,96,0.00,,---,0.78,VWS V14.01,2013-02-24 00:47:00,
2013-02-23 19:48:00,43.2,42.1,29.90,NW,321,0.0,1.0,96,0.00,,---,0.78,VWS V14.01,2013-02-24 00:48:00,
2013-02-23 19:49:00,43.2,42.1,29.90,NW,322,0.0,1.0,96,0.00,,---,0.78,VWS V14.01,2013-02-24 00:49:00,
2013-02-23 19:50:00,43.2,42.1,29.90,NW,314,0.0,0.0,96,0.00,,---,0.78,VWS V14.01,2013-02-24 00:50:00,
2013-02-23 19:51:00,43.2,42.1,29.90,WNW,303,0.0,1.0,96,0.00,,---,0.78,VWS V14.01,2013-02-24 00:51:00,
2013-02-23 19:52:00,43.2,42.1,29.91,NW,306,1.0,1.0,96,0.00,,---,0.78,VWS V14.01,2013-02-24 00:52:00,
2013-02-23 19:53:00,43.2,42.1,29.91,NW,314,0.0,1.0,96,0.00,,---,0.78,VWS V14.01,2013-02-24 00:53:00,
2013-02-23 19:54:00,43.2,42.1,29.91,NW,314,1.0,1.0,96,0.00,,---,0.78,VWS V14.01,2013-02-24 00:54:00,
2013-02-23 19:55:00,43.2,42.1,29.91,NW,314,0.0,1.0,96,0.00,,---,0.78,VWS V14.01,2013-02-24 00:55:00,
2013-02-23 19:56:00,43.2,42.1,29.91,NW,314,0.0,0.0,96,0.00,,---,0.78,VWS V14.01,2013-02-24 00:56:00,
2013-02-23 19:57:00,43.2,42.1,29.91,NW,314,0.0,0.0,96,0.00,,---,0.78,VWS V14.01,2013-02-24 00:57:00,
2013-02-23 19:58:00,43.2,42.1,29.91,NW,314,0.0,0.0,96,0.00,,---,0.78,VWS V14.01,2013-02-24 00:58:00,
2013-02-23 19:59:00,43.2,42.1,29.91,NW,314,0.0,0.0,96,0.00,,---,0.78,VWS V14.01,2013-02-24 00:59:00,
2013-02-23 20:00:00,43.2,42.1,29.91,NW,314,0.0,0.0,96,0.00,,---,0.78,VWS V14.01,2013-02-24 01:00:00,
2013-02-23 20:01:00,43.2,42.1,29.91,NW,314,0.0,1.0,96,0.00,,---,0.78,VWS V14.01,2013-02-24 01:01:00,
2013-02-23 20:02:00,43.2,42.1,29.91,NW,313,0.0,0.0,96,0.00,,---,0.78,VWS V14.01,2013-02-24 01:02:00,
2013-02-23 20:03:00,43.2,42.1,29.91,NW,313,0.0,0.0,96,0.00,,---,0.78,VWS V14.01,2013-02-24 01:03:00,
2013-02-23 20:04:00,43.2,42.1,29.90,West,280,0.0,1.0,96,0.00,,---,0.78,VWS V14.01,2013-02-24 01:04:00,
2013-02-23 20:05:00,43.2,42.1,29.91,West,277,2.0,2.0,96,0.00,,---,0.78,VWS V14.01,2013-02-24 01:05:00,
2013-02-23 20:06:00,43.2,42.1,29.91,West,277,1.0,2.0,96,0.00,,---,0.78,VWS V14.01,2013-02-24 01:06:00,
2013-02-23 20:07:00,43.2,42.1,29.91,West,277,0.0,0.0,96,0.00,,---,0.78,VWS V14.01,2013-02-24 01:07:00,
2013-02-23 20:08:00,43.2,42.1,29.91,West,275,0.0,0.0,96,0.00,,---,0.78,VWS V14.01,2013-02-24 01:08:00,
2013-02-23 20:09:00,43.2,42.1,29.91,West,275,0.0,0.0,96,0.00,,---,0.78,VWS V14.01,2013-02-24 01:09:00,
2013-02-23 20:10:00,43.2,42.1,29.91,West,275,0.0,0.0,96,0.00,,---,0.78,VWS V14.01,2013-02-24 01:10:00,
2013-02-23 20:11:00,43.2,42.1,29.91,West,275,1.0,1.0,96,0.00,,---,0.78,VWS V14.01,2013-02-24 01:11:00,
2013-02-23 20:12:00,43.2,42.1,29.91,West,281,1.0,1.0,96,0.00,,---,0.78,VWS V14.01,2013-02-24 01:12:00,
2013-02-23 20:13:00,43.2,42.1,29.91,West,281,0.0,1.0,96,0.00,,---,0.78,VWS V14.01,2013-02-24 01:13:00,
2013-02-23 20:14:00,43.3,42.2,29.91,WSW,239,0.0,0.0,96,0.00,,---,0.78,VWS V14.01,2013-02-24 01:14:00,
2013-02-23 20:15:00,43.3,42.2,29.91,West,275,0.0,0.0,96,0.00,,---,0.78,VWS V14.01,2013-02-24 01:15:00,
2013-02-23 20:16:00,43.3,42.2,29.91,West,275,0.0,0.0,96,0.00,,---,0.78,VWS V14.01,2013-02-24 01:16:00,
2013-02-23 20:17:00,43.3,42.2,29.92,West,275,0.0,0.0,96,0.00,,---,0.78,VWS V14.01,2013-02-24 01:17:00,
2013-02-23 20:18:00,43.3,42.2,29.92,WSW,237,1.0,1.0,96,0.00,,---,0.78,VWS V14.01,2013-02-24 01:18:00,
2013-02-23 20:19:00,43.3,42.2,29.91,SW,236,0.0,2.0,96,0.00,,---,0.78,VWS V14.01,2013-02-24 01:19:00,
2013-02-23 20:20:00,43.3,42.2,29.92,SW,236,1.0,1.0,96,0.00,,---,0.78,VWS V14.01,2013-02-24 01:20:00,
2013-02-23 20:21:00,43.3,42.2,29.92,West,264,2.0,2.0,96,0.00,,---,0.78,VWS V14.01,2013-02-24 01:21:00,
2013-02-23 20:22:00,43.3,42.2,29.92,West,277,4.0,4.0,96,0.00,,---,0.78,VWS V14.01,2013-02-24 01:22:00,
2013-02-23 20:23:00,43.3,42.2,29.92,West,268,2.0,4.0,96,0.00,,---,0.78,VWS V14.01,2013-02-24 01:23:00,
2013-02-23 20:24:00,43.3,42.2,29.92,West,261,1.0,2.0,96,0.00,,---,0.78,VWS V14.01,2013-02-24 01:24:00,
2013-02-23 20:25:00,43.3,42.2,29.92,West,272,3.0,3.0,96,0.00,,---,0.78,VWS V14.01,2013-02-24 01:25:00,
2013-02-23 20:26:00,43.3,42.2,29.92,WSW,241,1.0,3.0,96,0.00,,---,0.78,VWS V14.01,2013-02-24 01:26:00,
2013-02-23 20:27:00,43.3,42.2,29.92,WSW,246,0.0,0.0,96,0.00,,---,0.78,VWS V14.01,2013-02-24 01:27:00,
2013-02-23 20:28:00,43.3,42.2,29.92,WSW,246,1.0,1.0,96,0.00,,---,0.78,VWS V14.01,2013-02-24 01:28:00,
2013-02-23 20:29:00,43.3,42.2,29.92,WNW,283,3.0,3.0,96,0.00,,---,0.78,VWS V14.01,2013-02-24 01:29:00,
2013-02-23 20:30:00,43.3,42.2,29.92,West,273,2.0,3.0,96,0.00,,---,0.78,VWS V14.01,2013-02-24 01:30:00,
2013-02-23 20:31:00,43.3,42.2,29.92,WSW,252,2.0,3.0,96,0.00,,---,0.78,VWS V14.01,2013-02-24 01:31:00,
2013-02-23 20:32:00,43.3,42.2,29.92,WSW,250,0.0,0.0,96,0.00,,---,0.78,VWS V14.01,2013-02-24 01:32:00,
2013-02-23 20:33:00,43.3,42.2,29.92,WSW,244,1.0,1.0,96,0.00,,---,0.78,VWS V14.01,2013-02-24 01:33:00,
2013-02-23 20:34:00,43.3,42.2,29.92,West,269,1.0,1.0,96,0.00,,---,0.78,VWS V14.01,2013-02-24 01:34:00,
2013-02-23 20:35:00,43.3,42.2,29.92,West,279,3.0,3.0,96,0.00,,---,0.78,VWS V14.01,2013-02-24 01:35:00,
2013-02-23 20:36:00,43.3,42.2,29.92,West,273,2.0,3.0,96,0.00,,---,0.78,VWS V14.01,2013-02-24 01:36:00,
2013-02-23 20:37:00,43.3,42.2,29.92,SW,226,1.0,1.0,96,0.00,,---,0.78,VWS V14.01,2013-02-24 01:37:00,
2013-02-23 20:38:00,43.3,42.2,29.92,SW,236,2.0,2.0,96,0.00,,---,0.78,VWS V14.01,2013-02-24 01:38:00,
2013-02-23 20:39:00,43.3,42.2,29.92,SW,229,0.0,2.0,96,0.00,,---,0.78,VWS V14.01,2013-02-24 01:39:00,
2013-02-23 20:40:00,43.3,42.2,29.91,WSW,249,1.0,1.0,96,0.00,,---,0.78,VWS V14.01,2013-02-24 01:40:00,
2013-02-23 20:41:00,43.3,42.2,29.91,SW,225,0.0,1.0,96,0.00,,---,0.78,VWS V14.01,2013-02-24 01:41:00,
2013-02-23 20:42:00,43.3,42.2,29.92,SW,230,0.0,0.0,96,0.00,,---,0.78,VWS V14.01,2013-02-24 01:42:00,
2013-02-23 20:43:00,43.3,42.2,29.92,SW,230,0.0,0.0,96,0.00,,---,0.78,VWS V14.01,2013-02-24 01:43:00,
2013-02-23 20:44:00,43.3,42.2,29.92,West,263,0.0,1.0,96,0.00,,---,0.78,VWS V14.01,2013-02-24 01:44:00,
2013-02-23 20:45:00,43.3,42.2,29.92,West,263,0.0,0.0,96,0.00,,---,0.78,VWS V14.01,2013-02-24 01:45:00,
2013-02-23 20:46:00,43.3,42.2,29.92,West,263,0.0,0.0,96,0.00,,---,0.78,VWS V14.01,2013-02-24 01:46:00,
2013-02-23 20:47:00,43.3,42.2,29.92,West,263,0.0,0.0,96,0.00,,---,0.78,VWS V14.01,2013-02-24 01:47:00,
2013-02-23 20:48:00,43.3,42.2,29.92,West,263,0.0,1.0,96,0.00,,---,0.78,VWS V14.01,2013-02-24 01:48:00,
2013-02-23 20:49:00,43.3,42.2,29.92,West,262,0.0,0.0,96,0.00,,---,0.78,VWS V14.01,2013-02-24 01:49:00,
2013-02-23 20:50:00,43.3,42.2,29.92,West,263,0.0,0.0,96,0.00,,---,0.78,VWS V14.01,2013-02-24 01:50:00,
2013-02-23 20:51:00,43.3,42.2,29.92,West,263,0.0,0.0,96,0.00,,---,0.78,VWS V14.01,2013-02-24 01:51:00,
2013-02-23 20:52:00,43.3,42.2,29.91,WSW,246,0.0,0.0,96,0.00,,---,0.78,VWS V14.01,2013-02-24 01:52:00,
2013-02-23 20:53:00,43.3,42.2,29.91,WSW,246,0.0,0.0,96,0.00,,---,0.78,VWS V14.01,2013-02-24 01:53:00,
2013-02-23 20:54:00,43.3,42.2,29.92,WSW,246,0.0,0.0,96,0.00,,---,0.78,VWS V14.01,2013-02-24 01:54:00,
2013-02-23 20:55:00,43.3,42.2,29.92,WSW,246,0.0,1.0,96,0.00,,---,0.78,VWS V14.01,2013-02-24 01:55:00,
2013-02-23 20:56:00,43.3,42.2,29.92,WSW,257,1.0,1.0,96,0.00,,---,0.78,VWS V14.01,2013-02-24 01:56:00,
2013-02-23 20:57:00,43.3,42.2,29.92,WSW,257,1.0,1.0,96,0.00,,---,0.78,VWS V14.01,2013-02-24 01:57:00,
2013-02-23 20:58:00,43.3,42.2,29.92,WSW,257,0.0,1.0,96,0.00,,---,0.78,VWS V14.01,2013-02-24 01:58:00,
2013-02-23 20:59:00,43.3,42.2,29.92,WSW,257,1.0,1.0,96,0.00,,---,0.78,VWS V14.01,2013-02-24 01:59:00,
2013-02-23 21:00:00,43.3,42.2,29.92,West,268,1.0,2.0,96,0.00,,---,0.78,VWS V14.01,2013-02-24 02:00:00,
2013-02-23 21:01:00,43.3,42.2,29.92,West,268,0.0,1.0,96,0.00,,---,0.78,VWS V14.01,2013-02-24 02:01:00,
2013-02-23 21:02:00,43.3,42.2,29.91,West,268,0.0,0.0,96,0.00,,---,0.78,VWS V14.01,2013-02-24 02:02:00,
2013-02-23 21:03:00,43.3,42.2,29.91,West,268,1.0,1.0,96,0.00,,---,0.78,VWS V14.01,2013-02-24 02:03:00,
2013-02-23 21:04:00,43.3,42.2,29.92,West,269,1.0,1.0,96,0.00,,---,0.78,VWS V14.01,2013-02-24 02:04:00,
2013-02-23 21:05:00,43.3,42.2,29.92,West,269,0.0,1.0,96,0.00,,---,0.78,VWS V14.01,2013-02-24 02:05:00,
2013-02-23 21:06:00,43.3,42.2,29.91,West,269,0.0,0.0,96,0.00,,---,0.78,VWS V14.01,2013-02-24 02:06:00,
2013-02-23 21:07:00,43.3,42.2,29.92,West,269,0.0,0.0,96,0.00,,---,0.78,VWS V14.01,2013-02-24 02:07:00,
2013-02-23 21:08:00,43.3,42.2,29.92,WSW,256,0.0,1.0,96,0.00,,---,0.78,VWS V14.01,2013-02-24 02:08:00,
2013-02-23 21:09:00,43.3,42.2,29.92,WSW,256,0.0,0.0,96,0.00,,---,0.78,VWS V14.01,2013-02-24 02:09:00,
2013-02-23 21:10:00,43.3,42.2,29.92,WSW,255,0.0,0.0,96,0.00,,---,0.78,VWS V14.01,2013-02-24 02:10:00,
2013-02-23 21:11:00,43.3,42.2,29.92,WSW,256,0.0,0.0,96,0.00,,---,0.78,VWS V14.01,2013-02-24 02:11:00,
2013-02-23 21:12:00,43.3,42.2,29.92,WSW,256,0.0,0.0,96,0.00,,---,0.78,VWS V14.01,2013-02-24 02:12:00,
2013-02-23 21:13:00,43.3,42.2,29.92,WSW,256,0.0,0.0,96,0.00,,---,0.78,VWS V14.01,2013-02-24 02:13:00,
2013-02-23 21:14:00,43.3,42.2,29.92,WSW,254,0.0,1.0,96,0.00,,---,0.78,VWS V14.01,2013-02-24 02:14:00,
2013-02-23 21:15:00,43.3,42.2,29.92,WSW,240,1.0,1.0,96,0.00,,---,0.78,VWS V14.01,2013-02-24 02:15:00,
2013-02-23 21:16:00,43.3,42.2,29.92,WSW,246,1.0,1.0,96,0.00,,---,0.78,VWS V14.01,2013-02-24 02:16:00,
2013-02-23 21:17:00,43.3,42.2,29.93,SW,214,1.0,1.0,96,0.00,,---,0.78,VWS V14.01,2013-02-24 02:17:00,
2013-02-23 21:18:00,43.3,42.2,29.93,WSW,246,0.0,2.0,96,0.00,,---,0.78,VWS V14.01,2013-02-24 02:18:00,
2013-02-23 21:19:00,43.4,42.3,29.93,WSW,245,2.0,2.0,96,0.00,,---,0.78,VWS V14.01,2013-02-24 02:19:00,
2013-02-23 21:20:00,43.4,42.3,29.93,SW,233,1.0,2.0,96,0.00,,---,0.78,VWS V14.01,2013-02-24 02:20:00,
2013-02-23 21:21:00,43.4,42.3,29.93,WSW,244,1.0,2.0,96,0.00,,---,0.78,VWS V14.01,2013-02-24 02:21:00,
2013-02-23 21:22:00,43.4,42.3,29.93,SW,218,1.0,2.0,96,0.00,,---,0.78,VWS V14.01,2013-02-24 02:22:00,
2013-02-23 21:23:00,43.4,42.3,29.93,SW,236,1.0,2.0,96,0.00,,---,0.78,VWS V14.01,2013-02-24 02:23:00,
2013-02-23 21:24:00,43.3,42.2,29.93,SW,227,1.0,2.0,96,0.00,,---,0.78,VWS V14.01,2013-02-24 02:24:00,
2013-02-23 21:25:00,43.4,42.3,29.93,SSE,150,1.0,2.0,96,0.00,,---,0.78,VWS V14.01,2013-02-24 02:25:00,
2013-02-23 21:26:00,43.4,42.3,29.93,South,181,1.0,3.0,96,0.00,,---,0.78,VWS V14.01,2013-02-24 02:26:00,
2013-02-23 21:27:00,43.4,42.3,29.92,SSW,205,1.0,2.0,96,0.00,,---,0.78,VWS V14.01,2013-02-24 02:27:00,
2013-02-23 21:28:00,43.4,42.3,29.92,SW,217,2.0,2.0,96,0.00,,---,0.78,VWS V14.01,2013-02-24 02:28:00,
2013-02-23 21:29:00,43.4,42.3,29.93,WSW,250,1.0,2.0,96,0.00,,---,0.78,VWS V14.01,2013-02-24 02:29:00,
2013-02-23 21:30:00,43.4,42.3,29.93,WSW,242,1.0,2.0,96,0.00,,---,0.78,VWS V14.01,2013-02-24 02:30:00,
2013-02-23 21:31:00,43.4,42.3,29.93,SW,225,0.0,3.0,96,0.00,,---,0.78,VWS V14.01,2013-02-24 02:31:00,
2013-02-23 21:32:00,43.3,42.2,29.92,SW,227,0.0,0.0,96,0.00,,---,0.78,VWS V14.01,2013-02-24 02:32:00,
2013-02-23 21:33:00,43.3,42.2,29.92,SW,227,0.0,1.0,96,0.00,,---,0.78,VWS V14.01,2013-02-24 02:33:00,
2013-02-23 21:34:00,43.3,42.2,29.93,SW,227,0.0,1.0,96,0.00,,---,0.78,VWS V14.01,2013-02-24 02:34:00,
2013-02-23 21:35:00,43.3,42.2,29.92,SW,227,0.0,0.0,96,0.00,,---,0.78,VWS V14.01,2013-02-24 02:35:00,
2013-02-23 21:36:00,43.3,42.2,29.93,SW,236,1.0,1.0,96,0.00,,---,0.78,VWS V14.01,2013-02-24 02:36:00,
2013-02-23 21:37:00,43.3,42.2,29.92,WSW,244,2.0,2.0,96,0.00,,---,0.78,VWS V14.01,2013-02-24 02:37:00,
2013-02-23 21:38:00,43.3,42.2,29.92,SW,236,1.0,2.0,96,0.00,,---,0.78,VWS V14.01,2013-02-24 02:38:00,
2013-02-23 21:39:00,43.3,42.2,29.92,SSW,211,1.0,2.0,96,0.00,,---,0.78,VWS V14.01,2013-02-24 02:39:00,
2013-02-23 21:40:00,43.3,42.2,29.92,SW,225,0.0,1.0,96,0.00,,---,0.78,VWS V14.01,2013-02-24 02:40:00,
2013-02-23 21:41:00,43.3,42.2,29.92,SW,225,0.0,1.0,96,0.00,,---,0.78,VWS V14.01,2013-02-24 02:41:00,
2013-02-23 21:42:00,43.3,42.2,29.92,SW,219,0.0,1.0,96,0.00,,---,0.78,VWS V14.01,2013-02-24 02:42:00,
2013-02-23 21:43:00,43.3,42.2,29.92,SW,219,0.0,1.0,96,0.00,,---,0.78,VWS V14.01,2013-02-24 02:43:00,
2013-02-23 21:44:00,43.3,42.2,29.92,SW,217,1.0,1.0,96,0.00,,---,0.78,VWS V14.01,2013-02-24 02:44:00,
2013-02-23 21:45:00,43.3,42.2,29.92,SW,236,2.0,2.0,96,0.00,,---,0.78,VWS V14.01,2013-02-24 02:45:00,
2013-02-23 21:46:00,43.3,42.2,29.92,SW,217,0.0,2.0,96,0.00,,---,0.78,VWS V14.01,2013-02-24 02:46:00,
2013-02-23 21:47:00,43.3,42.2,29.92,SW,216,0.0,0.0,96,0.00,,---,0.78,VWS V14.01,2013-02-24 02:47:00,
2013-02-23 21:48:00,43.3,42.2,29.92,SW,216,0.0,0.0,96,0.00,,---,0.78,VWS V14.01,2013-02-24 02:48:00,
2013-02-23 21:49:00,43.3,42.2,29.91,SSW,209,0.0,0.0,96,0.00,,---,0.78,VWS V14.01,2013-02-24 02:49:00,
2013-02-23 21:50:00,43.3,42.2,29.91,SSW,209,0.0,0.0,96,0.00,,---,0.78,VWS V14.01,2013-02-24 02:50:00,
2013-02-23 21:51:00,43.3,42.2,29.91,SSW,213,2.0,2.0,96,0.00,,---,0.78,VWS V14.01,2013-02-24 02:51:00,
2013-02-23 21:52:00,43.3,42.2,29.91,South,174,1.0,1.0,96,0.00,,---,0.78,VWS V14.01,2013-02-24 02:52:00,
2013-02-23 21:53:00,43.3,42.2,29.91,SSW,199,0.0,2.0,96,0.00,,---,0.78,VWS V14.01,2013-02-24 02:53:00,
2013-02-23 21:54:00,43.3,42.2,29.91,SSW,211,1.0,2.0,96,0.00,,---,0.78,VWS V14.01,2013-02-24 02:54:00,
2013-02-23 21:55:00,43.3,42.2,29.91,WSW,254,0.0,1.0,96,0.00,,---,0.78,VWS V14.01,2013-02-24 02:55:00,
2013-02-23 21:56:00,43.3,42.2,29.91,WSW,249,0.0,0.0,96,0.00,,---,0.78,VWS V14.01,2013-02-24 02:56:00,
2013-02-23 21:57:00,43.3,42.2,29.91,SSW,201,0.0,1.0,96,0.00,,---,0.78,VWS V14.01,2013-02-24 02:57:00,
2013-02-23 21:59:00,43.3,42.2,29.90,SSE,165,0.0,2.0,96,0.00,,---,0.78,VWS V14.01,2013-02-24 02:59:00,
2013-02-23 22:00:00,43.3,42.2,29.90,SSE,167,1.0,3.0,96,0.00,,---,0.78,VWS V14.01,2013-02-24 03:00:00,
2013-02-23 22:01:00,43.3,42.2,29.90,SSW,205,2.0,2.0,96,0.00,,---,0.78,VWS V14.01,2013-02-24 03:01:00,
2013-02-23 22:02:00,43.3,42.2,29.90,South,188,0.0,2.0,96,0.00,,---,0.78,VWS V14.01,2013-02-24 03:02:00,
2013-02-23 22:03:00,43.3,42.2,29.90,SE,130,0.0,1.0,96,0.00,,---,0.78,VWS V14.01,2013-02-24 03:03:00,
2013-02-23 22:04:00,43.3,42.2,29.90,SSW,206,1.0,2.0,96,0.00,,---,0.78,VWS V14.01,2013-02-24 03:04:00,
2013-02-23 22:05:00,43.3,42.2,29.90,SSW,207,1.0,2.0,96,0.00,,---,0.78,VWS V14.01,2013-02-24 03:05:00,
2013-02-23 22:06:00,43.3,42.2,29.90,SSW,207,0.0,1.0,96,0.00,,---,0.78,VWS V14.01,2013-02-24 03:06:00,
2013-02-23 22:07:00,43.3,42.2,29.90,SSW,207,0.0,0.0,96,0.00,,---,0.78,VWS V14.01,2013-02-24 03:07:00,
2013-02-23 22:08:00,43.3,42.2,29.90,SSW,207,0.0,0.0,96,0.00,,---,0.78,VWS V14.01,2013-02-24 03:08:00,
2013-02-23 22:09:00,43.3,42.2,29.90,SSW,207,0.0,0.0,96,0.00,,---,0.78,VWS V14.01,2013-02-24 03:09:00,
2013-02-23 22:10:00,43.3,42.2,29.90,SSW,207,0.0,1.0,96,0.00,,---,0.78,VWS V14.01,2013-02-24 03:10:00,
2013-02-23 22:11:00,43.3,42.2,29.90,SSW,207,0.0,0.0,96,0.00,,---,0.78,VWS V14.01,2013-02-24 03:11:00,
2013-02-23 22:12:00,43.3,42.2,29.90,SSW,207,0.0,0.0,96,0.00,,---,0.78,VWS V14.01,2013-02-24 03:12:00,
2013-02-23 22:13:00,43.3,42.2,29.90,SSW,207,1.0,1.0,96,0.00,,---,0.78,VWS V14.01,2013-02-24 03:13:00,
2013-02-23 22:14:00,43.3,42.2,29.90,SW,222,1.0,1.0,96,0.00,,---,0.78,VWS V14.01,2013-02-24 03:14:00,
2013-02-23 22:15:00,43.3,42.2,29.90,SW,216,0.0,1.0,96,0.00,,---,0.78,VWS V14.01,2013-02-24 03:15:00,
2013-02-23 22:16:00,43.4,42.3,29.90,SW,217,0.0,0.0,96,0.00,,---,0.78,VWS V14.01,2013-02-24 03:16:00,
2013-02-23 22:17:00,43.3,42.2,29.90,SW,236,1.0,1.0,96,0.00,,---,0.78,VWS V14.01,2013-02-24 03:17:00,
2013-02-23 22:18:00,43.3,42.2,29.90,SW,236,1.0,2.0,96,0.00,,---,0.78,VWS V14.01,2013-02-24 03:18:00,
2013-02-23 22:19:00,43.3,42.2,29.90,WSW,242,1.0,2.0,96,0.00,,---,0.78,VWS V14.01,2013-02-24 03:19:00,
2013-02-23 22:20:00,43.3,42.2,29.90,WSW,242,1.0,1.0,96,0.00,,---,0.78,VWS V14.01,2013-02-24 03:20:00,
2013-02-23 22:21:00,43.3,42.2,29.90,WSW,242,0.0,1.0,96,0.00,,---,0.78,VWS V14.01,2013-02-24 03:21:00,
2013-02-23 22:22:00,43.3,42.2,29.90,WSW,242,0.0,0.0,96,0.00,,---,0.78,VWS V14.01,2013-02-24 03:22:00,
2013-02-23 22:23:00,43.3,42.2,29.90,WSW,242,0.0,0.0,96,0.00,,---,0.78,VWS V14.01,2013-02-24 03:23:00,
2013-02-23 22:24:00,43.4,42.3,29.89,WSW,242,0.0,1.0,96,0.00,,---,0.78,VWS V14.01,2013-02-24 03:24:00,
2013-02-23 22:25:00,43.4,42.3,29.89,WSW,242,0.0,0.0,96,0.00,,---,0.78,VWS V14.01,2013-02-24 03:25:00,
2013-02-23 22:26:00,43.3,42.2,29.89,WSW,242,0.0,1.0,96,0.00,,---,0.78,VWS V14.01,2013-02-24 03:26:00,
2013-02-23 22:27:00,43.3,42.2,29.89,WSW,242,0.0,0.0,96,0.00,,---,0.78,VWS V14.01,2013-02-24 03:27:00,
2013-02-23 22:28:00,43.3,42.2,29.89,WSW,242,0.0,0.0,96,0.00,,---,0.78,VWS V14.01,2013-02-24 03:28:00,
2013-02-23 22:29:00,43.3,42.2,29.89,WSW,242,0.0,0.0,96,0.00,,---,0.78,VWS V14.01,2013-02-24 03:29:00,
2013-02-23 22:30:00,43.3,42.2,29.89,SW,225,1.0,1.0,96,0.00,,---,0.78,VWS V14.01,2013-02-24 03:30:00,
2013-02-23 22:31:00,43.3,42.2,29.89,WSW,249,1.0,1.0,96,0.00,,---,0.78,VWS V14.01,2013-02-24 03:31:00,
2013-02-23 22:32:00,43.3,42.2,29.89,WSW,240,1.0,1.0,96,0.00,,---,0.78,VWS V14.01,2013-02-24 03:32:00,
2013-02-23 22:33:00,43.3,42.2,29.89,West,277,2.0,2.0,96,0.00,,---,0.78,VWS V14.01,2013-02-24 03:33:00,
2013-02-23 22:34:00,43.3,42.2,29.89,West,260,1.0,2.0,96,0.00,,---,0.78,VWS V14.01,2013-02-24 03:34:00,
2013-02-23 22:35:00,43.3,42.2,29.89,West,259,1.0,1.0,96,0.00,,---,0.78,VWS V14.01,2013-02-24 03:35:00,
2013-02-23 22:36:00,43.3,42.2,29.89,SW,222,1.0,1.0,96,0.00,,---,0.78,VWS V14.01,2013-02-24 03:36:00,
2013-02-23 22:37:00,43.2,42.1,29.89,SW,220,2.0,2.0,96,0.00,,---,0.78,VWS V14.01,2013-02-24 03:37:00,
2013-02-23 22:38:00,43.2,42.1,29.89,SSE,164,2.0,2.0,96,0.00,,---,0.78,VWS V14.01,2013-02-24 03:38:00,
2013-02-23 22:39:00,43.3,42.2,29.89,SSW,199,1.0,2.0,96,0.00,,---,0.78,VWS V14.01,2013-02-24 03:39:00,
2013-02-23 22:40:00,43.3,42.2,29.89,SSW,198,0.0,2.0,96,0.00,,---,0.78,VWS V14.01,2013-02-24 03:40:00,
2013-02-23 22:41:00,43.3,42.2,29.89,SSW,198,0.0,0.0,96,0.00,,---,0.78,VWS V14.01,2013-02-24 03:41:00,
2013-02-23 22:42:00,43.2,42.1,29.89,SSW,198,0.0,0.0,96,0.00,,---,0.78,VWS V14.01,2013-02-24 03:42:00,
2013-02-23 22:43:00,43.2,42.1,29.89,SSW,198,0.0,0.0,96,0.00,,---,0.78,VWS V14.01,2013-02-24 03:43:00,
2013-02-23 22:44:00,43.3,42.2,29.89,SSW,198,0.0,0.0,96,0.00,,---,0.78,VWS V14.01,2013-02-24 03:44:00,
2013-02-23 22:45:00,43.3,42.2,29.89,SSW,198,0.0,0.0,96,0.00,,---,0.78,VWS V14.01,2013-02-24 03:45:00,
2013-02-23 22:46:00,43.3,42.2,29.89,SSW,198,0.0,0.0,96,0.00,,---,0.78,VWS V14.01,2013-02-24 03:46:00,
2013-02-23 22:47:00,43.3,42.2,29.88,SSW,198,0.0,0.0,96,0.00,,---,0.78,VWS V14.01,2013-02-24 03:47:00,
2013-02-23 22:48:00,43.3,42.2,29.88,SSW,202,0.0,1.0,96,0.00,,---,0.78,VWS V14.01,2013-02-24 03:48:00,
2013-02-23 22:49:00,43.3,42.2,29.88,South,180,1.0,2.0,96,0.00,,---,0.78,VWS V14.01,2013-02-24 03:49:00,
2013-02-23 22:50:00,43.2,42.1,29.88,SSE,158,1.0,1.0,96,0.00,,---,0.78,VWS V14.01,2013-02-24 03:50:00,
2013-02-23 22:51:00,43.2,42.1,29.88,SSE,158,0.0,1.0,96,0.00,,---,0.78,VWS V14.01,2013-02-24 03:51:00,
2013-02-23 22:52:00,43.3,42.2,29.88,West,270,1.0,2.0,96,0.00,,---,0.78,VWS V14.01,2013-02-24 03:52:00,
2013-02-23 22:53:00,43.2,42.1,29.88,WSW,248,2.0,3.0,96,0.00,,---,0.78,VWS V14.01,2013-02-24 03:53:00,
2013-02-23 22:54:00,43.2,42.1,29.89,WSW,248,2.0,3.0,96,0.00,,---,0.78,VWS V14.01,2013-02-24 03:54:00,
2013-02-23 22:55:00,43.2,42.1,29.88,WSW,248,2.0,3.0,96,0.00,,---,0.78,VWS V14.01,2013-02-24 03:55:00,
2013-02-23 22:56:00,43.2,42.1,29.88,WSW,248,1.0,2.0,96,0.00,,---,0.78,VWS V14.01,2013-02-24 03:56:00,
2013-02-23 22:57:00,43.2,42.1,29.88,WSW,248,0.0,1.0,96,0.00,,---,0.78,VWS V14.01,2013-02-24 03:57:00,
2013-02-23 22:58:00,43.2,42.1,29.88,WSW,248,0.0,0.0,96,0.00,,---,0.78,VWS V14.01,2013-02-24 03:58:00,
2013-02-23 22:59:00,43.2,42.1,29.88,WSW,248,0.0,1.0,96,0.00,,---,0.78,VWS V14.01,2013-02-24 03:59:00,
2013-02-23 23:00:00,43.2,42.1,29.88,West,270,2.0,3.0,96,0.00,,---,0.78,VWS V14.01,2013-02-24 04:00:00,
2013-02-23 23:01:00,43.2,42.1,29.88,WNW,292,2.0,2.0,96,0.00,,---,0.78,VWS V14.01,2013-02-24 04:01:00,
2013-02-23 23:02:00,43.2,42.1,29.88,NW,315,1.0,2.0,96,0.00,,---,0.78,VWS V14.01,2013-02-24 04:02:00,
2013-02-23 23:03:00,43.2,42.1,29.88,NW,315,0.0,1.0,96,0.00,,---,0.78,VWS V14.01,2013-02-24 04:03:00,
2013-02-23 23:04:00,43.2,42.1,29.88,NW,315,0.0,0.0,96,0.00,,---,0.78,VWS V14.01,2013-02-24 04:04:00,
2013-02-23 23:05:00,43.2,42.1,29.88,NW,315,0.0,0.0,96,0.00,,---,0.78,VWS V14.01,2013-02-24 04:05:00,
2013-02-23 23:06:00,43.2,42.1,29.87,East,90,0.0,1.0,96,0.00,,---,0.78,VWS V14.01,2013-02-24 04:06:00,
2013-02-23 23:07:00,43.1,42.0,29.87,East,90,1.0,2.0,96,0.00,,---,0.78,VWS V14.01,2013-02-24 04:07:00,
2013-02-23 23:08:00,43.1,42.0,29.87,East,90,1.0,3.0,96,0.00,,---,0.78,VWS V14.01,2013-02-24 04:08:00,
2013-02-23 23:09:00,43.1,42.0,29.88,East,90,3.0,3.0,96,0.00,,---,0.78,VWS V14.01,2013-02-24 04:09:00,
2013-02-23 23:10:00,43.1,42.0,29.88,SW,225,1.0,2.0,96,0.00,,---,0.78,VWS V14.01,2013-02-24 04:10:00,
2013-02-23 23:11:00,43.1,42.0,29.87,ESE,112,2.0,4.0,96,0.00,,---,0.78,VWS V14.01,2013-02-24 04:11:00,
2013-02-23 23:12:00,43.1,42.0,29.86,ESE,112,4.0,4.0,96,0.00,,---,0.78,VWS V14.01,2013-02-24 04:12:00,
2013-02-23 23:13:00,43.1,42.0,29.86,SE,135,1.0,2.0,96,0.00,,---,0.78,VWS V14.01,2013-02-24 04:13:00,
2013-02-23 23:14:00,43.1,42.0,29.87,WSW,248,4.0,5.0,96,0.00,,---,0.78,VWS V14.01,2013-02-24 04:14:00,
2013-02-23 23:15:00,43.1,42.0,29.88,WSW,248,3.0,5.0,96,0.00,,---,0.78,VWS V14.01,2013-02-24 04:15:00,
2013-02-23 23:16:00,43.1,42.0,29.88,SSW,202,1.0,2.0,96,0.00,,---,0.78,VWS V14.01,2013-02-24 04:16:00,
2013-02-23 23:17:00,43.1,42.0,29.87,ESE,112,1.0,2.0,96,0.00,,---,0.78,VWS V14.01,2013-02-24 04:17:00,
2013-02-23 23:18:00,43.1,42.0,29.87,ESE,112,1.0,2.0,96,0.00,,---,0.78,VWS V14.01,2013-02-24 04:18:00,
2013-02-23 23:19:00,43.1,42.0,29.87,South,180,1.0,2.0,96,0.00,,---,0.78,VWS V14.01,2013-02-24 04:19:00,
2013-02-23 23:20:00,43.1,42.0,29.87,SW,225,1.0,2.0,96,0.00,,---,0.78,VWS V14.01,2013-02-24 04:20:00,
2013-02-23 23:21:00,43.1,42.0,29.88,West,270,2.0,3.0,96,0.00,,---,0.78,VWS V14.01,2013-02-24 04:21:00,
2013-02-23 23:22:00,43.1,42.0,29.88,NW,315,1.0,2.0,96,0.00,,---,0.78,VWS V14.01,2013-02-24 04:22:00,
2013-02-23 23:23:00,43.1,42.0,29.88,NNE,22,1.0,2.0,96,0.00,,---,0.78,VWS V14.01,2013-02-24 04:23:00,
2013-02-23 23:24:00,43.1,42.0,29.87,ESE,112,0.0,1.0,96,0.00,,---,0.78,VWS V14.01,2013-02-24 04:24:00,
2013-02-23 23:25:00,43.1,42.0,29.87,SSE,158,2.0,3.0,96,0.00,,---,0.78,VWS V14.01,2013-02-24 04:25:00,
2013-02-23 23:26:00,43.1,42.0,29.87,SSE,158,3.0,4.0,96,0.00,,---,0.78,VWS V14.01,2013-02-24 04:26:00,
2013-02-23 23:27:00,43.1,42.0,29.87,South,180,3.0,3.0,96,0.00,,---,0.78,VWS V14.01,2013-02-24 04:27:00,
2013-02-23 23:28:00,43.1,42.0,29.88,SW,225,3.0,3.0,96,0.00,,---,0.78,VWS V14.01,2013-02-24 04:28:00,
2013-02-23 23:29:00,43.1,42.0,29.88,WSW,248,2.0,3.0,96,0.00,,---,0.78,VWS V14.01,2013-02-24 04:29:00,
2013-02-23 23:30:00,43.1,42.0,29.88,SW,225,2.0,4.0,96,0.00,,---,0.78,VWS V14.01,2013-02-24 04:30:00,
2013-02-23 23:31:00,43.1,42.0,29.87,SSE,158,1.0,2.0,96,0.00,,---,0.78,VWS V14.01,2013-02-24 04:31:00,
2013-02-23 23:32:00,43.1,42.0,29.87,SW,225,1.0,2.0,96,0.00,,---,0.78,VWS V14.01,2013-02-24 04:32:00,
2013-02-23 23:33:00,43.1,42.0,29.88,WSW,248,3.0,4.0,96,0.00,,---,0.78,VWS V14.01,2013-02-24 04:33:00,
2013-02-23 23:34:00,43.2,42.1,29.89,WSW,248,4.0,6.0,96,0.00,,---,0.78,VWS V14.01,2013-02-24 04:34:00,
2013-02-23 23:35:00,43.2,42.1,29.89,WSW,248,1.0,3.0,96,0.00,,---,0.78,VWS V14.01,2013-02-24 04:35:00,
2013-02-23 23:36:00,43.2,42.1,29.88,SSE,158,2.0,3.0,96,0.00,,---,0.78,VWS V14.01,2013-02-24 04:36:00,
2013-02-23 23:37:00,43.2,42.1,29.87,SSE,158,2.0,3.0,96,0.00,,---,0.78,VWS V14.01,2013-02-24 04:37:00,
2013-02-23 23:38:00,43.2,42.1,29.87,SE,135,1.0,1.0,96,0.00,,---,0.78,VWS V14.01,2013-02-24 04:38:00,
2013-02-23 23:39:00,43.1,42.0,29.87,West,270,0.0,1.0,96,0.00,,---,0.78,VWS V14.01,2013-02-24 04:39:00,
2013-02-23 23:40:00,43.2,42.1,29.88,West,270,2.0,4.0,96,0.00,,---,0.78,VWS V14.01,2013-02-24 04:40:00,
2013-02-23 23:41:00,43.1,42.0,29.88,West,270,2.0,3.0,96,0.00,,---,0.78,VWS V14.01,2013-02-24 04:41:00,
2013-02-23 23:42:00,43.2,42.1,29.88,West,270,2.0,3.0,96,0.00,,---,0.78,VWS V14.01,2013-02-24 04:42:00,
2013-02-23 23:43:00,43.2,42.1,29.88,WSW,248,1.0,2.0,96,0.00,,---,0.78,VWS V14.01,2013-02-24 04:43:00,
2013-02-23 23:44:00,43.1,42.0,29.88,WSW,248,1.0,2.0,96,0.00,,---,0.78,VWS V14.01,2013-02-24 04:44:00,
2013-02-23 23:45:00,43.1,42.0,29.89,WSW,248,2.0,2.0,96,0.00,,---,0.78,VWS V14.01,2013-02-24 04:45:00,
2013-02-23 23:46:00,43.1,42.0,29.89,WSW,248,3.0,4.0,96,0.00,,---,0.78,VWS V14.01,2013-02-24 04:46:00,
2013-02-23 23:47:00,43.2,42.1,29.89,WSW,248,2.0,4.0,96,0.00,,---,0.78,VWS V14.01,2013-02-24 04:47:00,
2013-02-23 23:48:00,43.2,42.1,29.89,West,270,1.0,2.0,96,0.00,,---,0.78,VWS V14.01,2013-02-24 04:48:00,
2013-02-23 23:49:00,43.2,42.1,29.89,West,270,2.0,3.0,96,0.00,,---,0.78,VWS V14.01,2013-02-24 04:49:00,
2013-02-23 23:50:00,43.2,42.1,29.89,WNW,292,3.0,4.0,96,0.00,,---,0.78,VWS V14.01,2013-02-24 04:50:00,
2013-02-23 23:51:00,43.2,42.1,29.89,West,270,2.0,3.0,96,0.00,,---,0.78,VWS V14.01,2013-02-24 04:51:00,
2013-02-23 23:52:00,43.2,42.1,29.89,West,270,0.0,2.0,96,0.00,,---,0.78,VWS V14.01,2013-02-24 04:52:00,
2013-02-23 23:53:00,43.2,42.1,29.89,West,270,1.0,1.0,96,0.00,,---,0.78,VWS V14.01,2013-02-24 04:53:00,
2013-02-23 23:54:00,43.2,42.1,29.89,WSW,248,2.0,2.0,96,0.00,,---,0.78,VWS V14.01,2013-02-24 04:54:00,
2013-02-23 23:55:00,43.2,42.1,29.89,West,270,2.0,3.0,96,0.00,,---,0.78,VWS V14.01,2013-02-24 04:55:00,
2013-02-23 23:56:00,43.2,42.1,29.89,West,270,3.0,3.0,96,0.00,,---,0.78,VWS V14.01,2013-02-24 04:56:00,
2013-02-23 23:57:00,43.2,42.1,29.89,West,270,2.0,3.0,96,0.00,,---,0.78,VWS V14.01,2013-02-24 04:57:00,
2013-02-23 23:58:00,43.2,42.1,29.89,SW,225,2.0,2.0,96,0.00,,---,0.78,VWS V14.01,2013-02-24 04:58:00,
2013-02-23 23:59:00,43.2,42.1,29.89,SW,225,2.0,3.0,96,0.00,,---,0.78,VWS V14.01,2013-02-24 04:59:00,